Provisional Data: Chemung River near Elmira, NY


Please select a monitoring station.
Please select start date.
Please select start date.

Toggle Unit: C/F Toggle Unit: C/F
Sample Time Temperature (C) Temperature (F) Specific Conductivity (mS/cm) pH   Turbidity (NTU+) DO (mg/L)
8/9/2021 12:14:53 AM 20.8625 69.5525 0.2737501 7.462 90.04993 20.8625
8/9/2021 12:29:54 AM 20.83 69.494 0.2740499 7.4613 97.24988 20.83
8/9/2021 12:44:53 AM 20.8275 69.4895 0.2747501 7.4627 98.24988 20.8275
8/9/2021 12:59:53 AM 20.8125 69.4625 0.27545 7.4655 95.19995 20.8125
8/9/2021 1:14:54 AM 20.7925 69.4265 0.27615 7.4578 90.75012 20.7925
8/9/2021 1:29:54 AM 20.76 69.368 0.2772499 7.4508 86.15002 20.76
8/9/2021 1:44:53 AM 20.7425 69.3365 0.2779 7.4508 81.3501 20.7425
8/9/2021 1:59:54 AM 20.7075 69.2735 0.2786 7.4578 77.55005 20.7075
8/9/2021 2:14:53 AM 20.7075 69.2735 0.2793501 7.462 72.6499 20.7075
8/9/2021 2:29:54 AM 20.6725 69.2105 0.2799501 7.4683 67.69995 20.6725
8/9/2021 2:44:54 AM 20.675 69.215 0.2806499 7.4711 63.24988 20.675
8/9/2021 2:59:53 AM 20.675 69.215 0.2813501 7.4823 57.80005 20.675
8/9/2021 3:14:53 AM 20.6575 69.1835 0.2820499 7.4872 53.44995 20.6575
8/9/2021 3:29:53 AM 20.655 69.179 0.2824 7.4977 50.15002 20.655
8/9/2021 3:44:53 AM 20.655 69.179 0.2831 7.5068 46.24988 20.655
8/9/2021 3:59:53 AM 20.675 69.215 0.2838 7.5152 42.6499 20.675
8/9/2021 4:14:53 AM 20.675 69.215 0.2848001 7.5243 42.945 20.675
8/9/2021 4:29:53 AM 20.675 69.215 0.2855501 7.5348 40.2125 20.675
8/9/2021 4:44:53 AM 20.675 69.215 0.2866 7.5446 37.735 20.675
8/9/2021 4:59:54 AM 20.6725 69.2105 0.2873001 7.555099 36.1875 20.6725
8/9/2021 5:14:53 AM 20.655 69.179 0.2883501 7.564199 34.2675 20.655
8/9/2021 5:29:53 AM 20.675 69.215 0.289 7.573299 32.5175 20.675
8/9/2021 5:44:53 AM 20.675 69.215 0.2896999 7.579599 31.4125 20.675
8/9/2021 5:59:53 AM 20.6575 69.1835 0.2907 7.587999 30.12 20.6575
8/9/2021 6:14:53 AM 20.6575 69.1835 0.2914 7.592899 28.23 20.6575
8/9/2021 6:29:53 AM 20.6575 69.1835 0.2918001 7.598499 27.595 20.6575
8/9/2021 6:44:54 AM 20.6575 69.1835 0.29245 7.604799 27.07 20.6575
8/9/2021 6:59:54 AM 20.6575 69.1835 0.29285 7.603399 26.0225 20.6575
8/9/2021 7:14:54 AM 20.6575 69.1835 0.29315 7.606899 25.0025 20.6575
8/9/2021 7:29:54 AM 20.675 69.215 0.2935 7.608299 24.7675 20.675
8/9/2021 7:44:54 AM 20.6725 69.2105 0.2935 7.610399 23.875 20.6725
8/9/2021 7:59:54 AM 20.6925 69.2465 0.2935 7.607599 23.33 20.6925
8/9/2021 8:14:54 AM 20.7125 69.2825 0.2935 7.608999 22.9975 20.7125
8/9/2021 8:29:54 AM 20.71 69.278 0.29315 7.607599 22.215 20.71
8/9/2021 8:44:54 AM 20.7425 69.3365 0.2928 7.608299 21.925 20.7425
8/9/2021 8:59:54 AM 20.76 69.368 0.2921 7.608299 21.3325 20.76
8/9/2021 9:14:54 AM 20.76 69.368 0.2917501 7.604799 20.6225 20.76
8/9/2021 9:29:54 AM 20.7975 69.4355 0.2911 7.603399 19.8725 20.7975
8/9/2021 9:44:54 AM 20.83 69.494 0.2904 7.602699 19.7325 20.83
8/9/2021 9:59:54 AM 20.9 69.62 0.2893501 7.604799 20.0475 20.9
8/9/2021 10:14:54 AM 20.985 69.773 0.2876499 7.613199 21.2925 20.985
8/9/2021 10:29:54 AM 21.0575 69.9035 0.2862 7.618099 21.5025 21.0575
8/9/2021 10:44:54 AM 21.145 70.061 0.28485 7.623699 20.535 21.145
8/9/2021 10:59:54 AM 21.2275 70.2095 0.2834499 7.627199 19.7825 21.2275
8/9/2021 11:14:54 AM 21.3125 70.3625 0.2821 7.632099 19.555 21.3125
8/9/2021 11:29:54 AM 21.4025 70.5245 0.2806499 7.641899 18.7475 21.4025
8/9/2021 11:44:54 AM 21.505 70.709 0.2796499 7.652399 18.4325 21.505
8/9/2021 11:59:54 AM 16.855 62.339 0.5131 7.285601 8.43 16.855
8/9/2021 12:14:54 PM 15.5875 60.0575 0.5435501 7.266001 7.137497 15.5875
8/9/2021 12:29:54 PM 17.665 63.797 0.4366 7.3304 101.85 17.665
8/9/2021 12:44:54 PM 20.5275 68.9495 0.30515 7.5201 58 20.5275
8/9/2021 12:59:54 PM 21.415 70.547 0.28445 7.646799 30.9325 21.415
8/9/2021 1:14:54 PM 21.745 71.141 0.2781999 7.723101 22.215 21.745
8/9/2021 1:29:54 PM 21.915 71.44701 0.2751 7.7819 19.3025 21.915
8/9/2021 1:44:54 PM 22.1275 71.8295 0.2730499 7.8323 18.27 22.1275
8/9/2021 1:59:54 PM 22.385 72.293 0.2713 7.8806 17.28 22.385
8/9/2021 2:14:54 PM 22.5575 72.6035 0.2703001 7.924 16.5075 22.5575
8/9/2021 2:29:54 PM 22.6125 72.7025 0.2699501 7.9611 16.5275 22.6125
8/9/2021 2:44:54 PM 22.6275 72.7295 0.2702 8.001699 16.24 22.6275
8/9/2021 2:59:54 PM 22.6625 72.7925 0.2699 8.030399 16.065 22.6625
8/9/2021 3:14:54 PM 22.7125 72.8825 0.2699501 8.054199 15.5825 22.7125
8/9/2021 3:29:53 PM 22.765 72.977 0.2702499 8.078699 15.44 22.765
8/9/2021 3:59:54 PM 22.92 73.256 0.2709501 8.127701 15.49 22.92
8/9/2021 4:14:54 PM 22.975 73.355 0.2712499 8.146601 15.3075 22.975
8/9/2021 4:29:54 PM 22.99 73.382 0.2719501 8.157101 15.225 22.99
8/9/2021 4:44:54 PM 23.0425 73.4765 0.2723501 8.169701 15.275 23.0425
8/9/2021 4:59:54 PM 23.1125 73.6025 0.273 8.190701 15.0025 23.1125
8/9/2021 5:14:54 PM 23.1275 73.6295 0.2736999 8.2005 14.9525 23.1275
8/9/2021 5:29:54 PM 23.1475 73.6655 0.2744 8.2089 15.3275 23.1475
8/9/2021 5:44:54 PM 23.1825 73.7285 0.2747501 8.2299 15.405 23.1825
8/9/2021 5:59:54 PM 23.2175 73.7915 0.2754 8.2341 15.225 23.2175
8/9/2021 6:14:54 PM 23.215 73.787 0.2757501 8.2397 15.1825 23.215
8/9/2021 6:29:54 PM 23.23 73.814 0.2761 8.2446 15.22 23.23
8/9/2021 6:44:54 PM 23.235 73.823 0.2765 8.2481 15.025 23.235
8/9/2021 6:59:54 PM 23.235 73.823 0.2764499 8.253 14.97 23.235
8/9/2021 7:14:54 PM 23.2325 73.8185 0.2768 8.2544 14.815 23.2325
8/9/2021 7:29:54 PM 23.1975 73.7555 0.2768 8.2502 14.6775 23.1975
8/9/2021 7:44:54 PM 23.15 73.67 0.2768 8.2481 14.56 23.15
8/9/2021 7:59:54 PM 23.095 73.571 0.27715 8.2425 14.5125 23.095
8/9/2021 8:14:54 PM 23.0275 73.4495 0.27715 8.2285 14.6975 23.0275
8/9/2021 8:29:54 PM 22.955 73.319 0.2775 8.2257 14.575 22.955
8/9/2021 8:44:54 PM 22.905 73.229 0.2775 8.2215 14.45 22.905
8/9/2021 8:59:54 PM 22.87 73.166 0.2775 8.2152 14.5575 22.87
8/9/2021 9:14:54 PM 22.8 73.04 0.27755 8.2117 14.56 22.8
8/9/2021 9:29:54 PM 22.75 72.95 0.2775 8.2019 14.5075 22.75
8/9/2021 9:44:54 PM 22.7 72.86 0.2775 8.187201 14.385 22.7
8/9/2021 9:59:53 PM 22.645 72.761 0.2772 8.177401 14.44 22.645
8/9/2021 10:14:54 PM 22.595 72.671 0.27685 8.162701 14.245 22.5975
8/9/2021 10:29:53 PM 22.5625 72.6125 0.2765501 8.146601 14.3525 22.5625
8/9/2021 10:44:54 PM 22.51 72.518 0.2765 8.138201 14.8625 22.51
8/9/2021 10:59:54 PM 22.455 72.419 0.2761999 8.124201 14.16 22.455
8/9/2021 11:14:54 PM 22.405 72.329 0.27615 8.113001 14.46 22.405
8/9/2021 11:29:53 PM 22.37 72.266 0.2761999 8.100401 14.0525 22.37
8/9/2021 11:44:54 PM 22.335 72.203 0.2765 8.086399 14.6025 22.335
8/10/2021 12:14:54 AM 22.25 72.05 0.2772 8.056299 15.8575 22.25
8/10/2021 12:29:53 AM 22.235 72.023 0.2772 8.045799 22.96 22.235
8/10/2021 12:44:53 AM 22.2 71.96 0.2779 8.040899 20.64 22.2
8/10/2021 12:59:54 AM 22.1625 71.8925 0.279 8.025499 19.835 22.1625
8/10/2021 1:14:54 AM 22.1475 71.86549 0.2796499 8.012899 18.71 22.1475
8/10/2021 1:29:54 AM 22.1125 71.8025 0.2806499 8.000999 16.9775 22.1125
8/10/2021 1:44:54 AM 22.095 71.771 0.2814 7.993999 16.655 22.095
8/10/2021 1:59:54 AM 22.08 71.744 0.2824 7.9835 16.375 22.08
8/10/2021 2:14:54 AM 22.06 71.708 0.2834499 7.9737 15.76 22.06
8/10/2021 2:29:54 AM 22.025 71.645 0.2845 7.9695 15.7125 22.025
8/10/2021 2:44:54 AM 22.0075 71.6135 0.2851999 7.9604 15.2675 22.0075
8/10/2021 2:59:54 AM 21.975 71.555 0.2859 7.9492 15.1825 21.975
8/10/2021 3:14:54 AM 21.955 71.519 0.2866 7.945 15.27 21.955
8/10/2021 3:29:54 AM 21.94 71.492 0.2873001 7.9331 14.6875 21.94
8/10/2021 3:44:54 AM 21.905 71.429 0.2879501 7.9261 14.74 21.905
8/10/2021 3:59:54 AM 21.89 71.402 0.2883 7.9163 14.4925 21.89
8/10/2021 4:14:54 AM 21.8725 71.3705 0.2886499 7.9058 14.4775 21.8725
8/10/2021 4:29:54 AM 21.8725 71.3705 0.2890499 7.8953 14.505 21.8725
8/10/2021 4:44:54 AM 21.84 71.312 0.2894 7.8911 14.44 21.84
8/10/2021 4:59:54 AM 21.835 71.30299 0.2897501 7.8771 14.165 21.835
8/10/2021 5:14:54 AM 21.82 71.276 0.2900499 7.8659 14.8275 21.82
8/10/2021 5:29:54 AM 21.8025 71.2445 0.2901 7.8526 14.405 21.8025
8/10/2021 5:44:54 AM 21.7825 71.2085 0.2904499 7.8484 14.1125 21.7825
8/10/2021 5:59:54 AM 21.75 71.15 0.2904499 7.8386 14.165 21.75
8/10/2021 6:14:54 AM 21.7175 71.0915 0.2908 7.8267 14.445 21.7175
8/10/2021 6:29:54 AM 21.7 71.06 0.2908 7.8141 14.5025 21.7
8/10/2021 6:44:53 AM 21.6975 71.0555 0.2907501 7.8036 14.775 21.6975
8/10/2021 6:59:54 AM 21.715 71.087 0.2907501 7.7952 14.4925 21.715
8/10/2021 7:14:54 AM 21.7175 71.0915 0.2907501 7.7833 14.495 21.7175
8/10/2021 7:29:54 AM 21.735 71.123 0.2908 7.7791 14.2675 21.735
8/10/2021 7:44:53 AM 21.75 71.15 0.2904 7.7749 14.1425 21.75
8/10/2021 7:59:54 AM 21.785 71.213 0.2904499 7.7679 14.3825 21.785
8/10/2021 8:14:54 AM 21.8 71.24 0.2903501 7.7644 13.8825 21.8
8/10/2021 8:29:53 AM 21.8025 71.2445 0.2907501 7.757401 13.845 21.8025
8/10/2021 8:59:54 AM 21.82 71.276 0.2914 7.749701 9.610001 21.82
8/10/2021 9:14:54 AM 21.835 71.30299 0.2913501 7.744801 9.452499 21.835
8/10/2021 9:29:54 AM 21.8525 71.3345 0.2917501 7.739901 9.400002 21.8525
8/10/2021 9:44:54 AM 21.87 71.366 0.2921 7.738501 9.364998 21.87
8/10/2021 9:59:54 AM 21.87 71.366 0.2925 7.734301 8.985001 21.87
8/10/2021 10:14:54 AM 21.8525 71.3345 0.29245 7.729401 8.269997 21.8525
8/10/2021 10:29:54 AM 21.885 71.393 0.2921 7.728701 8.120003 21.885
8/10/2021 10:44:54 AM 21.905 71.429 0.2924 7.734301 8.220001 21.905
8/10/2021 10:59:54 AM 21.94 71.492 0.2928 7.739201 8.047501 21.94
8/10/2021 11:14:54 AM 21.9725 71.5505 0.2928 7.745501 7.889999 21.9725
8/10/2021 11:29:54 AM 21.99 71.582 0.29315 7.749001 7.782501 21.99
8/10/2021 11:44:54 AM 22.0575 71.7035 0.2934499 7.759501 7.557503 22.0575
8/10/2021 11:59:54 AM 22.11 71.798 0.2938001 7.7742 7.519997 22.11
8/10/2021 12:14:54 PM 22.18 71.924 0.2938001 7.7875 7.730003 22.18
8/10/2021 12:29:54 PM 22.25 72.05 0.29415 7.8015 7.712502 22.25
8/10/2021 12:44:54 PM 22.3175 72.1715 0.29415 7.8113 7.552498 22.3175
8/10/2021 12:59:54 PM 22.3525 72.2345 0.2945 7.8218 7.537498 22.3525
8/10/2021 1:14:54 PM 22.42 72.356 0.2948 7.8323 7.467499 22.42
8/10/2021 1:29:54 PM 22.49 72.482 0.29515 7.8505 7.552498 22.49
8/10/2021 1:44:54 PM 22.5425 72.5765 0.2952 7.8736 7.537498 22.5425
8/10/2021 1:59:54 PM 22.6125 72.7025 0.2955 7.8939 7.449997 22.6125
8/10/2021 2:14:54 PM 22.6625 72.7925 0.2955 7.917 7.517502 22.6625
8/10/2021 2:29:53 PM 22.75 72.95 0.2955 7.9429 7.654999 22.75
8/10/2021 2:44:54 PM 22.8375 73.1075 0.2958001 7.966 7.43 22.8375
8/10/2021 2:59:54 PM 22.9225 73.2605 0.2961999 7.991899 7.377502 22.9225
8/10/2021 3:14:54 PM 23.01 73.418 0.2961999 8.019899 7.410004 23.01
8/10/2021 3:29:54 PM 23.08 73.544 0.29655 8.044399 7.547501 23.08
8/10/2021 3:44:54 PM 23.13 73.634 0.2969 8.068899 7.375 23.13
8/10/2021 3:59:54 PM 23.2 73.76 0.2972499 8.093399 7.445 23.2
8/10/2021 4:14:53 PM 23.3025 73.9445 0.2972 8.122801 7.540001 23.3025
8/10/2021 4:29:54 PM 23.355 74.039 0.2979501 8.150801 7.809998 23.355
8/10/2021 4:44:54 PM 23.4075 74.1335 0.2982499 8.171801 7.964996 23.4075
8/10/2021 4:59:54 PM 23.4775 74.25951 0.2982499 8.190701 7.792503 23.4775
8/10/2021 5:14:54 PM 23.5125 74.3225 0.2986499 8.204 8.07 23.5125
8/10/2021 5:29:54 PM 23.5825 74.4485 0.299 8.2236 7.775002 23.5825
8/10/2021 5:44:54 PM 23.615 74.507 0.2993 8.2432 7.6175 23.615
8/10/2021 5:59:54 PM 23.685 74.633 0.2999501 8.2642 7.7575 23.685
8/10/2021 6:14:54 PM 23.72 74.696 0.3003501 8.2796 7.639999 23.72
8/10/2021 6:29:54 PM 23.755 74.759 0.3006999 8.2936 7.567497 23.755
8/10/2021 6:44:54 PM 23.79 74.82201 0.3010499 8.302 7.532501 23.79
8/10/2021 6:59:54 PM 23.825 74.885 0.3013501 8.3167 7.550003 23.825
8/10/2021 7:14:54 PM 23.84 74.912 0.3020499 8.3223 7.584999 23.84
8/10/2021 7:29:54 PM 23.84 74.912 0.3024 8.323 7.602501 23.84
8/10/2021 7:44:54 PM 23.8075 74.8535 0.30315 8.3265 7.672501 23.8075
8/10/2021 7:59:54 PM 23.79 74.82201 0.3037501 8.3272 7.887497 23.79
8/10/2021 8:14:54 PM 23.775 74.795 0.30415 8.3258 8.872498 23.775
8/10/2021 8:29:54 PM 23.7525 74.7545 0.30485 8.3328 9.235001 23.7525
8/10/2021 8:44:54 PM 23.735 74.723 0.3052 8.3419 9.220001 23.735
8/10/2021 8:59:54 PM 23.72 74.696 0.3059 8.3405 9.027496 23.72
8/10/2021 9:14:54 PM 23.7 74.66 0.3066 8.3468 9.127502 23.7
8/10/2021 9:29:54 PM 23.6675 74.6015 0.3069501 8.3475 9.012497 23.6675
8/10/2021 9:44:54 PM 23.6525 74.5745 0.3076 8.3468 9.1325 23.6525
8/10/2021 9:59:54 PM 23.6175 74.5115 0.3083 8.344 8.980003 23.6175
8/10/2021 10:14:54 PM 23.585 74.453 0.3090499 8.3321 9 23.585
8/10/2021 10:29:54 PM 23.55 74.39 0.3097 8.3174 9.067497 23.55
8/10/2021 10:44:54 PM 23.53 74.354 0.3100499 8.3083 8.894997 23.53
8/10/2021 10:59:54 PM 23.495 74.291 0.3111 8.2992 9.154999 23.495
8/10/2021 11:14:54 PM 23.46 74.228 0.3114499 8.2838 9.050003 23.46
8/10/2021 11:29:54 PM 23.4425 74.1965 0.31215 8.274 9.087502 23.4425
8/10/2021 11:44:54 PM 23.4125 74.1425 0.31285 8.2642 9.1875 23.4125
8/11/2021 12:14:54 AM 23.36 74.048 0.3142 8.2362 9.120003 23.36
8/11/2021 12:29:54 AM 23.3425 74.0165 0.31455 8.2208 9.207497 23.3425
8/11/2021 12:44:54 AM 23.305 73.949 0.3152499 8.2068 9.245003 23.305
8/11/2021 12:59:53 AM 23.29 73.922 0.3159501 8.191401 9.327499 23.29
8/11/2021 1:14:53 AM 23.2375 73.8275 0.3163 8.183001 9.452499 23.2375
8/11/2021 1:29:53 AM 23.2025 73.7645 0.3169501 8.163401 9.207497 23.2025
8/11/2021 1:44:54 AM 23.1525 73.6745 0.3176499 8.147301 9.089996 23.1525
8/11/2021 1:59:53 AM 23.1175 73.6115 0.3184 8.128401 9.292503 23.1175
8/11/2021 2:14:54 AM 23.065 73.517 0.3187 8.103901 9.139999 23.065
8/11/2021 2:29:53 AM 23.0125 73.4225 0.3194 8.088499 9.077499 23.0125
8/11/2021 2:44:54 AM 22.9775 73.3595 0.3198 8.070299 9.089996 22.9775
8/11/2021 2:59:54 AM 22.945 73.301 0.3204499 8.054199 9.074997 22.945
8/11/2021 3:14:54 AM 22.89 73.202 0.3208 8.037399 9.125 22.89
8/11/2021 3:29:53 AM 22.8575 73.1435 0.32145 8.020599 9.032501 22.8575
8/11/2021 3:44:53 AM 22.805 73.049 0.3221999 8.000299 9.057503 22.8075
8/11/2021 3:59:54 AM 22.77 72.986 0.3225501 7.987 9.002502 22.77
8/11/2021 4:14:54 AM 22.735 72.923 0.3232 7.9681 9.027496 22.735
8/11/2021 4:29:54 AM 22.7 72.86 0.32355 7.9527 8.927498 22.7
8/11/2021 4:44:54 AM 22.6475 72.7655 0.3242499 7.9394 8.904999 22.6475
8/11/2021 4:59:54 AM 22.615 72.707 0.3246 7.9289 9.074997 22.615
8/11/2021 5:14:54 AM 22.5825 72.6485 0.3249501 7.9198 8.887497 22.5825
8/11/2021 5:29:54 AM 22.545 72.581 0.3256 7.9044 8.902496 22.545
8/11/2021 5:44:54 AM 22.495 72.491 0.326 7.8946 8.919998 22.495
8/11/2021 5:59:54 AM 22.44 72.392 0.3266499 7.8855 8.410004 22.44
8/11/2021 6:14:54 AM 22.39 72.302 0.3270499 7.8757 8.525002 22.39
8/11/2021 6:29:54 AM 22.3375 72.2075 0.3277 7.8659 8.542503 22.3375
8/11/2021 6:44:54 AM 22.3025 72.1445 0.3281 7.8561 8.75 22.3025
8/11/2021 6:59:54 AM 22.285 72.113 0.32845 7.8456 8.697502 22.285
8/11/2021 7:14:54 AM 22.2675 72.0815 0.3287501 7.8386 8.707497 22.2675
8/11/2021 7:29:54 AM 22.2525 72.0545 0.3291 7.8316 8.627502 22.2525
8/11/2021 7:44:54 AM 22.2325 72.0185 0.32945 7.8211 8.574997 22.2325
8/11/2021 7:59:54 AM 22.2325 72.0185 0.3295 7.8225 8.402496 22.2325
8/11/2021 8:14:54 AM 22.2525 72.0545 0.3298 7.812 8.3675 22.2525
8/11/2021 8:29:54 AM 22.25 72.05 0.3298 7.8092 8.227501 22.25
8/11/2021 8:44:54 AM 22.2675 72.0815 0.33015 7.8022 8.260002 22.2675
8/11/2021 8:59:54 AM 22.3025 72.1445 0.3305 7.8022 8.279999 22.3025
8/11/2021 9:14:54 AM 22.3375 72.2075 0.3305 7.8015 8.169998 22.3375
8/11/2021 9:29:54 AM 22.3525 72.2345 0.33085 7.8022 8.087502 22.3525
8/11/2021 9:44:54 AM 22.3525 72.2345 0.33115 7.7973 8.065002 22.3525
8/11/2021 9:59:54 AM 22.37 72.266 0.3315501 7.7924 6.087502 22.37
8/11/2021 10:14:54 AM 22.385 72.293 0.3318 7.7882 6.190002 22.385
8/11/2021 10:29:54 AM 22.405 72.329 0.3322 7.7812 6.102501 22.405
8/11/2021 10:44:54 AM 22.44 72.392 0.3322 7.7868 6.065002 22.44
8/11/2021 10:59:54 AM 22.4725 72.4505 0.33255 7.7875 6.135002 22.4725
8/11/2021 11:14:54 AM 22.5275 72.5495 0.3329 7.7917 6.169998 22.5275
8/11/2021 11:29:54 AM 22.575 72.635 0.33285 7.7973 6.082497 22.575
8/11/2021 11:44:53 AM 22.645 72.761 0.3331999 7.8022 6.082497 22.645
8/11/2021 11:59:54 AM 22.715 72.887 0.3331999 7.8113 6.167503 22.715
8/11/2021 12:14:53 PM 22.785 73.013 0.33355 7.8204 6.114998 22.785
8/11/2021 12:29:53 PM 22.835 73.103 0.3339 7.8309 6.217499 22.835
8/11/2021 12:44:53 PM 22.8875 73.1975 0.3339 7.8442 6.279999 22.8875
8/11/2021 12:59:54 PM 22.94 73.292 0.3342499 7.8547 6.342499 22.94
8/11/2021 1:14:53 PM 22.9725 73.3505 0.3342 7.8638 5.75 22.9725
8/11/2021 1:29:53 PM 22.9925 73.3865 0.3349 7.8736 5.574997 22.9925
8/11/2021 1:44:53 PM 23.06 73.508 0.3352499 7.8897 5.525002 23.06
8/11/2021 1:59:53 PM 23.1325 73.6385 0.3353001 7.9044 5.565002 23.1325
8/11/2021 2:14:54 PM 23.2 73.76 0.3356 7.917 5.542503 23.2
8/11/2021 2:29:54 PM 23.285 73.913 0.3359501 7.9324 5.489998 23.285
8/11/2021 2:44:54 PM 23.3725 74.0705 0.3362499 7.9478 5.519997 23.3725
8/11/2021 2:59:54 PM 23.4425 74.1965 0.3363 7.9674 5.610001 23.4425
8/11/2021 3:14:54 PM 23.5275 74.3495 0.3366 7.991899 5.559998 23.5275
8/11/2021 3:29:54 PM 23.615 74.507 0.3369501 8.014299 5.557503 23.615
8/11/2021 3:44:54 PM 23.7 74.66 0.3369501 8.040199 5.602501 23.7
8/11/2021 3:59:54 PM 23.7525 74.7545 0.3373001 8.059799 5.625 23.7525
8/11/2021 4:14:54 PM 23.8075 74.8535 0.3373501 8.087099 5.589996 23.8075
8/11/2021 4:29:54 PM 23.89 75.002 0.3373001 8.108801 5.642502 23.89
8/11/2021 4:44:54 PM 23.98 75.164 0.3376499 8.131201 5.607498 23.98
8/11/2021 4:59:54 PM 24.0825 75.3485 0.3380499 8.150101 5.642502 24.0825
8/11/2021 5:14:54 PM 24.17 75.506 0.338 8.165501 5.642502 24.17
8/11/2021 5:29:54 PM 24.2375 75.6275 0.3380499 8.190001 5.747498 24.2375
8/11/2021 5:44:53 PM 24.325 75.785 0.3383501 8.1998 5.8825 24.325
8/11/2021 5:59:53 PM 24.41 75.938 0.3386999 8.2194 6.637497 24.41
8/11/2021 6:29:53 PM 24.55 76.19 0.3386999 8.2579 6.722504 24.55
8/11/2021 6:44:53 PM 24.585 76.253 0.339 8.2726 6.610001 24.585
8/11/2021 6:59:53 PM 24.6025 76.2845 0.339 8.2873 6.5075 24.6025
8/11/2021 7:14:53 PM 24.6225 76.3205 0.3393501 8.2957 6.487503 24.6225
8/11/2021 7:29:53 PM 24.6175 76.3115 0.3394 8.3069 6.422501 24.6175
8/11/2021 7:44:53 PM 24.6375 76.3475 0.3397501 8.3174 6.385002 24.6375
8/11/2021 7:59:53 PM 24.6375 76.3475 0.3400499 8.3223 6.455002 24.6375
8/11/2021 8:14:53 PM 24.62 76.316 0.34045 8.3307 6.317497 24.62
8/11/2021 8:29:53 PM 24.6 76.28 0.3407501 8.3321 6.294998 24.6
8/11/2021 8:44:53 PM 24.5675 76.2215 0.3411 8.3363 6.527496 24.5675
8/11/2021 8:59:53 PM 24.55 76.19 0.3414499 8.3468 6.459999 24.55
8/11/2021 9:14:53 PM 24.535 76.163 0.3414499 8.351 6.512497 24.535
8/11/2021 9:29:53 PM 24.535 76.163 0.34185 8.3566 6.510002 24.535
8/11/2021 9:44:53 PM 24.5175 76.1315 0.34215 8.3552 6.6175 24.5175
8/11/2021 9:59:53 PM 24.5025 76.1045 0.34255 8.3594 6.697502 24.5025
8/11/2021 10:14:53 PM 24.4825 76.0685 0.3429 8.3615 6.885002 24.4825
8/11/2021 10:29:53 PM 24.4475 76.0055 0.3431999 8.3552 6.705002 24.4475
8/11/2021 10:44:53 PM 24.415 75.94701 0.3435501 8.3545 6.775002 24.415
8/11/2021 10:59:53 PM 24.38 75.884 0.3439 8.3496 6.662498 24.38
8/11/2021 11:14:53 PM 24.3275 75.7895 0.3442499 8.3517 6.705002 24.3275
8/11/2021 11:29:53 PM 24.31 75.758 0.3442499 8.3475 6.690002 24.31
8/11/2021 11:44:53 PM 24.2775 75.6995 0.3449501 8.3419 6.7575 24.2775
8/12/2021 12:14:54 AM 24.205 75.569 0.3456499 8.3265 6.917503 24.205
8/12/2021 12:29:54 AM 24.1725 75.5105 0.346 8.3286 7.004997 24.1725
8/12/2021 12:44:54 AM 24.135 75.443 0.3467 8.3174 7.017502 24.135
8/12/2021 12:59:53 AM 24.1225 75.4205 0.3470499 8.3125 7.055 24.1225
8/12/2021 1:14:54 AM 24.1225 75.4205 0.3474 8.3034 7.025002 24.1225
8/12/2021 1:29:54 AM 24.105 75.389 0.3474 8.2936 6.955002 24.105
8/12/2021 1:44:53 AM 24.07 75.326 0.3481 8.2831 7.095001 24.07
8/12/2021 1:59:54 AM 24.0175 75.2315 0.3484 8.274 7.077499 24.0175
8/12/2021 2:14:53 AM 23.9475 75.1055 0.3488001 8.2593 7.269997 23.9475
8/12/2021 2:29:53 AM 23.8975 75.0155 0.34945 8.2453 6.9925 23.8975
8/12/2021 2:44:53 AM 23.8275 74.8895 0.35015 8.232 6.982498 23.8275
8/12/2021 2:59:53 AM 23.7775 74.7995 0.3505501 8.2159 7.0625 23.7775
8/12/2021 3:14:53 AM 23.74 74.732 0.3512499 8.2019 7.245003 23.74
8/12/2021 3:29:54 AM 23.6725 74.6105 0.3519501 8.187901 7.082497 23.6725
8/12/2021 3:44:54 AM 23.62 74.516 0.3523 8.166201 7.184998 23.62
8/12/2021 3:59:53 AM 23.5675 74.4215 0.3526499 8.153601 7.067497 23.5675
8/12/2021 4:14:53 AM 23.5325 74.3585 0.3533501 8.137501 7.050003 23.5325
8/12/2021 4:29:53 AM 23.4625 74.2325 0.3536499 8.124901 7.120003 23.4625
8/12/2021 4:44:53 AM 23.43 74.174 0.354 8.108101 7.102501 23.43
8/12/2021 4:59:53 AM 23.3925 74.1065 0.3546999 8.093399 7.827499 23.3925
8/12/2021 5:14:53 AM 23.345 74.021 0.3550499 8.078699 7.519997 23.345
8/12/2021 5:29:53 AM 23.31 73.958 0.3554 8.063999 7.387497 23.31
8/12/2021 5:44:54 AM 23.2575 73.8635 0.35615 8.050699 7.574997 23.2575
8/12/2021 5:59:53 AM 23.205 73.769 0.35645 8.038099 7.402496 23.205
8/12/2021 6:14:53 AM 23.1525 73.6745 0.3568 8.020599 7.3825 23.1525
8/12/2021 6:29:53 AM 23.1 73.58 0.3571 8.012899 7.644997 23.1
8/12/2021 6:44:54 AM 23.065 73.517 0.35785 7.997499 7.942497 23.065
8/12/2021 6:59:54 AM 23.0125 73.4225 0.35815 7.9891 7.542503 23.0125
8/12/2021 7:29:54 AM 22.9625 73.3325 0.35885 7.9737 7.610001 22.9625
8/12/2021 7:44:54 AM 22.945 73.301 0.35885 7.9639 7.542503 22.945
8/12/2021 7:59:54 AM 22.945 73.301 0.35885 7.9576 7.415001 22.945
8/12/2021 8:14:54 AM 22.9425 73.2965 0.3591999 7.959 7.1875 22.9425
8/12/2021 8:29:54 AM 22.96 73.328 0.3591999 7.9541 7.135002 22.96
8/12/2021 8:44:53 AM 22.9775 73.3595 0.3591999 7.9541 7.029999 22.9775
8/12/2021 8:59:53 AM 23.0125 73.4225 0.35915 7.952 7.122498 23.0125
8/12/2021 9:14:54 AM 23.0475 73.4855 0.3595 7.9478 7.2575 23.0475
8/12/2021 9:29:54 AM 23.08 73.544 0.3595 7.9492 6.959999 23.08
8/12/2021 9:44:54 AM 23.115 73.607 0.3595 7.9422 7.095001 23.115
8/12/2021 9:59:54 AM 23.15 73.67 0.3598 7.9422 7.010002 23.15
8/12/2021 10:14:53 AM 23.2 73.76 0.3602 7.938 7.040001 23.2
8/12/2021 10:29:54 AM 23.235 73.823 0.3602 7.9324 6.82 23.235
8/12/2021 10:44:54 AM 23.27 73.886 0.36015 7.9331 7.0075 23.27
8/12/2021 10:59:54 AM 23.305 73.949 0.3605 7.9275 6.745003 23.305
8/12/2021 11:14:54 AM 23.32 73.976 0.3605 7.9282 6.887497 23.32
8/12/2021 11:29:54 AM 23.355 74.039 0.36085 7.9282 6.797501 23.355
8/12/2021 11:44:54 AM 23.3725 74.0705 0.3608001 7.9268 6.797501 23.3725
8/12/2021 11:59:54 AM 23.355 74.039 0.36085 7.9226 6.57 23.355
8/12/2021 12:14:53 PM 23.3375 74.0075 0.36085 7.924 6.622498 23.3375
8/12/2021 12:29:53 PM 23.3375 74.0075 0.36085 7.9219 6.745003 23.3375
8/12/2021 12:44:54 PM 23.355 74.039 0.3605 7.9226 6.692497 23.355
8/12/2021 12:59:53 PM 23.425 74.165 0.3608001 7.9282 6.9375 23.425
8/12/2021 1:14:54 PM 23.525 74.345 0.3611999 7.9373 6.7575 23.525
8/12/2021 1:29:53 PM 23.6475 74.5655 0.3611999 7.9464 6.8125 23.6475
8/12/2021 1:44:53 PM 23.7525 74.7545 0.3615 7.966 6.897499 23.7525
8/12/2021 1:59:53 PM 23.8375 74.9075 0.3615 7.9765 6.777496 23.8375
8/12/2021 2:14:53 PM 23.9075 75.0335 0.36185 7.991199 6.599998 23.9075
8/12/2021 2:29:53 PM 23.91 75.038 0.3622 8.000299 6.724998 23.91
8/12/2021 2:44:53 PM 23.89 75.002 0.3625501 8.009399 6.514999 23.89
8/12/2021 2:59:54 PM 23.8575 74.9435 0.3629 8.013599 6.567497 23.8575
8/12/2021 3:14:53 PM 23.805 74.849 0.3632499 8.019199 6.57 23.805
8/12/2021 3:29:53 PM 23.75 74.75 0.3639501 8.024799 6.5 23.75
8/12/2021 3:44:53 PM 23.72 74.696 0.3646499 8.024799 6.467499 23.72
8/12/2021 3:59:53 PM 23.6825 74.6285 0.3653501 8.025499 6.415001 23.6825
8/12/2021 4:14:54 PM 23.685 74.633 0.3656499 8.034599 6.330002 23.685
8/12/2021 4:29:53 PM 23.7175 74.6915 0.3656999 8.059799 6.297501 23.7175
8/12/2021 4:44:53 PM 23.755 74.759 0.3653501 8.078699 6.347504 23.755
8/12/2021 4:59:53 PM 23.825 74.885 0.3656999 8.098301 6.417503 23.825
8/12/2021 5:29:54 PM 24.0325 75.2585 0.3653501 8.136801 6.432503 24.0325
8/12/2021 5:44:54 PM 24.1525 75.4745 0.3649501 8.157801 6.449997 24.1525
8/12/2021 5:59:53 PM 24.24 75.632 0.3653001 8.171801 6.485001 24.24
8/12/2021 6:14:54 PM 24.325 75.785 0.3656499 8.181601 6.555 24.325
8/12/2021 6:29:54 PM 24.3625 75.8525 0.3656499 8.190001 6.410004 24.36
8/12/2021 6:44:54 PM 24.4125 75.9425 0.3656499 8.196301 6.362503 24.4125
8/12/2021 6:59:54 PM 24.4325 75.9785 0.366 8.1991 6.394997 24.4325
8/12/2021 7:14:54 PM 24.43 75.974 0.3663501 8.2047 6.2575 24.43
8/12/2021 7:29:53 PM 24.41 75.938 0.3667 8.2033 6.330002 24.41
8/12/2021 7:44:53 PM 24.4125 75.9425 0.3667 8.2054 6.362503 24.4125
8/12/2021 7:59:53 PM 24.3925 75.9065 0.3670499 8.194201 6.432503 24.3925
8/12/2021 8:14:54 PM 24.36 75.848 0.3673501 8.185101 6.345001 24.36
8/12/2021 8:29:53 PM 24.3275 75.7895 0.3677501 8.170401 6.432503 24.3275
8/12/2021 8:44:53 PM 24.2725 75.6905 0.3684 8.162001 6.495003 24.2725
8/12/2021 9:14:54 PM 24.1675 75.5015 0.3691 8.156401 6.394997 24.1675
8/12/2021 9:29:53 PM 24.15 75.47 0.3694499 8.160601 6.43 24.15
8/12/2021 9:44:53 PM 24.1525 75.4745 0.3698001 8.165501 6.472504 24.1525
8/12/2021 9:59:53 PM 24.135 75.443 0.3701999 8.166901 6.610001 24.135
8/12/2021 10:14:53 PM 24.155 75.479 0.3701999 8.174601 6.5075 24.155
8/12/2021 10:29:53 PM 24.155 75.479 0.3701999 8.185801 6.595001 24.155
8/12/2021 10:44:53 PM 24.1525 75.4745 0.37015 8.189301 6.592499 24.1525
8/12/2021 10:59:53 PM 24.1175 75.4115 0.3705 8.196301 6.785004 24.1175
8/12/2021 11:14:54 PM 24.105 75.389 0.3705 8.185101 6.595001 24.105
8/12/2021 11:29:53 PM 24.0675 75.3215 0.3709 8.171801 6.580002 24.0675
8/12/2021 11:44:53 PM 24.05 75.29 0.3712499 8.157101 6.752502 24.05
8/13/2021 12:14:53 AM 24.0175 75.2315 0.3712499 8.141001 6.889999 24.0175
8/13/2021 12:29:53 AM 23.9975 75.1955 0.3716 8.129101 6.830002 23.9975
8/13/2021 12:44:53 AM 23.945 75.101 0.3719 8.112301 7.012497 23.945
8/13/2021 12:59:53 AM 23.93 75.074 0.3722499 8.108801 6.875 23.93
8/13/2021 1:14:54 AM 23.895 75.011 0.3726499 8.097601 6.457497 23.895
8/13/2021 1:29:53 AM 23.8425 74.9165 0.3729501 8.089899 6.044998 23.8425
8/13/2021 1:44:53 AM 23.825 74.885 0.3733501 8.080099 5.889999 23.825
8/13/2021 1:59:53 AM 23.8075 74.8535 0.3737 8.070299 5.855003 23.8075
8/13/2021 2:14:54 AM 23.775 74.795 0.3737 8.062599 5.945 23.775
8/13/2021 2:29:53 AM 23.755 74.759 0.3740499 8.060499 5.927498 23.7575
8/13/2021 2:44:54 AM 23.74 74.732 0.3743501 8.046499 6.012497 23.74
8/13/2021 2:59:53 AM 23.705 74.669 0.3747 8.031799 6.184998 23.705
8/13/2021 3:14:54 AM 23.67 74.606 0.3750499 8.017099 6.307503 23.67
8/13/2021 3:29:54 AM 23.62 74.516 0.3754 8.001699 6.1175 23.62
8/13/2021 3:44:54 AM 23.565 74.417 0.3758 7.9877 6.137497 23.565
8/13/2021 3:59:54 AM 23.5175 74.3315 0.37615 7.9716 6.137497 23.5175
8/13/2021 4:14:54 AM 23.465 74.237 0.3764499 7.9576 6.050003 23.465
8/13/2021 4:29:54 AM 23.4125 74.1425 0.3768001 7.9422 6.2425 23.4125
8/13/2021 4:44:53 AM 23.36 74.048 0.3771999 7.9247 6.294998 23.36
8/13/2021 4:59:53 AM 23.3075 73.9535 0.3775 7.9051 6.357498 23.3075
8/13/2021 5:14:53 AM 23.24 73.832 0.3779 7.8617 5.885002 23.24
8/13/2021 5:29:53 AM 23.205 73.769 0.3782499 7.8519 6.107498 23.205
8/13/2021 5:44:54 AM 23.1525 73.6745 0.3785501 7.8379 5.919998 23.1525
8/13/2021 5:59:53 AM 23.1025 73.5845 0.3789 7.8288 5.9375 23.1025
8/13/2021 6:14:53 AM 23.07 73.526 0.3793001 7.8169 5.972504 23.07
8/13/2021 6:29:53 AM 23.015 73.427 0.3796 7.8085 6.0075 23.015
8/13/2021 6:44:53 AM 22.9825 73.3685 0.3799501 7.798 6.32 22.9825
8/13/2021 6:59:53 AM 22.9625 73.3325 0.3803501 7.7882 6.214996 22.9625
8/13/2021 7:14:53 AM 22.93 73.274 0.3806499 7.7791 6.372498 22.93
8/13/2021 7:29:53 AM 22.895 73.211 0.3806499 7.7735 6.300003 22.895
8/13/2021 7:44:53 AM 22.8975 73.2155 0.381 7.763 6.275002 22.8975
8/13/2021 7:59:53 AM 22.8775 73.1795 0.381 7.757401 6.144997 22.8775
8/13/2021 8:14:53 AM 22.8625 73.1525 0.3813001 7.753201 6.18 22.8625
8/13/2021 8:29:53 AM 22.8575 73.1435 0.3813501 7.748301 6.127502 22.8575
8/13/2021 8:44:53 AM 22.86 73.148 0.3816999 7.748301 6.162498 22.86
8/13/2021 8:59:53 AM 22.86 73.148 0.3817501 7.744101 6.144997 22.86
8/13/2021 9:14:53 AM 22.86 73.148 0.3820499 7.742701 6.195 22.86
8/13/2021 9:29:53 AM 22.875 73.175 0.382 7.740601 5.917503 22.875
8/13/2021 9:44:53 AM 22.8925 73.2065 0.382 7.735701 5.902496 22.8925
8/13/2021 9:59:53 AM 22.9275 73.2695 0.3823501 7.734301 5.777496 22.9275
8/13/2021 10:14:53 AM 22.9775 73.3595 0.3823501 7.732901 5.705002 22.9775
8/13/2021 10:29:54 AM 23.03 73.454 0.3823501 7.728001 5.945 23.03
8/13/2021 10:44:53 AM 23.0825 73.5485 0.3823501 7.728001 5.772499 23.0825
8/13/2021 10:59:53 AM 23.1325 73.6385 0.3826999 7.728001 5.857498 23.1325
8/13/2021 11:14:54 AM 23.1525 73.6745 0.3826499 7.729401 5.857498 23.1525
8/13/2021 11:29:54 AM 23.2 73.76 0.383 7.729401 5.945 23.2
8/13/2021 11:44:54 AM 23.2225 73.8005 0.3830499 7.723101 5.650002 23.2225
8/13/2021 11:59:53 AM 23.255 73.859 0.3829501 7.723801 5.699997 23.255
8/13/2021 12:14:53 PM 23.29 73.922 0.3826499 7.728001 5.6325 23.29
8/13/2021 12:29:54 PM 23.355 74.039 0.383 7.729401 5.577499 23.355
8/13/2021 12:44:54 PM 23.425 74.165 0.383 7.732201 5.610001 23.425
8/13/2021 12:59:54 PM 23.495 74.291 0.3826499 7.739901 5.712502 23.495
8/13/2021 1:14:54 PM 23.58 74.444 0.3826499 7.746901 5.592499 23.58
8/13/2021 1:29:54 PM 23.65 74.57 0.3829501 7.753201 5.605003 23.65
8/13/2021 1:44:54 PM 23.7175 74.6915 0.3829 7.763 5.712502 23.7175
8/13/2021 1:59:53 PM 23.77 74.786 0.3829501 7.7658 5.555 23.77
8/13/2021 2:14:54 PM 23.84 74.912 0.3829501 7.777 5.557503 23.84
8/13/2021 2:29:53 PM 23.89 75.002 0.3833 7.7819 5.415001 23.89
8/13/2021 2:44:54 PM 23.91 75.038 0.3833 7.7903 5.502502 23.91
8/13/2021 2:59:53 PM 23.9275 75.0695 0.3836499 7.7959 5.637497 23.9275
8/13/2021 3:14:54 PM 23.9425 75.0965 0.3836499 7.8064 5.622498 23.9425
8/13/2021 3:29:54 PM 23.96 75.128 0.3836499 7.8162 5.415001 23.96
8/13/2021 3:44:53 PM 23.96 75.128 0.384 7.8246 5.540001 23.96
8/13/2021 3:59:53 PM 23.96 75.128 0.3846499 7.8386 5.400002 23.96
8/13/2021 4:14:54 PM 23.9775 75.1595 0.385 7.8596 5.377502 23.9775
8/13/2021 4:29:53 PM 24.0125 75.2225 0.3854 7.8785 5.417503 24.0125
8/13/2021 4:44:53 PM 24.03 75.254 0.3857 7.8988 5.400002 24.03
8/13/2021 4:59:53 PM 24.065 75.317 0.3860499 7.9086 5.1875 24.065
8/13/2021 5:14:53 PM 24.0325 75.2585 0.38645 7.9233 5.177498 24.0325
8/13/2021 5:29:53 PM 23.9625 75.1325 0.3871 7.9373 5.147499 23.9625
8/13/2021 5:44:53 PM 23.93 75.074 0.3875 7.9534 5.220001 23.93
8/13/2021 5:59:53 PM 23.9275 75.0695 0.38785 7.9632 5.182503 23.9275
8/13/2021 6:14:54 PM 23.945 75.101 0.3882 7.9716 5.1875 23.945
8/13/2021 6:29:53 PM 24 75.2 0.3885 7.9709 5.1875 24
8/13/2021 6:44:53 PM 24.035 75.263 0.3882499 7.996799 5.267502 24.035
8/13/2021 6:59:53 PM 24.0875 75.3575 0.3882 8.010799 5.205002 24.0875
8/13/2021 7:14:54 PM 24.1375 75.4475 0.38785 8.026199 5.197502 24.1375
8/13/2021 7:29:54 PM 24.1725 75.5105 0.3882 8.045099 5.197502 24.1725
8/13/2021 7:59:54 PM 24.245 75.641 0.3889 8.064699 5.2575 24.245
8/13/2021 8:14:54 PM 24.245 75.641 0.3892499 8.068899 5.235001 24.245
8/13/2021 8:29:54 PM 24.245 75.641 0.3896 8.069599 5.239998 24.245
8/13/2021 8:44:53 PM 24.2075 75.5735 0.3899501 8.065399 5.275002 24.2075
8/13/2021 8:59:54 PM 24.1575 75.4835 0.3906499 8.063299 5.292503 24.1575
8/13/2021 9:14:54 PM 24.1425 75.4565 0.391 8.064699 5.294998 24.1425
8/13/2021 9:29:54 PM 24.125 75.425 0.391 8.065399 5.352501 24.125
8/13/2021 9:44:54 PM 24.1075 75.3935 0.3916499 8.070299 5.332497 24.1075
8/13/2021 9:59:54 PM 24.0875 75.3575 0.3920499 8.070999 5.364998 24.0875
8/13/2021 10:14:54 PM 24.055 75.299 0.3916499 8.079399 5.362503 24.055
8/13/2021 10:29:54 PM 24.0375 75.2675 0.3916999 8.090599 5.400002 24.0375
8/13/2021 10:44:54 PM 24.02 75.236 0.3916999 8.089199 5.385002 24.02
8/13/2021 10:59:54 PM 23.97 75.146 0.392 8.084999 5.422501 23.97
8/13/2021 11:14:54 PM 23.95 75.11 0.3920499 8.075899 5.470001 23.95
8/13/2021 11:29:54 PM 23.915 75.047 0.3924 8.070299 5.525002 23.915
8/13/2021 11:44:54 PM 23.9 75.02 0.3924 8.079399 5.522499 23.9
8/14/2021 12:14:54 AM 23.8825 74.9885 0.3927 8.083599 8.422501 23.8825
8/14/2021 12:29:54 AM 23.8825 74.9885 0.3927 8.084299 7.989998 23.8825
8/14/2021 12:44:54 AM 23.8275 74.8895 0.3930499 8.070999 7.412498 23.8275
8/14/2021 12:59:54 AM 23.81 74.858 0.3930499 8.066799 6.712502 23.81
8/14/2021 1:14:54 AM 23.795 74.831 0.3931 8.059799 5.9925 23.795
8/14/2021 1:29:54 AM 23.7775 74.7995 0.3934 8.049999 5.849998 23.7775
8/14/2021 1:44:54 AM 23.725 74.705 0.39345 8.040199 5.75 23.725
8/14/2021 1:59:54 AM 23.6575 74.5835 0.3938001 8.015699 5.732498 23.6575
8/14/2021 2:14:54 AM 23.605 74.489 0.3941 8.000999 5.787498 23.605
8/14/2021 2:29:54 AM 23.535 74.363 0.3945 7.9772 5.772499 23.535
8/14/2021 2:44:54 AM 23.5025 74.3045 0.3948 7.9639 5.735001 23.5025
8/14/2021 2:59:54 AM 23.4675 74.2415 0.39515 7.9338 5.822502 23.4675
8/14/2021 3:14:54 AM 23.4325 74.1785 0.3952 7.9198 6.120003 23.4325
8/14/2021 3:29:54 AM 23.415 74.147 0.3955 7.9093 5.942497 23.415
8/14/2021 3:44:54 AM 23.38 74.084 0.39585 7.9044 6.102501 23.38
8/14/2021 3:59:54 AM 23.36 74.048 0.39585 7.9009 5.980003 23.36
8/14/2021 4:14:54 AM 23.3425 74.0165 0.39585 7.8911 5.870003 23.3425
8/14/2021 4:29:54 AM 23.31 73.958 0.3959 7.8806 6.172501 23.31
8/14/2021 4:44:54 AM 23.26 73.868 0.3961999 7.8708 5.915001 23.26
8/14/2021 4:59:54 AM 23.2075 73.7735 0.3961999 7.8554 6.445 23.2075
8/14/2021 5:14:54 AM 23.1725 73.7105 0.3962499 7.8463 6.035004 23.1725
8/14/2021 5:29:54 AM 23.12 73.616 0.3962499 7.8323 6.305 23.12
8/14/2021 5:44:54 AM 23.0875 73.5575 0.3961999 7.8127 6.07 23.0875
8/14/2021 5:59:54 AM 23.0325 73.4585 0.3961999 7.8036 6.230003 23.0325
8/14/2021 6:14:54 AM 22.965 73.337 0.3965501 7.7903 6.074997 22.965
8/14/2021 6:29:54 AM 22.8975 73.2155 0.3966 7.7784 6.245003 22.8975
8/14/2021 6:44:54 AM 22.8625 73.1525 0.3966 7.7693 6.305 22.8625
8/14/2021 6:59:54 AM 22.7925 73.0265 0.3969 7.759501 6.385002 22.7925
8/14/2021 7:14:54 AM 22.7575 72.9635 0.3969 7.749701 6.302498 22.7575
8/14/2021 7:29:54 AM 22.6875 72.8375 0.3973 7.740601 6.404999 22.6875
8/14/2021 7:44:54 AM 22.6175 72.7115 0.3972499 7.736401 6.207497 22.6175
8/14/2021 7:59:54 AM 22.5825 72.6485 0.3973 7.727301 6.272499 22.5825
8/14/2021 8:14:54 AM 22.5475 72.5855 0.3972499 7.726601 6.147499 22.5475
8/14/2021 8:29:54 AM 22.5125 72.5225 0.3973 7.721701 6.290001 22.5125
8/14/2021 8:44:54 AM 22.5 72.5 0.3973 7.716101 6.184998 22.5
8/14/2021 8:59:54 AM 22.46 72.42799 0.3972499 7.716801 5.9925 22.46
8/14/2021 9:14:54 AM 22.445 72.401 0.3973 7.712601 6.027496 22.445
8/14/2021 9:29:54 AM 22.41 72.338 0.3973 7.711201 5.802498 22.41
8/14/2021 9:44:54 AM 22.41 72.338 0.3973 7.707001 5.872498 22.41
8/14/2021 9:59:54 AM 22.3925 72.3065 0.3969 7.700001 5.760002 22.3925
8/14/2021 10:14:54 AM 22.375 72.275 0.3969501 7.700001 5.690002 22.375
8/14/2021 10:29:54 AM 22.3375 72.2075 0.3972499 7.701401 5.760002 22.3375
8/14/2021 10:44:54 AM 22.3225 72.1805 0.3973 7.701401 6.175003 22.3225
8/14/2021 10:59:54 AM 22.3075 72.1535 0.3973 7.695801 6.182503 22.3075
8/14/2021 11:14:54 AM 22.29 72.122 0.3973 7.700701 5.695 22.29
8/14/2021 11:29:53 AM 22.2875 72.1175 0.3969501 7.695801 5.654999 22.2875
8/14/2021 11:44:53 AM 22.305 72.149 0.3969 7.702101 5.747498 22.305
8/14/2021 11:59:54 AM 22.32 72.176 0.3969 7.707001 5.797501 22.32
8/14/2021 12:14:53 PM 22.3375 72.2075 0.3969 7.711201 5.972504 22.3375
8/14/2021 12:29:53 PM 22.3525 72.2345 0.3969 7.716801 5.787498 22.3525
8/14/2021 12:44:53 PM 22.3725 72.2705 0.3969501 7.722401 5.779999 22.3725
8/14/2021 12:59:53 PM 22.4075 72.3335 0.3969 7.720301 5.552498 22.4075
8/14/2021 1:14:53 PM 22.425 72.365 0.3969 7.726601 5.597504 22.425
8/14/2021 1:29:53 PM 22.4775 72.4595 0.3969 7.730101 5.392502 22.4775
8/14/2021 1:44:53 PM 22.545 72.581 0.3969 7.733601 5.737503 22.545
8/14/2021 1:59:53 PM 22.615 72.707 0.3969 7.735701 5.529999 22.615
8/14/2021 2:14:54 PM 22.7025 72.8645 0.3969 7.738501 5.580002 22.7025
8/14/2021 2:29:53 PM 22.7525 72.9545 0.39685 7.748301 5.855003 22.7525
8/14/2021 2:44:53 PM 22.8075 73.0535 0.39685 7.753901 5.665001 22.8075
8/14/2021 2:59:54 PM 22.8575 73.1435 0.3969 7.7623 5.717499 22.8575
8/14/2021 3:14:54 PM 22.89 73.202 0.39685 7.77 5.727501 22.89
8/14/2021 3:29:53 PM 22.925 73.265 0.39685 7.7791 5.370003 22.925
8/14/2021 3:44:54 PM 22.96 73.328 0.3969 7.7875 5.457497 22.96
8/14/2021 3:59:54 PM 22.995 73.391 0.3969 7.8022 5.407501 22.995
8/14/2021 4:14:54 PM 23.03 73.454 0.39685 7.8113 5.625 23.03
8/14/2021 4:29:54 PM 23.0475 73.4855 0.3969 7.826 5.697502 23.0475
8/14/2021 4:44:54 PM 23.08 73.544 0.3965 7.8372 5.787498 23.08
8/14/2021 4:59:54 PM 23.1175 73.6115 0.3965 7.8547 5.580002 23.1175
8/14/2021 5:29:54 PM 23.1 73.58 0.3969 7.8799 5.544998 23.1
8/14/2021 5:44:53 PM 23.1175 73.6115 0.39685 7.8953 5.717499 23.1175
8/14/2021 5:59:53 PM 23.115 73.607 0.3969 7.9058 5.457497 23.115
8/14/2021 6:14:53 PM 23.115 73.607 0.3972 7.9198 5.43 23.115
8/14/2021 6:44:54 PM 23.1325 73.6385 0.3972499 7.9485 5.355003 23.1325
8/14/2021 6:59:53 PM 23.1525 73.6745 0.3972 7.9625 5.18 23.1525
8/14/2021 7:14:53 PM 23.17 73.706 0.3972 7.9814 5.294998 23.17
8/14/2021 7:29:54 PM 23.1875 73.7375 0.3972499 7.996799 5.144997 23.1875
8/14/2021 7:44:53 PM 23.185 73.733 0.3972499 8.014999 5.239998 23.185
8/14/2021 7:59:53 PM 23.1675 73.7015 0.3972499 8.021299 5.237503 23.1675
8/14/2021 8:14:53 PM 23.17 73.706 0.39755 8.026899 5.967499 23.17
8/14/2021 8:29:53 PM 23.1725 73.7105 0.3972499 8.045099 6.9375 23.1725
8/14/2021 8:44:53 PM 23.1525 73.6745 0.3976 8.052799 7.027496 23.1525
8/14/2021 9:14:54 PM 23.105 73.589 0.3972499 8.061199 5.797501 23.105
8/14/2021 9:29:53 PM 23.0675 73.5215 0.3972499 8.061199 5.440002 23.0675
8/14/2021 9:44:54 PM 22.9975 73.3955 0.3976499 8.070999 5.404999 22.9975
8/14/2021 9:59:53 PM 22.985 73.373 0.3976499 8.075899 5.364998 22.985
8/14/2021 10:14:53 PM 22.9325 73.2785 0.398 8.080099 5.482498 22.9325
8/14/2021 10:29:53 PM 22.8975 73.2155 0.3976499 8.085699 5.639999 22.8975
8/14/2021 10:44:53 PM 22.8625 73.1525 0.3976499 8.091999 5.555 22.8625
8/14/2021 10:59:53 PM 22.7925 73.0265 0.3976499 8.097601 5.402496 22.7925
8/14/2021 11:14:53 PM 22.76 72.968 0.3973501 8.101801 5.477501 22.76
8/14/2021 11:29:53 PM 22.7425 72.9365 0.397 8.105301 5.4925 22.7425
8/14/2021 11:44:54 PM 22.6925 72.8465 0.3966499 8.107401 5.537498 22.6925
8/15/2021 12:14:54 AM 22.66 72.788 0.3949 8.111601 7.665001 22.66
8/15/2021 12:29:54 AM 22.605 72.689 0.3946 8.108101 7.6325 22.605
8/15/2021 12:44:54 AM 22.555 72.599 0.3942499 8.106001 7.337502 22.555
8/15/2021 12:59:54 AM 22.45 72.41 0.3942499 8.096201 6.919998 22.45
8/15/2021 1:14:54 AM 22.33 72.194 0.3946499 8.087799 6.457497 22.33
8/15/2021 1:29:54 AM 22.2425 72.0365 0.3946 8.073099 5.790001 22.2425
8/15/2021 1:44:54 AM 22.155 71.879 0.3946499 8.063999 5.75 22.155
8/15/2021 1:59:53 AM 22.085 71.753 0.3943 8.053499 5.737503 22.085
8/15/2021 2:14:54 AM 22.02 71.636 0.3939 8.040199 5.720001 22.02
8/15/2021 2:29:54 AM 21.9175 71.4515 0.3943 8.029699 5.724998 21.9175
8/15/2021 2:44:54 AM 21.8475 71.3255 0.3939501 8.021299 5.762497 21.8475
8/15/2021 2:59:54 AM 21.7775 71.1995 0.394 8.005199 5.712502 21.7775
8/15/2021 3:14:54 AM 21.7075 71.0735 0.394 7.9863 5.709999 21.7075
8/15/2021 3:29:54 AM 21.6375 70.9475 0.3936 7.973 5.730003 21.6375
8/15/2021 3:44:53 AM 21.5675 70.8215 0.3936499 7.959 5.785004 21.5675
8/15/2021 3:59:53 AM 21.485 70.673 0.3936499 7.9436 5.802498 21.485
8/15/2021 4:14:53 AM 21.3975 70.5155 0.3936499 7.9296 5.82 21.3975
8/15/2021 4:29:53 AM 21.31 70.358 0.3936499 7.8988 5.8125 21.31
8/15/2021 4:44:53 AM 21.2425 70.2365 0.3936499 7.8897 5.860001 21.2425
8/15/2021 4:59:54 AM 21.2425 70.2365 0.3926 7.8743 5.875 21.2425
8/15/2021 5:14:53 AM 21.275 70.295 0.3919 7.8645 5.802498 21.275
8/15/2021 5:29:53 AM 21.26 70.268 0.3911999 7.8491 5.894997 21.26
8/15/2021 5:44:53 AM 21.17 70.106 0.3911999 7.8351 5.902496 21.17
8/15/2021 5:59:53 AM 21.1 69.98 0.3911999 7.8218 5.8825 21.1
8/15/2021 6:14:53 AM 21.03 69.854 0.3911999 7.8078 5.864998 21.03
8/15/2021 6:44:54 AM 20.91 69.638 0.3911999 7.7833 6.195 20.91
8/15/2021 6:59:53 AM 20.8075 69.4535 0.39155 7.7728 6.262497 20.8075
8/15/2021 7:14:53 AM 20.7375 69.3275 0.3916 7.7672 6.402496 20.7375
8/15/2021 7:29:53 AM 20.67 69.206 0.39155 7.758101 6.139999 20.67
8/15/2021 7:44:53 AM 20.6525 69.1745 0.39155 7.747601 6.004997 20.6525
8/15/2021 7:59:53 AM 20.5825 69.0485 0.3919501 7.744801 5.885002 20.5825
8/15/2021 8:14:53 AM 20.5325 68.9585 0.3919 7.739201 5.764999 20.5325
8/15/2021 8:29:53 AM 20.53 68.954 0.3919 7.737101 5.970001 20.53
8/15/2021 8:44:53 AM 20.46 68.828 0.3922499 7.733601 6.092499 20.46
8/15/2021 8:59:53 AM 20.4425 68.7965 0.3922499 7.728701 6.0075 20.4425
8/15/2021 9:14:54 AM 20.445 68.801 0.3922499 7.727301 6.027496 20.445
8/15/2021 9:29:54 AM 20.46 68.828 0.3919 7.728001 5.967499 20.46
8/15/2021 9:44:53 AM 20.495 68.891 0.39155 7.733601 6.052498 20.495
8/15/2021 9:59:54 AM 20.5475 68.9855 0.39085 7.733601 5.945 20.5475
8/15/2021 10:14:54 AM 20.615 69.107 0.3905 7.737801 5.705002 20.615
8/15/2021 10:29:54 AM 20.6675 69.2015 0.3898 7.741301 5.767502 20.6675
8/15/2021 10:44:54 AM 20.735 69.323 0.38945 7.746201 5.974998 20.735
8/15/2021 10:59:54 AM 20.785 69.413 0.3891 7.752501 6.144997 20.785
8/15/2021 11:14:53 AM 20.8375 69.5075 0.3887501 7.755301 5.7425 20.8375
8/15/2021 11:29:53 AM 20.89 69.602 0.3884 7.760201 6.035004 20.89
8/15/2021 11:44:53 AM 20.94 69.692 0.388 7.7665 5.925003 20.94
8/15/2021 11:59:53 AM 21.0075 69.8135 0.3876499 7.7707 5.644997 21.0075
8/15/2021 12:14:53 PM 21.0575 69.9035 0.3873 7.7812 6.022499 21.0575
8/15/2021 12:29:53 PM 21.0925 69.9665 0.3872499 7.7861 5.605003 21.0925
8/15/2021 12:44:53 PM 21.1275 70.0295 0.3869501 7.784 5.502502 21.1275
8/15/2021 12:59:53 PM 21.1625 70.0925 0.3869 7.756001 5.654999 21.1625
8/15/2021 1:14:53 PM 21.195 70.151 0.38655 7.7903 6.087502 21.195
8/15/2021 1:29:53 PM 21.2125 70.1825 0.3862 7.8092 5.445 21.2125
8/15/2021 1:44:53 PM 21.2325 70.2185 0.3859 7.8225 5.875 21.2325
8/15/2021 1:59:53 PM 21.2475 70.2455 0.3859 7.847 5.977501 21.2475
8/15/2021 2:14:53 PM 21.28 70.304 0.38585 7.8736 5.4925 21.28
8/15/2021 2:29:53 PM 21.35 70.43 0.3855501 7.8918 5.389999 21.35
8/15/2021 2:44:53 PM 21.4175 70.5515 0.3855 7.9093 5.467499 21.4175
8/15/2021 2:59:53 PM 21.4875 70.6775 0.3855501 7.9317 5.392502 21.4875
8/15/2021 3:29:54 PM 21.645 70.961 0.38515 7.9625 5.872498 21.645
8/15/2021 3:44:53 PM 21.73 71.114 0.38515 7.9786 5.760002 21.73
8/15/2021 3:59:53 PM 21.8025 71.2445 0.3848 7.997499 5.527496 21.8025
8/15/2021 4:14:53 PM 21.8875 71.3975 0.38445 8.012199 5.422501 21.8875
8/15/2021 4:29:53 PM 21.94 71.492 0.38445 8.036699 5.352501 21.94
8/15/2021 4:44:53 PM 21.975 71.555 0.38415 8.050699 5.334999 21.975
8/15/2021 4:59:54 PM 22.0425 71.6765 0.3841 8.066799 5.300003 22.0425
8/15/2021 5:14:53 PM 22.0775 71.7395 0.3838001 8.080799 5.264999 22.0775
8/15/2021 5:29:54 PM 22.13 71.834 0.3837501 8.101101 5.317497 22.13
8/15/2021 5:44:54 PM 22.165 71.897 0.3834499 8.116501 5.695 22.165
8/15/2021 5:59:54 PM 22.2 71.96 0.3834 8.124201 5.577499 22.2
8/15/2021 6:14:54 PM 22.235 72.023 0.3831 8.138201 5.352501 22.235
8/15/2021 6:29:54 PM 22.2525 72.0545 0.3831 8.148001 5.577499 22.2525
8/15/2021 6:44:54 PM 22.2875 72.1175 0.3831 8.158501 5.697502 22.2875
8/15/2021 6:59:54 PM 22.3225 72.1805 0.3826999 8.178801 5.4925 22.3225
8/15/2021 7:14:54 PM 22.335 72.203 0.3826999 8.192801 6.089996 22.335
8/15/2021 7:29:54 PM 22.355 72.239 0.3826999 8.2033 5.5075 22.355
8/15/2021 7:44:54 PM 22.3725 72.2705 0.3826999 8.2082 5.577499 22.3725
8/15/2021 7:59:54 PM 22.3725 72.2705 0.3831 8.2131 5.535004 22.3725
8/15/2021 8:14:54 PM 22.355 72.239 0.3831 8.2173 5.302498 22.355
8/15/2021 8:44:54 PM 22.305 72.149 0.3834 8.2075 5.307503 22.305
8/15/2021 8:59:54 PM 22.255 72.059 0.3837501 8.2075 5.532501 22.255
8/15/2021 9:14:54 PM 22.1675 71.9015 0.3845 8.2124 5.364998 22.1675
8/15/2021 9:29:54 PM 22.0825 71.7485 0.38485 8.218 5.412498 22.0825
8/15/2021 9:44:54 PM 21.995 71.591 0.3852 8.2243 5.449997 21.995
8/15/2021 9:59:54 PM 21.925 71.465 0.3855501 8.2341 5.517502 21.925
8/15/2021 10:14:54 PM 21.91 71.438 0.3855501 8.204 5.572502 21.91
8/15/2021 10:29:54 PM 21.8775 71.3795 0.3855501 8.2229 5.555 21.8775
8/15/2021 10:44:54 PM 21.805 71.249 0.3859501 8.2299 5.639999 21.805
8/15/2021 10:59:54 PM 21.79 71.222 0.3859501 8.2334 5.577499 21.79
8/15/2021 11:14:54 PM 21.7375 71.1275 0.3863001 8.2334 5.720001 21.7375
8/15/2021 11:29:54 PM 21.705 71.069 0.3859501 8.2341 5.705002 21.705
8/15/2021 11:44:53 PM 21.6875 71.0375 0.386 8.2278 6.307503 21.6875
8/16/2021 12:14:54 AM 21.6675 71.0015 0.3849 8.2208 8.422501 21.6675
8/16/2021 12:29:54 AM 21.6525 70.9745 0.38455 8.2131 8.017502 21.6525
8/16/2021 12:44:54 AM 21.6325 70.9385 0.3842499 8.2096 7.612503 21.6325
8/16/2021 12:59:54 AM 21.6 70.88 0.3839 8.1998 7.112503 21.6
8/16/2021 1:14:53 AM 21.48 70.664 0.3846 8.194201 6.317497 21.48
8/16/2021 1:44:54 AM 21.3075 70.3535 0.3846 8.179501 5.782501 21.3075
8/16/2021 1:59:53 AM 21.2525 70.2545 0.3846 8.172501 5.682503 21.2525
8/16/2021 2:14:53 AM 21.1875 70.1375 0.3842499 8.159901 5.699997 21.1875
8/16/2021 2:29:53 AM 21.1175 70.0115 0.3843001 8.152201 5.702499 21.1175
8/16/2021 2:44:54 AM 21.0675 69.9215 0.3839501 8.143101 5.720001 21.0675
8/16/2021 2:59:53 AM 21.015 69.827 0.3839501 8.132601 5.705002 21.015
8/16/2021 3:14:54 AM 20.9625 69.7325 0.3836 8.123501 5.894997 20.9625
8/16/2021 3:29:54 AM 20.8925 69.6065 0.3832499 8.113001 5.849998 20.8925
8/16/2021 3:44:54 AM 20.825 69.485 0.3832499 8.105301 5.862503 20.825
8/16/2021 3:59:54 AM 20.77 69.386 0.3829501 8.090599 6.057503 20.77
8/16/2021 4:14:54 AM 20.72 69.296 0.38185 8.079399 7.567497 20.72
8/16/2021 4:29:54 AM 20.6675 69.2015 0.3815 8.070299 7.712502 20.6675
8/16/2021 4:44:54 AM 20.6175 69.1115 0.38085 8.060499 7.620003 20.6175
8/16/2021 4:59:54 AM 20.565 69.017 0.3805 8.049999 6.974998 20.565
8/16/2021 5:14:54 AM 20.495 68.891 0.3805 8.045099 6.495003 20.495
8/16/2021 5:44:54 AM 20.3575 68.6435 0.38015 8.031099 6.077499 20.3575
8/16/2021 5:59:54 AM 20.28 68.504 0.37985 8.024799 6.209999 20.28
8/16/2021 6:14:54 AM 20.2125 68.3825 0.37945 8.015699 6.040001 20.2125
8/16/2021 6:29:54 AM 20.1625 68.2925 0.37915 8.008699 5.972504 20.1625
8/16/2021 6:44:54 AM 20.1275 68.2295 0.3784 8.004499 6.455002 20.1275
8/16/2021 6:59:53 AM 20.0925 68.1665 0.3781 8.000299 6.4925 20.0925
8/16/2021 7:14:53 AM 20.075 68.135 0.3770499 7.998899 6.144997 20.075
8/16/2021 7:29:53 AM 20.0725 68.1305 0.3763501 7.996799 6.177498 20.0725
8/16/2021 7:44:53 AM 20.075 68.135 0.3756499 7.990499 6.245003 20.075
8/16/2021 7:59:53 AM 20.0575 68.1035 0.3749501 7.9849 6.277496 20.0575
8/16/2021 8:14:53 AM 20.0725 68.1305 0.3739 7.987 6.360001 20.0725
8/16/2021 8:29:53 AM 20.1125 68.2025 0.37285 7.987 5.915001 20.1125
8/16/2021 8:44:53 AM 20.1475 68.2655 0.37185 7.9856 5.915001 20.1475
8/16/2021 8:59:53 AM 20.1275 68.2295 0.3711 7.9877 5.910004 20.1275
8/16/2021 9:14:53 AM 20.1475 68.2655 0.3701 7.9863 5.892502 20.1475
8/16/2021 9:44:54 AM 20.215 68.387 0.3683501 7.9828 5.8675 20.215
8/16/2021 9:59:53 AM 20.2475 68.4455 0.3677 7.9751 5.952499 20.2475
8/16/2021 10:14:54 AM 20.265 68.477 0.3669501 7.9765 5.827499 20.265
8/16/2021 10:29:53 AM 20.28 68.504 0.3662499 7.9772 5.959999 20.28
8/16/2021 10:44:53 AM 20.295 68.531 0.3659 7.9765 5.792503 20.295
8/16/2021 10:59:53 AM 20.2975 68.5355 0.3652 7.9716 5.612503 20.2975
8/16/2021 11:14:53 AM 20.2975 68.5355 0.3645 7.9702 5.730003 20.2975
8/16/2021 11:29:53 AM 20.2975 68.5355 0.36385 7.966 5.919998 20.2975
8/16/2021 11:44:53 AM 20.28 68.504 0.36345 7.9611 5.519997 20.28
8/16/2021 11:59:53 AM 20.28 68.504 0.3627501 7.9604 5.970001 20.28
8/16/2021 12:14:53 PM 20.295 68.531 0.3624499 7.9604 5.709999 20.295
8/16/2021 12:29:54 PM 20.3125 68.5625 0.3620499 7.9597 5.622498 20.3125
8/16/2021 12:44:54 PM 20.3475 68.6255 0.3613501 7.9653 5.620003 20.3475
8/16/2021 12:59:53 PM 20.3975 68.7155 0.3606499 7.9709 5.547501 20.3975
8/16/2021 1:14:54 PM 20.45 68.81 0.3599501 7.9807 5.702499 20.45
8/16/2021 1:29:54 PM 20.5025 68.9045 0.3593 7.9856 5.597504 20.5025
8/16/2021 1:44:54 PM 20.5525 68.9945 0.35855 7.995399 5.5625 20.5525
8/16/2021 2:14:54 PM 20.655 69.179 0.35785 8.009399 5.470001 20.655
8/16/2021 2:29:53 PM 20.6925 69.2465 0.3575501 8.017799 5.419998 20.6925
8/16/2021 2:44:53 PM 20.725 69.305 0.35685 8.022699 5.3825 20.725
8/16/2021 2:59:53 PM 20.7425 69.3365 0.3561 8.033199 5.375 20.7425
8/16/2021 3:14:53 PM 20.745 69.341 0.3558001 8.035999 5.485001 20.745
8/16/2021 3:29:53 PM 20.745 69.341 0.3554 8.040899 5.555 20.745
8/16/2021 3:59:53 PM 20.7075 69.2735 0.3554499 8.035999 5.5075 20.7075
8/16/2021 4:14:53 PM 20.675 69.215 0.3554499 8.037399 5.455002 20.675
8/16/2021 4:29:53 PM 20.64 69.152 0.3551 8.041599 5.315002 20.64
8/16/2021 4:44:53 PM 20.64 69.152 0.3550499 8.047199 5.297501 20.64
8/16/2021 4:59:53 PM 20.6375 69.1475 0.3551 8.053499 5.230003 20.6375
8/16/2021 5:14:53 PM 20.655 69.179 0.3547501 8.061899 5.177498 20.655
8/16/2021 5:29:54 PM 20.675 69.215 0.3547501 8.076599 5.247498 20.675
8/16/2021 5:44:53 PM 20.7075 69.2735 0.3544 8.091299 5.177498 20.7075
8/16/2021 5:59:53 PM 20.7425 69.3365 0.354 8.111601 5.75 20.7425
8/16/2021 6:14:53 PM 20.7775 69.3995 0.3540499 8.106701 5.557503 20.7775
8/16/2021 6:29:53 PM 20.7975 69.4355 0.3540499 8.120001 5.455002 20.7975
8/16/2021 6:44:53 PM 20.8325 69.4985 0.3537 8.129101 5.555 20.8325
8/16/2021 6:59:53 PM 20.8475 69.5255 0.3537 8.139601 5.470001 20.8475
8/16/2021 7:14:53 PM 20.865 69.557 0.3537 8.145201 5.4375 20.865
8/16/2021 7:29:53 PM 20.885 69.593 0.3537 8.148001 5.32 20.885
8/16/2021 7:44:53 PM 20.8825 69.5885 0.3540499 8.148701 5.3675 20.8825
8/16/2021 7:59:53 PM 20.8825 69.5885 0.354 8.145901 5.434998 20.8825
8/16/2021 8:14:53 PM 20.865 69.557 0.3544 8.138201 5.387497 20.865
8/16/2021 8:29:53 PM 20.8475 69.5255 0.3540499 8.131201 5.300003 20.8475
8/16/2021 8:44:53 PM 20.83 69.494 0.3540499 8.124201 5.349998 20.83
8/16/2021 8:59:53 PM 20.8125 69.4625 0.3540499 8.066799 5.370003 20.8125
8/16/2021 9:14:53 PM 20.795 69.431 0.3540499 8.101801 5.2425 20.795
8/16/2021 9:29:53 PM 20.7775 69.3995 0.3540499 8.105301 5.302498 20.7775
8/16/2021 9:44:53 PM 20.7625 69.3725 0.3541 8.106001 5.235001 20.7625
8/16/2021 9:59:53 PM 20.745 69.341 0.3540499 8.104601 5.357498 20.745
8/16/2021 10:14:53 PM 20.725 69.305 0.35445 8.110201 5.427498 20.725
8/16/2021 10:29:54 PM 20.725 69.305 0.3544 8.110901 5.462502 20.725
8/16/2021 10:44:54 PM 20.6925 69.2465 0.3544 8.110901 5.397499 20.6925
8/16/2021 10:59:54 PM 20.6775 69.2195 0.35445 8.110201 5.402496 20.6775
8/16/2021 11:14:53 PM 20.6775 69.2195 0.3548 8.112301 5.427498 20.6775
8/16/2021 11:29:53 PM 20.66 69.188 0.3548 8.111601 5.402496 20.66
8/17/2021 12:14:53 AM 20.64 69.152 0.3550499 8.091999 7.714996 20.64
8/17/2021 12:29:53 AM 20.625 69.125 0.3551 8.080799 8.332497 20.625
8/17/2021 12:44:53 AM 20.625 69.125 0.3551 8.065399 7.565002 20.625
8/17/2021 12:59:53 AM 20.6075 69.0935 0.3554 8.052799 6.955002 20.6075
8/17/2021 1:14:53 AM 20.5875 69.0575 0.3554499 8.042299 6.207497 20.5875
8/17/2021 1:29:53 AM 20.57 69.026 0.3558001 8.028299 5.7425 20.57
8/17/2021 1:59:53 AM 20.535 68.963 0.35615 8.002399 5.697502 20.535
8/17/2021 2:14:53 AM 20.5175 68.9315 0.35615 7.994699 5.727501 20.5175
8/17/2021 2:29:54 AM 20.5025 68.9045 0.3565 7.9828 5.642502 20.5025
8/17/2021 2:44:53 AM 20.485 68.873 0.3565 7.9737 5.607498 20.485
8/17/2021 2:59:53 AM 20.4825 68.8685 0.3565 7.9667 5.589996 20.4825
8/17/2021 3:14:53 AM 20.4675 68.8415 0.35645 7.9513 5.657501 20.4675
8/17/2021 3:44:53 AM 20.45 68.81 0.35685 7.9296 5.764999 20.45
8/17/2021 3:59:53 AM 20.45 68.81 0.35715 7.9198 5.769997 20.45
8/17/2021 4:14:53 AM 20.415 68.747 0.3571999 7.91 5.889999 20.415
8/17/2021 4:29:53 AM 20.3975 68.7155 0.3571999 7.903 5.782501 20.3975
8/17/2021 4:44:53 AM 20.395 68.711 0.3575501 7.8911 5.769997 20.395
8/17/2021 4:59:53 AM 20.38 68.684 0.3575 7.8827 5.940002 20.38
8/17/2021 5:14:54 AM 20.3625 68.6525 0.3579 7.8659 5.919998 20.3625
8/17/2021 5:29:53 AM 20.3475 68.6255 0.3582 7.8589 5.887497 20.3475
8/17/2021 5:44:53 AM 20.31 68.558 0.35855 7.847 5.834999 20.31
8/17/2021 5:59:53 AM 20.295 68.531 0.3589 7.8372 5.875 20.295
8/17/2021 6:14:54 AM 20.275 68.495 0.3589501 7.8239 5.849998 20.275
8/17/2021 6:29:53 AM 20.2575 68.4635 0.3592499 7.8127 5.919998 20.2575
8/17/2021 6:44:54 AM 20.24 68.432 0.3596 7.8106 5.917503 20.24
8/17/2021 6:59:53 AM 20.225 68.405 0.3592499 7.7987 5.989998 20.225
8/17/2021 7:14:54 AM 20.205 68.369 0.3585 7.7938 5.942497 20.205
8/17/2021 7:29:54 AM 20.1725 68.3105 0.35785 7.7903 6.142502 20.1725
8/17/2021 7:44:54 AM 20.155 68.279 0.3575501 7.7798 5.900002 20.155
8/17/2021 7:59:54 AM 20.1375 68.2475 0.3571999 7.7798 6.022499 20.1375
8/17/2021 8:14:54 AM 20.1375 68.2475 0.3575 7.7735 6.027496 20.1375
8/17/2021 8:29:53 AM 20.12 68.216 0.3582 7.7714 5.889999 20.12
8/17/2021 8:44:53 AM 20.12 68.216 0.3592499 7.7637 5.794998 20.12
8/17/2021 8:59:54 AM 20.1175 68.2115 0.3599501 7.760201 5.692497 20.1175
8/17/2021 9:14:53 AM 20.12 68.216 0.3599501 7.756001 5.8125 20.12
8/17/2021 9:29:53 AM 20.1025 68.1845 0.3606 7.749701 5.879997 20.1025
8/17/2021 9:44:53 AM 20.1175 68.2115 0.3613001 7.744101 5.792503 20.1175
8/17/2021 9:59:53 AM 20.1175 68.2115 0.362 7.746201 5.722504 20.1175
8/17/2021 10:14:54 AM 20.1325 68.2385 0.3623501 7.749701 5.660004 20.1325
8/17/2021 10:29:54 AM 20.135 68.243 0.3627 7.750401 5.635002 20.135
8/17/2021 10:44:53 AM 20.17 68.306 0.3627 7.751101 5.597504 20.17
8/17/2021 10:59:54 AM 20.1875 68.3375 0.363 7.753901 5.580002 20.1875
8/17/2021 11:14:53 AM 20.205 68.369 0.3630499 7.753901 5.580002 20.205
8/17/2021 11:29:53 AM 20.24 68.432 0.3633501 7.758101 5.595001 20.24
8/17/2021 11:44:54 AM 20.255 68.459 0.3630499 7.7651 5.577499 20.255
8/17/2021 11:59:54 AM 20.27 68.486 0.3626499 7.759501 5.525002 20.27
8/17/2021 12:14:53 PM 20.29 68.522 0.3627 7.7637 5.425003 20.29
8/17/2021 12:29:54 PM 20.305 68.549 0.3633501 7.7637 5.455002 20.305
8/17/2021 12:44:54 PM 20.34 68.612 0.3636999 7.763 5.385002 20.34
8/17/2021 12:59:54 PM 20.3775 68.6795 0.3640499 7.7644 5.400002 20.3775
8/17/2021 1:14:54 PM 20.41 68.738 0.3636999 7.77 5.434998 20.41
8/17/2021 1:29:54 PM 20.4125 68.7425 0.3640499 7.7735 5.404999 20.4125
8/17/2021 1:44:53 PM 20.4625 68.8325 0.3644 7.7784 5.462502 20.4625
8/17/2021 1:59:54 PM 20.4975 68.8955 0.3647501 7.7896 5.457497 20.4975
8/17/2021 2:14:54 PM 20.5475 68.9855 0.3651 7.7973 5.419998 20.5475
8/17/2021 2:29:54 PM 20.585 69.05299 0.36545 7.8029 5.402496 20.585
8/17/2021 2:44:54 PM 20.635 69.143 0.3657501 7.8134 5.817497 20.635
8/17/2021 2:59:54 PM 20.67 69.206 0.3661 7.8211 5.332497 20.67
8/17/2021 3:14:54 PM 20.705 69.269 0.36645 7.8379 5.315002 20.705
8/17/2021 3:29:54 PM 20.7375 69.3275 0.36645 7.8568 5.4375 20.7375
8/17/2021 3:44:54 PM 20.7925 69.4265 0.36645 7.8715 5.477501 20.7925
8/17/2021 3:59:54 PM 20.8275 69.4895 0.3668 7.8848 5.452499 20.8275
8/17/2021 4:14:54 PM 20.8775 69.5795 0.36715 7.9009 5.464996 20.8775
8/17/2021 4:29:54 PM 20.9125 69.6425 0.3675 7.9184 5.372498 20.9125
8/17/2021 4:44:54 PM 20.965 69.737 0.3678001 7.9345 5.489998 20.965
8/17/2021 4:59:54 PM 21.0175 69.8315 0.3681999 7.9485 5.4375 21.0175
8/17/2021 5:14:54 PM 21.0675 69.9215 0.3685501 7.9632 5.504997 21.0675
8/17/2021 5:29:54 PM 21.1025 69.9845 0.3685 7.9772 5.389999 21.1025
8/17/2021 5:44:54 PM 21.1575 70.0835 0.36885 7.997499 5.459999 21.1575
8/17/2021 5:59:54 PM 21.19 70.142 0.36885 8.016399 5.347504 21.19
8/17/2021 6:14:54 PM 21.2425 70.2365 0.3692 8.030399 5.417503 21.2425
8/17/2021 6:29:54 PM 21.2775 70.2995 0.36955 8.040899 5.434998 21.2775
8/17/2021 6:44:54 PM 21.295 70.331 0.36985 8.047199 5.349998 21.295
8/17/2021 6:59:54 PM 21.3275 70.3895 0.3702499 8.061199 5.555 21.3275
8/17/2021 7:14:54 PM 21.345 70.421 0.3702499 8.070299 5.389999 21.345
8/17/2021 7:29:54 PM 21.3475 70.4255 0.371 8.075199 5.440002 21.3475
8/17/2021 7:44:54 PM 21.3475 70.4255 0.3712499 8.073799 5.57 21.3475
8/17/2021 7:59:54 PM 21.345 70.421 0.3712499 8.080099 6.084999 21.345
8/17/2021 8:29:53 PM 21.33 70.394 0.3723501 8.084999 6.097504 21.33
8/17/2021 8:44:53 PM 21.3125 70.3625 0.3730499 8.090599 6.082497 21.3125
8/17/2021 8:59:52 PM 21.28 70.304 0.3737501 8.088499 6.080002 21.28
8/17/2021 9:14:53 PM 21.26 70.268 0.3744 8.089899 6.167503 21.26
8/17/2021 9:42:06 PM 21.21 70.17799 0.37615 8.084999 6.327499 21.21
8/17/2021 9:57:06 PM 21.19 70.142 0.37685 8.080799 6.169998 21.19
8/17/2021 10:12:06 PM 21.175 70.115 0.37755 8.075899 6.105003 21.175
8/17/2021 10:14:53 PM 21.175 70.115 0.37755 8.075899 6.105003 21.175
8/17/2021 10:29:53 PM 21.1575 70.0835 0.3789501 8.072399 6.227501 21.1575
8/17/2021 10:44:53 PM 21.14 70.052 0.3803 8.071699 6.3125 21.14
8/17/2021 10:59:53 PM 21.1225 70.0205 0.3820499 8.031099 6.279999 21.1225
8/17/2021 11:14:53 PM 21.0875 69.9575 0.3834 8.037399 6.352501 21.0875
8/17/2021 11:29:53 PM 21.0725 69.9305 0.3848 8.033199 6.452499 21.0725
8/17/2021 11:44:53 PM 21.04 69.872 0.38515 8.021299 6.387497 21.04
8/18/2021 12:14:53 AM 20.9875 69.7775 0.3838001 7.999599 8.477501 20.9875
8/18/2021 12:29:53 AM 20.9675 69.7415 0.3816499 7.9835 11.165 20.9675
8/18/2021 12:44:53 AM 20.95 69.71 0.3789 7.9639 11.1275 20.95
8/18/2021 12:59:52 AM 20.9325 69.6785 0.37685 7.9506 9.775002 20.9325
8/18/2021 1:14:52 AM 20.915 69.647 0.37545 7.9366 8.107498 20.915
8/18/2021 1:29:52 AM 20.8825 69.5885 0.373 7.9205 7.815002 20.8825
8/18/2021 1:44:53 AM 20.8625 69.5525 0.3706499 7.9107 7.8125 20.8625
8/18/2021 1:59:53 AM 20.865 69.557 0.3681999 7.896 8.004997 20.865
8/18/2021 2:14:53 AM 20.8475 69.5255 0.3658001 7.8813 8.127502 20.8475
8/18/2021 2:29:53 AM 20.8475 69.5255 0.363 7.868 8.25 20.8475
8/18/2021 2:44:53 AM 20.845 69.521 0.3606 7.8533 8.580002 20.845
8/18/2021 2:59:53 AM 20.83 69.494 0.35855 7.8414 8.707497 20.83
8/18/2021 3:14:52 AM 20.8125 69.4625 0.3568 7.8267 9.169998 20.8125
8/18/2021 3:29:53 AM 20.8125 69.4625 0.3550499 7.812 8.962502 20.8125
8/18/2021 3:44:53 AM 20.795 69.431 0.3537 7.8001 9.152496 20.795
8/18/2021 3:59:52 AM 20.78 69.404 0.3526499 7.7896 9.139999 20.78
8/18/2021 4:14:53 AM 20.7775 69.3995 0.3516 7.7812 9.154999 20.7775
8/18/2021 4:29:53 AM 20.7625 69.3725 0.3509501 7.7686 9.377502 20.7625
8/18/2021 4:44:53 AM 20.7425 69.3365 0.3501999 7.7616 9.205002 20.7425
8/18/2021 4:59:53 AM 20.7425 69.3365 0.34955 7.750401 9.135002 20.7425
8/18/2021 5:14:53 AM 20.7625 69.3725 0.34915 7.744101 9.169998 20.7625
8/18/2021 5:29:52 AM 20.76 69.368 0.34885 7.734301 9.099998 20.76
8/18/2021 5:44:53 AM 20.76 69.368 0.3485 7.725201 9.272499 20.76
8/18/2021 5:59:53 AM 20.76 69.368 0.3485 7.720301 9.055 20.76
8/18/2021 6:14:53 AM 20.745 69.341 0.34885 7.715401 8.940002 20.745
8/18/2021 6:29:53 AM 20.745 69.341 0.3492 7.705601 9.047501 20.745
8/18/2021 6:44:53 AM 20.7275 69.3095 0.3492 7.701401 8.907501 20.7275
8/18/2021 6:59:53 AM 20.7275 69.3095 0.34955 7.695101 9.592499 20.7275
8/18/2021 7:14:53 AM 20.725 69.305 0.3499 7.693001 9.047501 20.725
8/18/2021 7:29:53 AM 20.725 69.305 0.3502499 7.692301 8.985001 20.725
8/18/2021 7:44:52 AM 20.725 69.305 0.3505501 7.687401 9.334999 20.725
8/18/2021 8:14:53 AM 20.725 69.305 0.3512499 7.681801 8.824997 20.725
8/18/2021 8:29:53 AM 20.7425 69.3365 0.3516499 7.676901 8.650002 20.7425
8/18/2021 8:44:52 AM 20.7425 69.3365 0.3516 7.672001 8.839996 20.7425
8/18/2021 8:59:53 AM 20.7425 69.3365 0.3516 7.672701 8.577499 20.7425
8/18/2021 9:14:52 AM 20.74 69.332 0.3516 7.672701 8.440002 20.74
8/18/2021 9:29:53 AM 20.74 69.332 0.3516 7.672701 8.82 20.74
8/18/2021 9:44:53 AM 20.7575 69.3635 0.3513001 7.672001 8.370003 20.7575
8/18/2021 9:59:52 AM 20.7575 69.3635 0.3509 7.671301 8.627502 20.7575
8/18/2021 10:14:52 AM 20.7425 69.3365 0.3501999 7.676901 8.125 20.7425
8/18/2021 10:29:52 AM 20.74 69.332 0.34985 7.681801 8.260002 20.74
8/18/2021 10:44:53 AM 20.7425 69.3365 0.3499501 7.680401 8.102501 20.7425
8/18/2021 10:59:53 AM 20.7225 69.3005 0.34915 7.677601 8.105003 20.7225
8/18/2021 11:14:53 AM 20.725 69.305 0.34815 7.675501 8.120003 20.725
8/18/2021 11:29:53 AM 20.7075 69.2735 0.3460499 7.674801 8.552498 20.7075
8/18/2021 11:44:53 AM 20.69 69.242 0.3422 7.665701 10.13 20.69
8/18/2021 11:59:53 AM 20.6575 69.1835 0.3377501 7.652399 12.37 20.6575
8/18/2021 12:14:53 PM 20.64 69.152 0.3329 7.642599 13.7625 20.64
8/18/2021 12:29:53 PM 20.62 69.116 0.3287501 7.632099 15.785 20.62
8/18/2021 12:44:53 PM 20.6025 69.0845 0.3246 7.617399 18.01 20.6025
8/18/2021 12:59:53 PM 20.585 69.05299 0.3211 7.603399 21.2175 20.585
8/18/2021 1:14:53 PM 20.5675 69.0215 0.3166 7.582399 27.42 20.5675
8/18/2021 1:29:53 PM 20.5325 68.9585 0.3111 7.557899 40.1725 20.5325
8/18/2021 1:44:53 PM 20.515 68.927 0.3044499 7.5348 54.84998 20.515
8/18/2021 1:59:53 PM 20.515 68.927 0.2972499 7.5131 78.04993 20.515
8/18/2021 2:14:53 PM 20.5125 68.9225 0.2899501 7.4949 105.6 20.5125
8/18/2021 2:29:53 PM 20.5125 68.9225 0.2826999 7.476 134.45 20.5125
8/18/2021 2:44:53 PM 20.515 68.927 0.2761 7.4557 156.6 20.515
8/18/2021 2:59:53 PM 20.5325 68.9585 0.2702499 7.4431 173.7501 20.5325
8/18/2021 3:14:53 PM 20.515 68.927 0.2654 7.427 181.3501 20.515
8/18/2021 3:29:52 PM 20.515 68.927 0.2616 7.4179 184.0499 20.515
8/18/2021 3:44:53 PM 20.5125 68.9225 0.25885 7.4074 185 20.5125
8/18/2021 3:59:53 PM 20.48 68.864 0.2568001 7.4039 185.8 20.48
8/18/2021 4:14:53 PM 20.4625 68.8325 0.2550499 7.3969 200.5 20.4625
8/18/2021 4:44:53 PM 20.41 68.738 0.2526 7.3934 217.7501 20.41
8/18/2021 4:59:53 PM 20.3925 68.7065 0.2529501 7.3885 217.5 20.3925
8/18/2021 5:14:53 PM 20.3575 68.6435 0.254 7.3941 211.2499 20.3575
8/18/2021 5:44:53 PM 20.305 68.549 0.2553501 7.3885 187.55 20.305
8/18/2021 5:59:53 PM 20.2725 68.49049 0.2550499 7.3927 179.5 20.2725
8/18/2021 6:14:53 PM 20.2375 68.4275 0.2536499 7.3892 174.1 20.2375
8/18/2021 6:29:53 PM 20.185 68.333 0.2523001 7.3878 170.6 20.185
8/18/2021 6:44:53 PM 20.17 68.306 0.2519501 7.3885 166 20.17
8/18/2021 6:59:53 PM 20.135 68.243 0.2533501 7.3885 159.5 20.135
8/18/2021 7:14:53 PM 20.1175 68.2115 0.2567501 7.3941 150.3501 20.1175
8/18/2021 7:29:53 PM 20.1 68.18 0.262 7.3927 138.7 20.1
8/18/2021 7:44:53 PM 20.0975 68.1755 0.26815 7.4088 122.2499 20.0975
8/18/2021 7:59:53 PM 20.1 68.18 0.2747501 7.4284 108.4 20.1
8/18/2021 8:14:53 PM 20.1175 68.2115 0.2823501 7.4417 95.44995 20.1175
8/18/2021 9:59:54 PM 20.22 68.396 0.2959 7.5194 64.3501 20.22
8/18/2021 10:14:53 PM 20.22 68.396 0.2893001 7.5194 68.19995 20.22
8/18/2021 10:29:53 PM 20.205 68.369 0.2806499 7.5152 78.90002 20.205
8/18/2021 10:59:53 PM 20.135 68.243 0.263 7.4767 136.45 20.135
8/18/2021 11:14:53 PM 20.08 68.144 0.2557501 7.4578 168.5 20.08
8/18/2021 11:29:53 PM 20.0125 68.0225 0.2485 7.441 208.7501 20.0125
8/18/2021 11:44:53 PM 19.96 67.92799 0.24155 7.4291 229.6499 19.96
8/19/2021 12:14:53 AM 19.84 67.712 0.226 7.4067 268.6 19.84
8/19/2021 12:29:53 AM 19.805 67.649 0.2163501 7.3745 323.3501 19.805
8/19/2021 12:44:53 AM 19.77 67.586 0.2090499 7.3843 334.0499 19.77
8/19/2021 12:59:53 AM 19.7525 67.5545 0.2042 7.385 322 19.7525
8/19/2021 1:14:53 AM 19.735 67.523 0.2014499 7.3773 287.6 19.735
8/19/2021 1:29:54 AM 19.7325 67.5185 0.1990499 7.3689 260.55 19.7325
8/19/2021 1:44:53 AM 19.735 67.523 0.1952499 7.3591 260.85 19.735
8/19/2021 1:59:53 AM 19.72 67.496 0.189 7.3556 286.9 19.72
8/19/2021 2:14:53 AM 19.6825 67.4285 0.1828001 7.3458 356.4 19.6825
8/19/2021 2:29:53 AM 19.5975 67.2755 0.1759 7.3353 458.45 19.5975
8/19/2021 2:44:53 AM 19.525 67.145 0.17 7.320601 549.8499 19.525
8/19/2021 2:59:53 AM 19.4575 67.0235 0.1644499 7.305901 601.45 19.4575
8/19/2021 3:14:53 AM 19.4025 66.9245 0.1582499 7.294701 662.3501 19.4025
8/19/2021 3:29:53 AM 19.3525 66.8345 0.1526999 7.287001 694.3 19.3525
8/19/2021 3:44:54 AM 19.3175 66.7715 0.1475 7.275801 732.7 19.3175
8/19/2021 3:59:54 AM 19.2825 66.7085 0.1433501 7.263201 754.6499 19.2825
8/19/2021 4:14:54 AM 19.25 66.65 0.13955 7.252701 787.5 19.25
8/19/2021 4:29:54 AM 19.2175 66.5915 0.1357501 7.238001 836.1001 19.2175
8/19/2021 4:44:54 AM 19.18 66.524 0.1333501 7.222601 871.8499 19.18
8/19/2021 4:59:54 AM 19.145 66.461 0.1316499 7.202299 928.1501 19.145
8/19/2021 5:14:54 AM 19.1275 66.4295 0.1302 7.184799 973.25 19.1275
8/19/2021 5:29:54 AM 19.095 66.371 0.12885 7.168699 996.5 19.095
8/19/2021 5:44:54 AM 19.0575 66.3035 0.12815 7.151899 996.6001 19.0575
8/19/2021 5:59:54 AM 19.04 66.272 0.1274499 7.149799 996.6001 19.04
8/19/2021 6:14:54 AM 19.0225 66.24049 0.1271 7.139999 996.6499 19.0225
8/19/2021 6:29:54 AM 19.0225 66.24049 0.1271 7.131599 996.6001 19.0225
8/19/2021 6:44:54 AM 19.005 66.209 0.1274499 7.126699 996.55 19.005
8/19/2021 6:59:54 AM 19.005 66.209 0.1278 7.116199 996.6001 19.005
8/19/2021 7:14:54 AM 19.005 66.209 0.12815 7.116199 996.55 19.005
8/19/2021 7:29:54 AM 19.0225 66.24049 0.1281 7.1113 996.45 19.0225
8/19/2021 7:44:54 AM 19.0225 66.24049 0.12885 7.1106 996.45 19.0225
8/19/2021 7:59:54 AM 19.04 66.272 0.1295501 7.115499 996.6001 19.04
8/19/2021 8:14:54 AM 19.0575 66.3035 0.1302499 7.116199 996.5 19.0575
8/19/2021 8:29:54 AM 19.075 66.335 0.1309 7.121099 996.5 19.075
8/19/2021 8:44:54 AM 19.075 66.335 0.1316 7.119699 996.5 19.075
8/19/2021 8:59:54 AM 19.09 66.362 0.1319501 7.121099 996.5 19.09
8/19/2021 9:14:54 AM 16.99 62.582 0.5224 7.0861 306.9501 16.99
8/19/2021 9:29:54 AM 15.655 60.179 0.3836499 7.222601 506.3 15.655
8/19/2021 9:44:54 AM 17.0075 62.6135 0.3505 7.125999 873.25 17.0075
8/19/2021 9:59:54 AM 17.06 62.708 0.3484499 7.116199 897.3 17.06
8/19/2021 10:14:54 AM 17.0125 62.6225 0.3488001 7.126699 889.3 17.0125
8/19/2021 10:29:54 AM 17.0625 62.7125 0.33145 7.133699 886.5 17.0625
8/19/2021 10:59:54 AM 18.3975 65.11549 0.2046 7.0966 996.45 18.3975
8/19/2021 11:14:54 AM 18.5 65.3 0.1973 7.0966 996.6499 18.5
8/19/2021 11:29:54 AM 18.6225 65.5205 0.188 7.1071 996.55 18.6225
8/19/2021 11:44:54 AM 18.8 65.84 0.1669 7.116199 996.45 18.8
8/19/2021 11:59:54 AM 18.9175 66.0515 0.1551 7.116199 996.45 18.9175
8/19/2021 12:14:54 PM 19.005 66.209 0.1496 7.120399 996.5 19.005
8/19/2021 12:29:54 PM 19.055 66.299 0.1454 7.129499 996.55 19.055
8/19/2021 12:44:54 PM 19.09 66.362 0.1440499 7.139999 996.45 19.09
8/19/2021 12:59:54 PM 19.1075 66.3935 0.143 7.149799 996.55 19.1075
8/19/2021 1:14:54 PM 19.1425 66.4565 0.143 7.169399 996.5 19.1425
8/19/2021 1:29:54 PM 19.175 66.515 0.1426499 7.179199 996.55 19.175
8/19/2021 1:44:54 PM 19.195 66.551 0.1429501 7.183399 996.3501 19.195
8/19/2021 1:59:54 PM 19.2125 66.5825 0.1436999 7.198099 996.3999 19.2125
8/19/2021 2:14:54 PM 19.2125 66.5825 0.1440499 7.201599 996.45 19.2125
8/19/2021 2:29:54 PM 19.1925 66.5465 0.1446999 7.207899 996.55 19.1925
8/19/2021 2:44:54 PM 19.1925 66.5465 0.1450499 7.213499 996.5 19.1925
8/19/2021 2:59:54 PM 19.195 66.551 0.1457501 7.216299 996.45 19.195
8/19/2021 3:14:54 PM 19.2125 66.5825 0.1461 7.226801 996.5 19.2125
8/19/2021 3:29:54 PM 19.23 66.614 0.1464 7.228201 996.55 19.23
8/19/2021 3:44:54 PM 19.245 66.641 0.1465 7.232401 996.45 19.245
8/19/2021 3:59:54 PM 19.265 66.677 0.1468001 7.236601 996.3999 19.265
8/19/2021 4:14:54 PM 19.2825 66.7085 0.1475 7.240801 996.5 19.2825
8/19/2021 4:29:54 PM 19.3 66.74 0.14785 7.242201 996.3501 19.3
8/19/2021 4:44:54 PM 19.3175 66.7715 0.1478 7.246401 996.55 19.3175
8/19/2021 4:59:54 PM 19.35 66.83 0.14815 7.245701 996.5 19.35
8/19/2021 5:14:54 PM 19.35 66.83 0.14855 7.251301 996.5 19.35
8/19/2021 5:29:54 PM 19.35 66.83 0.14855 7.252001 996.5 19.35
8/19/2021 5:44:54 PM 19.3525 66.8345 0.14885 7.252001 996.3999 19.3525
8/19/2021 5:59:54 PM 19.3675 66.8615 0.14885 7.257601 996.5 19.3675
8/19/2021 6:14:54 PM 19.385 66.893 0.1491999 7.256201 996.55 19.385
8/19/2021 6:29:54 PM 19.42 66.956 0.1492499 7.256901 996.55 19.42
8/19/2021 6:44:54 PM 19.42 66.956 0.1496 7.261801 996.3999 19.42
8/19/2021 6:59:54 PM 19.4175 66.9515 0.1499 7.262501 996.55 19.4175
8/19/2021 7:14:54 PM 19.4025 66.9245 0.1502499 7.261801 996.6001 19.4025
8/19/2021 7:29:54 PM 19.37 66.866 0.1503001 7.266001 996.55 19.37
8/19/2021 7:44:54 PM 19.3675 66.8615 0.1506 7.267401 996.45 19.3675
8/19/2021 7:59:54 PM 19.35 66.83 0.1513 7.266701 996.45 19.35
8/19/2021 8:14:54 PM 19.3325 66.7985 0.152 7.265301 996.5 19.3325
8/19/2021 8:29:54 PM 19.3175 66.7715 0.1523501 7.265301 996.5 19.3175
8/19/2021 8:44:54 PM 19.28 66.704 0.1526999 7.272301 996.5 19.28
8/19/2021 8:59:53 PM 19.25 66.65 0.153 7.270901 996.55 19.25
8/19/2021 9:14:53 PM 19.2475 66.6455 0.1534 7.270201 996.5 19.2475
8/19/2021 9:29:54 PM 19.23 66.614 0.1537501 7.270901 996.5 19.23
8/19/2021 9:44:54 PM 19.215 66.587 0.1541 7.273001 996.6001 19.215
8/19/2021 9:59:53 PM 19.215 66.587 0.1544 7.272301 996.5 19.215
8/19/2021 10:14:53 PM 19.1975 66.5555 0.15515 7.272301 996.5 19.1975
8/19/2021 10:29:54 PM 19.2325 66.6185 0.1551 7.271601 996.45 19.2325
8/19/2021 10:44:54 PM 19.25 66.65 0.1555 7.270901 996.55 19.25
8/19/2021 10:59:53 PM 19.2325 66.6185 0.1558 7.272301 996.45 19.2325
8/19/2021 11:14:53 PM 19.215 66.587 0.1565 7.271601 996.7 19.215
8/19/2021 11:29:53 PM 19.215 66.587 0.15685 7.270201 996.55 19.215
8/19/2021 11:44:54 PM 19.1975 66.5555 0.1575501 7.267401 996.5 19.1975
8/20/2021 12:14:54 AM 19.18 66.524 0.1589501 7.263901 996.55 19.18
8/20/2021 12:29:54 AM 19.18 66.524 0.1596999 7.261801 986.25 19.18
8/20/2021 12:44:54 AM 19.165 66.497 0.1600499 7.262501 964 19.165
8/20/2021 12:59:54 AM 19.1625 66.4925 0.1606499 7.262501 945.2 19.1625
8/20/2021 1:14:54 AM 19.1625 66.4925 0.1613501 7.259001 927.55 19.1625
8/20/2021 1:29:54 AM 19.1475 66.4655 0.1620499 7.256901 904.8999 19.1475
8/20/2021 1:44:54 AM 19.145 66.461 0.1627501 7.259001 868.8499 19.145
8/20/2021 1:59:54 AM 19.1275 66.4295 0.1631 7.252701 850.3999 19.1275
8/20/2021 2:14:54 AM 19.13 66.434 0.16415 7.251301 809.8499 19.13
8/20/2021 2:29:54 AM 19.13 66.434 0.1645 7.249201 780.0498 19.13
8/20/2021 2:44:54 AM 19.1125 66.4025 0.1652 7.247101 765.1501 19.1125
8/20/2021 2:59:54 AM 19.0975 66.3755 0.1655501 7.247101 742.5 19.0975
8/20/2021 3:14:54 AM 19.0775 66.3395 0.1659 7.243601 718.9502 19.0775
8/20/2021 3:29:54 AM 19.06 66.308 0.1662499 7.238701 719.2 19.06
8/20/2021 3:44:54 AM 19.025 66.245 0.1659 7.234501 733.1501 19.025
8/20/2021 4:14:54 AM 18.99 66.182 0.1659 7.228901 703.1501 18.99
8/20/2021 4:29:54 AM 18.975 66.155 0.1659 7.228901 684.2 18.975
8/20/2021 4:44:54 AM 18.955 66.119 0.1659 7.224001 679.55 18.955
8/20/2021 4:59:54 AM 18.9375 66.0875 0.1659 7.217699 659.5 18.9375
8/20/2021 5:14:54 AM 18.905 66.029 0.1662 7.214899 656.3501 18.905
8/20/2021 5:29:54 AM 18.8875 65.9975 0.1662499 7.213499 654.75 18.8875
8/20/2021 5:44:54 AM 18.87 65.966 0.1662 7.209299 635.8499 18.87
8/20/2021 5:59:54 AM 18.835 65.903 0.1666 7.198799 624.1001 18.835
8/20/2021 6:14:54 AM 18.82 65.876 0.1666 7.193899 625.2 18.82
8/20/2021 6:29:54 AM 18.8 65.84 0.1666 7.195299 620.3 18.8
8/20/2021 6:44:54 AM 18.785 65.813 0.1669501 7.188999 609.8499 18.785
8/20/2021 6:59:54 AM 18.765 65.777 0.1669 7.186199 615.3999 18.765
8/20/2021 7:14:54 AM 18.75 65.75 0.1672499 7.181299 596.3501 18.75
8/20/2021 7:29:54 AM 18.75 65.75 0.1676499 7.179899 583.0498 18.73
8/20/2021 7:44:54 AM 18.7325 65.7185 0.1676 7.181299 577.9502 18.7325
8/20/2021 7:59:54 AM 18.7475 65.7455 0.1676 7.181299 568.8999 18.7475
8/20/2021 8:14:54 AM 18.7675 65.7815 0.1676 7.178499 597.1001 18.7675
8/20/2021 8:29:54 AM 18.78 65.804 0.1679501 7.179899 659.6001 18.78
8/20/2021 8:44:54 AM 18.7825 65.8085 0.1679501 7.179199 615.3999 18.7825
8/20/2021 8:59:54 AM 18.8 65.84 0.1679501 7.178499 573.8499 18.8
8/20/2021 9:14:54 AM 18.8325 65.8985 0.1679501 7.179199 536.9501 18.8325
8/20/2021 9:29:54 AM 18.8675 65.9615 0.1679501 7.165899 497.3 18.8675
8/20/2021 9:44:54 AM 18.905 66.029 0.1679501 7.153999 488.6499 18.905
8/20/2021 9:59:54 AM 18.9375 66.0875 0.1683 7.134399 481.8 18.9375
8/20/2021 10:14:54 AM 18.9875 66.1775 0.1682499 7.125299 490.6 18.9875
8/20/2021 10:29:54 AM 19.0225 66.24049 0.1682499 7.1001 488.4 19.0225
8/20/2021 10:44:54 AM 19.0925 66.3665 0.1682499 7.1064 489.6 19.0925
8/20/2021 11:14:54 AM 19.2275 66.6095 0.16785 7.116899 480.6 19.2275
8/20/2021 11:44:54 AM 19.2825 66.7085 0.1679 7.0217 468.7501 19.2825
8/20/2021 11:59:54 AM 19.35 66.83 0.1679 7.0616 470.1 19.35
8/20/2021 12:14:54 PM 19.385 66.893 0.1682499 7.128799 473.3 19.385
8/20/2021 12:29:54 PM 19.4025 66.9245 0.1682499 7.123199 476.5 19.4025
8/20/2021 12:44:54 PM 19.42 66.956 0.1682 7.1092 466.6499 19.42
8/20/2021 12:59:54 PM 19.47 67.046 0.1682499 7.134399 457.9501 19.47
8/20/2021 1:14:54 PM 19.505 67.109 0.1682 7.1001 463.6499 19.505
8/20/2021 1:29:54 PM 19.5225 67.1405 0.1682499 7.0896 470.9501 19.5225
8/20/2021 1:44:54 PM 19.54 67.172 0.16855 7.163799 459.7 19.54
8/20/2021 1:59:54 PM 19.5575 67.2035 0.16855 7.0959 461.2 19.5575
8/20/2021 2:14:54 PM 19.61 67.298 0.16855 7.0714 459.7 19.61
8/20/2021 2:29:54 PM 19.645 67.361 0.1686 7.0511 458.6499 19.645
8/20/2021 2:59:54 PM 19.66 67.388 0.1686 7.0854 453.9 19.66
8/20/2021 3:14:54 PM 19.6775 67.4195 0.1686 7.0511 462.9501 19.6775
8/20/2021 3:29:54 PM 19.71 67.478 0.1686 7.0273 454.6 19.71
8/20/2021 3:44:54 PM 19.73 67.514 0.16855 7.0028 461.9 19.73
8/20/2021 3:59:54 PM 19.73 67.514 0.16855 6.979 469.0499 19.73
8/20/2021 4:14:54 PM 19.7475 67.5455 0.16855 6.958 456.6 19.7475
8/20/2021 4:29:54 PM 19.785 67.613 0.1686 6.9433 454.6 19.785
8/20/2021 4:44:54 PM 19.835 67.703 0.1682499 6.9244 453.2499 19.835
8/20/2021 4:59:54 PM 19.8675 67.7615 0.16785 6.9111 452.5 19.8675
8/20/2021 5:14:54 PM 19.885 67.793 0.16785 6.8957 474.3501 19.885
8/20/2021 5:29:54 PM 19.905 67.829 0.16785 6.875401 455.2 19.905
8/20/2021 5:44:54 PM 19.92 67.856 0.16785 6.860701 461.0499 19.92
8/20/2021 5:59:54 PM 19.94 67.892 0.1682499 6.846001 450.3501 19.94
8/20/2021 6:14:54 PM 19.92 67.856 0.16855 6.833401 457.3 19.92
8/20/2021 6:29:54 PM 19.85 67.73 0.1689 6.813801 452.85 19.85
8/20/2021 6:44:54 PM 19.8175 67.6715 0.1692499 6.798401 454.9 19.8175
8/20/2021 6:59:54 PM 19.8 67.64 0.1692499 6.788601 459.8 19.8
8/20/2021 7:14:54 PM 19.75 67.55 0.1692499 6.778799 466.7 19.75
8/20/2021 7:29:54 PM 19.75 67.55 0.1696 6.773899 468.8 19.75
8/20/2021 7:44:54 PM 19.6975 67.4555 0.17 6.768999 458.45 19.6975
8/20/2021 7:59:54 PM 19.6625 67.3925 0.1699501 6.758499 460.15 19.6625
8/20/2021 8:14:54 PM 19.6275 67.3295 0.1703001 6.765499 454.5 19.6275
8/20/2021 8:29:54 PM 19.595 67.271 0.1706499 6.848101 450.5 19.595
8/20/2021 8:44:55 PM 19.54 67.172 0.1706499 6.8859 465.4 19.54
8/20/2021 8:59:54 PM 19.51 67.118 0.1710499 6.9048 461.45 19.51
8/20/2021 9:14:55 PM 19.475 67.055 0.171 6.902 448 19.475
8/20/2021 9:29:55 PM 19.4725 67.0505 0.1710499 6.888 435.5 19.4725
8/20/2021 9:44:55 PM 19.49 67.082 0.1710499 6.872601 440.4 19.49
8/20/2021 9:59:55 PM 19.475 67.055 0.171 6.862101 433.0499 19.475
8/20/2021 10:14:55 PM 19.4225 66.9605 0.1713501 6.847401 437.2499 19.4225
8/20/2021 10:29:55 PM 19.4225 66.9605 0.1713501 6.837601 445.6 19.4225
8/20/2021 10:44:55 PM 19.3875 66.8975 0.1714 6.822901 452.85 19.3875
8/20/2021 10:59:54 PM 19.3875 66.8975 0.1717 6.814501 450.7501 19.3875
8/20/2021 11:14:54 PM 19.3675 66.8615 0.1717 6.810301 449.7 19.3675
8/20/2021 11:29:54 PM 19.3525 66.8345 0.1714 6.804001 450.2 19.3525
8/20/2021 11:44:54 PM 19.3525 66.8345 0.1714 6.800501 450.7 19.3525
8/21/2021 12:14:54 AM 19.32 66.776 0.1717501 6.793501 455 19.32
8/21/2021 12:29:54 AM 19.285 66.713 0.1717 6.796301 460.85 19.285
8/21/2021 12:44:54 AM 19.285 66.713 0.1717501 6.790001 464.6499 19.285
8/21/2021 12:59:54 AM 19.3025 66.7445 0.1717501 6.790001 469.15 19.3025
8/21/2021 1:14:54 AM 19.285 66.713 0.1717501 6.790701 456.45 19.285
8/21/2021 1:29:54 AM 19.2675 66.6815 0.1717 6.790701 476.55 19.2675
8/21/2021 1:44:54 AM 19.27 66.686 0.1717501 6.793501 468.9501 19.27
8/21/2021 1:59:54 AM 19.2325 66.6185 0.1717 6.794201 480 19.2325
8/21/2021 2:14:54 AM 19.215 66.587 0.1721 6.794201 484.1 19.215
8/21/2021 2:29:54 AM 19.215 66.587 0.1721 6.799101 479.4 19.215
8/21/2021 2:44:54 AM 19.2 66.56 0.1721 6.804001 271.7 19.2
8/21/2021 2:59:54 AM 19.2175 66.5915 0.1720499 6.810301 200.0499 19.2175
8/21/2021 3:14:54 AM 19.215 66.587 0.1721 6.813101 185.9501 19.215
8/21/2021 3:29:54 AM 19.215 66.587 0.1720499 6.825001 177.15 19.215
8/21/2021 3:44:54 AM 19.1975 66.5555 0.1724499 6.829901 163.2 19.1975
8/21/2021 3:59:54 AM 19.18 66.524 0.1724 6.834801 466.8 19.18
8/21/2021 4:14:54 AM 19.165 66.497 0.1724 6.838301 463.9501 19.165
8/21/2021 4:29:54 AM 19.165 66.497 0.1724499 6.847401 466.0499 19.165
8/21/2021 4:44:53 AM 19.1625 66.4925 0.1724 6.853001 463 19.1625
8/21/2021 4:59:53 AM 19.1475 66.4655 0.1724499 6.857901 464.6499 19.1475
8/21/2021 5:29:54 AM 19.13 66.434 0.1724499 6.868401 468.7501 19.13
8/21/2021 5:44:54 AM 19.1125 66.4025 0.1724499 6.876801 466.6 19.1125
8/21/2021 5:59:54 AM 19.0925 66.3665 0.1724499 6.883101 467.5 19.0925
8/21/2021 6:14:54 AM 19.0775 66.3395 0.1727501 6.883101 469.55 19.0775
8/21/2021 6:29:54 AM 19.06 66.308 0.1727501 6.9027 470.15 19.06
8/21/2021 6:44:54 AM 19.0425 66.2765 0.1727501 6.9314 467.15 19.0425
8/21/2021 6:59:54 AM 19.025 66.245 0.17315 6.9412 394.9 19.025
8/21/2021 7:14:55 AM 19.025 66.245 0.1734499 6.9349 332.7 19.025
8/21/2021 7:29:54 AM 19.0275 66.2495 0.1735 6.9349 298.3 19.0275
8/21/2021 7:44:54 AM 19.025 66.245 0.1734499 6.9461 287.9 19.025
8/21/2021 7:59:54 AM 19.06 66.308 0.1734499 6.9699 283.85 19.06
8/21/2021 8:14:54 AM 19.06 66.308 0.1735 6.9755 280.7 19.06
8/21/2021 8:29:54 AM 19.06 66.308 0.1734499 6.9944 277.15 19.06
8/21/2021 8:44:54 AM 19.06 66.308 0.1734499 6.9944 272.0499 19.06
8/21/2021 8:59:54 AM 19.0075 66.2135 0.1735 7.185499 42.145 19.0075
8/21/2021 9:14:54 AM 18.8675 65.9615 0.17415 7.173599 528.5 18.8675
8/21/2021 9:29:54 AM 18.85 65.93 0.1745 7.173599 519.5 18.85
8/21/2021 9:44:54 AM 18.85 65.93 0.1745 7.179899 520.6499 18.85
8/21/2021 9:59:54 AM 18.85 65.93 0.17485 7.188299 527.9501 18.85
8/21/2021 10:14:54 AM 18.8675 65.9615 0.1748001 7.203699 522.55 18.8675
8/21/2021 10:29:54 AM 18.865 65.957 0.17485 7.188999 519.9501 18.865
8/21/2021 10:44:54 AM 18.8825 65.9885 0.1748001 7.193899 521.3501 18.8825
8/21/2021 10:59:54 AM 18.9 66.02 0.1748001 7.195299 523.8 18.9
8/21/2021 11:14:54 AM 18.9025 66.0245 0.17485 7.202299 526.15 18.9025
8/21/2021 11:29:54 AM 18.9025 66.0245 0.1748001 7.203699 528.9 18.9025
8/21/2021 11:44:53 AM 18.935 66.083 0.17515 7.205099 526.9 18.935
8/21/2021 11:59:54 AM 18.9525 66.1145 0.17555 7.202299 529.2 18.9525
8/21/2021 12:14:53 PM 18.9875 66.1775 0.1755 7.208599 531.6 18.9875
8/21/2021 12:29:53 PM 19.0025 66.2045 0.1759 7.207899 523.3 19.0025
8/21/2021 12:44:54 PM 19.055 66.299 0.1762 7.214199 527.2499 19.055
8/21/2021 12:59:53 PM 19.0725 66.3305 0.1765 7.217699 517.0499 19.0725
8/21/2021 1:14:54 PM 19.1075 66.3935 0.1769 7.218399 522.6499 19.1075
8/21/2021 1:29:53 PM 19.1425 66.4565 0.1776 7.211399 518.1 19.1425
8/21/2021 1:44:54 PM 19.175 66.515 0.1779 7.222601 516.8 19.175
8/21/2021 1:59:53 PM 19.215 66.587 0.1782499 7.227501 512.9501 19.215
8/21/2021 2:14:54 PM 19.2625 66.6725 0.1786 7.233801 518.1 19.2625
8/21/2021 2:29:54 PM 19.3175 66.7715 0.1789501 7.233101 513 19.3175
8/21/2021 2:44:54 PM 19.3675 66.8615 0.1793001 7.238001 504.2499 19.3675
8/21/2021 2:59:54 PM 19.4 66.92 0.1796499 7.237301 505.7 19.4
8/21/2021 3:14:54 PM 19.4375 66.9875 0.1799501 7.240801 504.5 19.4375
8/21/2021 3:29:54 PM 19.47 67.046 0.1799501 7.247101 506.2 19.47
8/21/2021 3:44:54 PM 19.5075 67.1135 0.1803 7.240801 507.3501 19.5075
8/21/2021 3:59:54 PM 19.5575 67.2035 0.1806499 7.245001 501.4 19.5575
8/21/2021 4:14:54 PM 19.5925 67.2665 0.181 7.256901 500.45 19.5925
8/21/2021 4:29:54 PM 19.6275 67.3295 0.181 7.254801 505.55 19.6275
8/21/2021 4:44:54 PM 19.6425 67.3565 0.1813501 7.261101 514 19.6425
8/21/2021 4:59:54 PM 19.6775 67.4195 0.1814 7.260401 526.7501 19.6775
8/21/2021 5:14:54 PM 19.695 67.451 0.1813 7.261101 525.6 19.695
8/21/2021 5:29:54 PM 19.7125 67.4825 0.1814 7.261101 542.3 19.7125
8/21/2021 5:59:54 PM 19.695 67.451 0.1810499 7.270201 557.3501 19.695
8/21/2021 6:14:54 PM 19.6925 67.4465 0.1806499 7.270901 573.6001 19.6925
8/21/2021 6:29:54 PM 19.6975 67.4555 0.18 7.264601 586.1501 19.6975
8/21/2021 6:44:54 PM 19.695 67.451 0.1796499 7.272301 605.1501 19.695
8/21/2021 6:59:54 PM 19.7125 67.4825 0.1789501 7.264601 634.7 19.7125
8/21/2021 7:14:54 PM 19.715 67.487 0.1782499 7.266701 656.8999 19.715
8/21/2021 7:29:54 PM 19.6975 67.4555 0.17755 7.265301 692.3501 19.6975
8/21/2021 7:59:54 PM 19.6275 67.3295 0.1758001 7.261801 729.5 19.6275
8/21/2021 8:14:54 PM 19.61 67.298 0.17515 7.266701 736.3999 19.61
8/21/2021 8:29:54 PM 19.575 67.235 0.1748001 7.256901 747.25 19.575
8/21/2021 8:44:54 PM 19.5575 67.2035 0.17445 7.252001 755.6499 19.5575
8/21/2021 8:59:53 PM 19.5425 67.1765 0.1742 7.256201 777 19.5425
8/21/2021 9:14:54 PM 19.5225 67.1405 0.17415 7.251301 774.9502 19.5225
8/21/2021 9:29:53 PM 19.4725 67.0505 0.1741 7.252701 767.3501 19.4725
8/21/2021 9:44:53 PM 19.44 66.992 0.17445 7.247101 754.25 19.44
8/21/2021 9:59:54 PM 19.42 66.956 0.1748001 7.247101 751.5 19.42
8/21/2021 10:14:54 PM 19.4025 66.9245 0.1752 7.252701 737.55 19.4025
8/21/2021 10:29:53 PM 19.3875 66.8975 0.17515 7.245701 731.6001 19.3875
8/21/2021 10:59:54 PM 19.3325 66.7985 0.1762 7.247101 707.3 19.3325
8/21/2021 11:14:54 PM 19.3175 66.7715 0.17655 7.246401 693.8 19.3175
8/21/2021 11:29:54 PM 19.3 66.74 0.1772499 7.245701 679.8999 19.3
8/21/2021 11:44:54 PM 19.2675 66.6815 0.1776 7.252001 662.8 19.2675
8/22/2021 12:14:54 AM 19.2475 66.6455 0.1783001 7.247101 663.6499 19.2475
8/22/2021 12:29:54 AM 19.2325 66.6185 0.1783001 7.246401 650.1001 19.2325
8/22/2021 12:44:54 AM 19.2325 66.6185 0.1786 7.252701 633.75 19.2325
8/22/2021 12:59:54 AM 19.215 66.587 0.179 7.251301 623.3999 19.215
8/22/2021 1:14:54 AM 19.18 66.524 0.1793001 7.251301 606.6499 19.18
8/22/2021 1:29:54 AM 19.1625 66.4925 0.1793501 7.251301 597.3501 19.1625
8/22/2021 1:44:54 AM 19.18 66.524 0.1797 7.252001 590.6499 19.18
8/22/2021 1:59:54 AM 19.1825 66.5285 0.1797 7.251301 588.7 19.1825
8/22/2021 2:14:54 AM 19.18 66.524 0.1796499 7.252001 573.75 19.18
8/22/2021 2:29:54 AM 19.165 66.497 0.1800499 7.252001 578.2 19.165
8/22/2021 2:44:54 AM 19.1475 66.4655 0.1803501 7.246401 566.3999 19.1475
8/22/2021 2:59:54 AM 19.1475 66.4655 0.1807501 7.253401 558.3999 19.1475
8/22/2021 3:14:54 AM 19.1275 66.4295 0.1806999 7.248501 553.8999 19.1275
8/22/2021 3:29:54 AM 19.13 66.434 0.1807501 7.252001 551.55 19.13
8/22/2021 3:44:54 AM 19.11 66.398 0.1807501 7.253401 540.45 19.11
8/22/2021 3:59:54 AM 19.0925 66.3665 0.1811 7.252001 538 19.0925
8/22/2021 4:14:54 AM 19.0775 66.3395 0.1810499 7.252701 537.9 19.0775
8/22/2021 4:29:54 AM 19.0575 66.3035 0.1814 7.249201 533.2 19.0575
8/22/2021 4:44:54 AM 19.0425 66.2765 0.1818001 7.246401 526.9501 19.0425
8/22/2021 4:59:54 AM 19.025 66.245 0.1821 7.249201 529 19.025
8/22/2021 5:29:54 AM 19.01 66.218 0.1828001 7.242201 516.1 19.01
8/22/2021 5:44:54 AM 18.9925 66.1865 0.1828001 7.243601 520.9501 18.9925
8/22/2021 5:59:54 AM 18.99 66.182 0.18315 7.244301 518.9 18.99
8/22/2021 6:14:54 AM 18.9725 66.1505 0.18315 7.248501 511.3 18.9725
8/22/2021 6:29:54 AM 18.955 66.119 0.1835 7.242201 509.2499 18.955
8/22/2021 6:44:54 AM 18.955 66.119 0.1835 7.243601 515.3501 18.955
8/22/2021 6:59:54 AM 18.9575 66.1235 0.1835 7.242201 518.1 18.9575
8/22/2021 7:14:54 AM 18.955 66.119 0.18355 7.238001 505.4 18.955
8/22/2021 7:29:54 AM 18.955 66.119 0.1838 7.242901 513.2499 18.955
8/22/2021 7:59:54 AM 19.0075 66.2135 0.18385 7.242901 508.45 19.0075
8/22/2021 8:14:54 AM 19.025 66.245 0.18385 7.247101 510.9 19.025
8/22/2021 8:29:54 AM 19.0225 66.24049 0.18385 7.243601 505.6 19.0225
8/22/2021 8:44:54 AM 19.0425 66.2765 0.18385 7.247101 514.9501 19.0425
8/22/2021 8:59:54 AM 19.0425 66.2765 0.1838 7.242201 511.5 19.0425
8/22/2021 9:14:54 AM 19.0575 66.3035 0.18385 7.247801 499.6499 19.0575
8/22/2021 9:29:54 AM 19.09 66.362 0.18415 7.246401 510.2499 19.09
8/22/2021 9:44:54 AM 19.11 66.398 0.1845 7.245701 506.9501 19.11
8/22/2021 9:59:54 AM 19.16 66.488 0.18455 7.245701 499.8 19.16
8/22/2021 10:14:54 AM 19.195 66.551 0.18485 7.246401 504.3501 19.195
8/22/2021 10:29:54 AM 19.2125 66.5825 0.1851999 7.247801 501.5 19.2125
8/22/2021 10:44:54 AM 19.23 66.614 0.18555 7.252701 491.3 19.23
8/22/2021 10:59:54 AM 19.2625 66.6725 0.1855 7.251301 497.0499 19.2625
8/22/2021 11:14:54 AM 19.3175 66.7715 0.1859 7.250601 489.6 19.3175
8/22/2021 11:29:54 AM 19.35 66.83 0.1859 7.250601 494.2499 19.35
8/22/2021 11:44:54 AM 19.385 66.893 0.1859 7.251301 494.55 19.385
8/22/2021 12:14:54 PM 19.455 67.019 0.18585 7.255501 501.7 19.455
8/22/2021 12:29:54 PM 19.4725 67.0505 0.18585 7.261801 497.2 19.4725
8/22/2021 12:44:54 PM 19.49 67.082 0.18585 7.256201 504.15 19.49
8/22/2021 12:59:54 PM 19.49 67.082 0.1862499 7.255501 497.2499 19.49
8/22/2021 1:14:54 PM 19.5075 67.1135 0.1862499 7.261801 499.3501 19.5075
8/22/2021 1:29:54 PM 19.505 67.109 0.18615 7.256901 495.4 19.505
8/22/2021 1:44:54 PM 19.525 67.145 0.1861999 7.260401 501.0499 19.525
8/22/2021 1:59:54 PM 19.5575 67.2035 0.1861999 7.261801 500.6499 19.5575
8/22/2021 2:14:54 PM 19.5575 67.2035 0.1861999 7.260401 506.15 19.5575
8/22/2021 2:29:54 PM 19.575 67.235 0.1861999 7.260401 506.7501 19.575
8/22/2021 2:44:54 PM 19.59 67.262 0.1861999 7.261101 501.2 19.59
8/22/2021 2:59:54 PM 19.61 67.298 0.1861999 7.254801 499.6499 19.61
8/22/2021 3:14:54 PM 19.6275 67.3295 0.18585 7.261801 499.0499 19.6275
8/22/2021 3:29:53 PM 19.645 67.361 0.18585 7.260401 499.7501 19.645
8/22/2021 3:44:54 PM 19.68 67.424 0.1855 7.256901 496.6 19.68
8/22/2021 3:59:53 PM 19.7125 67.4825 0.18555 7.255501 501.7501 19.7125
8/22/2021 4:14:53 PM 19.7325 67.5185 0.1855 7.254801 500.1 19.7325
8/22/2021 4:29:53 PM 19.765 67.577 0.1855 7.254801 498 19.765
8/22/2021 4:44:54 PM 19.8 67.64 0.18515 7.261801 498.2 19.8
8/22/2021 4:59:53 PM 19.8175 67.6715 0.1855 7.256901 496.85 19.8175
8/22/2021 5:14:53 PM 19.8525 67.7345 0.1855 7.261101 496.85 19.8525
8/22/2021 5:29:54 PM 19.8875 67.7975 0.1858 7.260401 494.1 19.8875
8/22/2021 5:44:54 PM 19.92 67.856 0.18585 7.259701 495.7501 19.92
8/22/2021 5:59:54 PM 19.9375 67.8875 0.18615 7.261101 492.7 19.9375
8/22/2021 6:14:54 PM 19.955 67.919 0.18615 7.261101 488.9501 19.955
8/22/2021 6:29:54 PM 19.9575 67.9235 0.1861999 7.259701 458.0499 19.9575
8/22/2021 6:44:54 PM 19.955 67.919 0.1865501 7.266701 459.45 19.955
8/22/2021 6:59:54 PM 19.9375 67.8875 0.1865501 7.265301 457.9501 19.9375
8/22/2021 7:14:54 PM 19.9225 67.8605 0.1869 7.266701 452.2 19.9225
8/22/2021 7:29:54 PM 19.9025 67.8245 0.1872499 7.266701 460 19.9025
8/22/2021 7:59:55 PM 19.8725 67.7705 0.1879501 7.266001 459.8 19.8725
8/22/2021 8:14:54 PM 19.87 67.766 0.1879501 7.265301 462.6 19.87
8/22/2021 8:44:54 PM 19.8525 67.7345 0.1879501 7.271601 452.7501 19.8525
8/22/2021 8:59:54 PM 19.855 67.739 0.1879501 7.269501 459.4 19.855
8/22/2021 9:14:54 PM 19.855 67.739 0.1879501 7.270201 454.15 19.855
8/22/2021 9:29:54 PM 19.84 67.712 0.1883501 7.270201 460.4 19.84
8/22/2021 9:44:54 PM 19.8375 67.7075 0.1883 7.271601 457.1 19.8375
8/22/2021 9:59:54 PM 19.835 67.703 0.1886 7.270901 448.2499 19.835
8/22/2021 10:14:54 PM 19.82 67.676 0.1889501 7.269501 449.7501 19.82
8/22/2021 10:29:54 PM 19.82 67.676 0.1893501 7.270901 451.55 19.82
8/22/2021 10:59:54 PM 19.8025 67.6445 0.1896499 7.267401 452.9 19.8025
8/22/2021 11:14:54 PM 19.8025 67.6445 0.19 7.264601 451.4 19.8025
8/22/2021 11:29:54 PM 19.7875 67.6175 0.1900499 7.265301 452.55 19.7875
8/22/2021 11:44:54 PM 19.7525 67.5545 0.1900499 7.270901 456.7 19.7525
8/23/2021 12:14:54 AM 19.7175 67.4915 0.1900499 7.266001 467.1 19.7175
8/23/2021 12:29:54 AM 19.7 67.46 0.19 7.266001 495.2 19.7
8/23/2021 12:44:54 AM 19.645 67.361 0.1900499 7.270901 494.15 19.645
8/23/2021 12:59:53 AM 19.595 67.271 0.19 7.275801 484.1 19.595
8/23/2021 1:14:53 AM 19.56 67.208 0.1900499 7.270901 472.7501 19.56
8/23/2021 1:29:53 AM 19.5275 67.1495 0.19 7.270201 460.9 19.5275
8/23/2021 1:44:53 AM 19.49 67.082 0.1896499 7.272301 469.9501 19.49
8/23/2021 1:59:54 AM 19.4575 67.0235 0.1896999 7.270901 470.55 19.4575
8/23/2021 2:14:54 AM 19.4575 67.0235 0.1896999 7.271601 469.4 19.4575
8/23/2021 2:29:54 AM 19.44 66.992 0.1893501 7.270901 468.1 19.44
8/23/2021 2:44:54 AM 19.405 66.929 0.1893501 7.270201 470.6499 19.405
8/23/2021 2:59:54 AM 19.3875 66.8975 0.189 7.270201 470.2 19.3875
8/23/2021 3:14:54 AM 19.37 66.866 0.189 7.273001 473.3501 19.37
8/23/2021 3:29:54 AM 19.3525 66.8345 0.1889501 7.273001 470.2 19.3525
8/23/2021 3:44:54 AM 19.335 66.80299 0.189 7.272301 473.6499 19.335
8/23/2021 3:59:54 AM 19.3175 66.7715 0.189 7.272301 471.2499 19.3175
8/23/2021 4:14:54 AM 19.32 66.776 0.1886499 7.270901 470.55 19.32
8/23/2021 4:29:54 AM 19.32 66.776 0.1886499 7.266701 469.9501 19.32
8/23/2021 4:44:54 AM 19.2825 66.7085 0.1883 7.273001 469.3 19.2825
8/23/2021 4:59:54 AM 19.285 66.713 0.1883501 7.270901 471.7 19.285
8/23/2021 5:14:54 AM 19.2675 66.6815 0.1883 7.271601 468.55 19.2675
8/23/2021 5:44:54 AM 19.2675 66.6815 0.188 7.271601 466.5 19.2675
8/23/2021 5:59:54 AM 19.25 66.65 0.188 7.271601 465.7 19.25
8/23/2021 6:14:54 AM 19.25 66.65 0.1879501 7.270901 464.2499 19.25
8/23/2021 6:29:54 AM 19.2325 66.6185 0.188 7.267401 464 19.2325
8/23/2021 6:44:54 AM 19.215 66.587 0.1876499 7.267401 466.8 19.215
8/23/2021 6:59:54 AM 19.1975 66.5555 0.1876499 7.266701 466.55 19.1975
8/23/2021 7:14:54 AM 19.1975 66.5555 0.1876 7.268101 468.85 19.1975
8/23/2021 7:29:54 AM 19.1975 66.5555 0.1873001 7.266701 465.1 19.1975
8/23/2021 7:44:54 AM 19.215 66.587 0.1873001 7.266701 467.0499 19.215
8/23/2021 7:59:55 AM 19.2325 66.6185 0.1873001 7.266701 479.15 19.2325
8/23/2021 8:14:55 AM 19.2325 66.6185 0.1872499 7.266001 470.6499 19.2325
8/23/2021 8:29:54 AM 19.2475 66.6455 0.1876499 7.267401 469.45 19.2475
8/23/2021 8:44:54 AM 19.25 66.65 0.1876 7.263201 476.5 19.25
8/23/2021 8:59:54 AM 19.285 66.713 0.188 7.266701 472.6499 19.285
8/23/2021 9:14:54 AM 19.3175 66.7715 0.1879501 7.262501 469.55 19.3175
8/23/2021 9:29:54 AM 19.3525 66.8345 0.188 7.261101 469.55 19.3525
8/23/2021 9:44:54 AM 19.3675 66.8615 0.1879501 7.266701 470.2499 19.3675
8/23/2021 9:59:54 AM 19.4025 66.9245 0.1883 7.261101 463.3501 19.4025
8/23/2021 10:14:54 AM 19.42 66.956 0.1886 7.261101 464.7 19.42
8/23/2021 10:29:54 AM 19.4375 66.9875 0.1886499 7.266001 465 19.4375
8/23/2021 10:44:54 AM 19.4725 67.0505 0.1886499 7.266001 464.7 19.4725
8/23/2021 10:59:54 AM 19.4925 67.0865 0.1882499 7.260401 462.8 19.4925
8/23/2021 11:14:55 AM 19.5225 67.1405 0.1882499 7.266001 456.6499 19.5225
8/23/2021 11:29:54 AM 19.54 67.172 0.1883 7.266001 455.6499 19.54
8/23/2021 11:44:54 AM 19.5425 67.1765 0.1882499 7.266701 451.8 19.5425
8/23/2021 11:59:55 AM 19.505 67.109 0.1882499 7.266701 448.55 19.505
8/23/2021 12:14:54 PM 19.54 67.172 0.1879501 7.266001 447.3501 19.54
8/23/2021 12:29:54 PM 19.56 67.208 0.1879 7.266001 447.2499 19.56
8/23/2021 12:44:54 PM 19.6075 67.2935 0.1876 7.267401 440.6 19.6075
8/23/2021 12:59:54 PM 19.6275 67.3295 0.1872499 7.265301 437.1 19.6275
8/23/2021 1:14:54 PM 19.6625 67.3925 0.1872499 7.266001 438.3 19.6625
8/23/2021 1:29:54 PM 19.7125 67.4825 0.1872499 7.266701 434.1 19.7125
8/23/2021 1:44:54 PM 19.7675 67.5815 0.1872499 7.260401 413.6 19.7675
8/23/2021 1:59:54 PM 19.8025 67.6445 0.1875501 7.266001 407.3501 19.8025
8/23/2021 2:14:55 PM 19.8875 67.7975 0.1876 7.264601 408.7 19.8875
8/23/2021 2:29:55 PM 19.9225 67.8605 0.1876 7.264601 405.6499 19.9225
8/23/2021 2:44:55 PM 19.9575 67.9235 0.1875501 7.266001 406 19.9575
8/23/2021 2:59:54 PM 19.975 67.955 0.1876 7.265301 411.2 19.975
8/23/2021 3:14:54 PM 20.01 68.018 0.1875501 7.265301 410.85 20.01
8/23/2021 3:29:54 PM 20.025 68.045 0.1879 7.264601 407.3 20.025
8/23/2021 3:44:54 PM 20.0425 68.0765 0.1879 7.269501 413.5 20.0425
8/23/2021 3:59:54 PM 20.06 68.108 0.1882499 7.270201 407.0499 20.06
8/23/2021 4:14:54 PM 20.06 68.108 0.1883 7.269501 413.2 20.06
8/23/2021 4:29:54 PM 20.0775 68.1395 0.1882499 7.270901 414.55 20.0775
8/23/2021 4:44:54 PM 20.095 68.171 0.1879501 7.270901 411.4 20.095
8/23/2021 4:59:54 PM 20.115 68.207 0.1879501 7.273701 412.5 20.115
8/23/2021 5:14:54 PM 20.13 68.234 0.1879 7.270201 425.3501 20.13
8/23/2021 5:29:54 PM 20.1825 68.3285 0.1879 7.275801 452.0499 20.1825
8/23/2021 5:44:54 PM 20.2325 68.4185 0.1879 7.275101 432.3 20.2325
8/23/2021 5:59:54 PM 20.2675 68.4815 0.1879 7.275801 426.5 20.2675
8/23/2021 6:14:54 PM 20.285 68.513 0.1885501 7.278601 425.7501 20.285
8/23/2021 6:29:54 PM 20.3025 68.5445 0.189 7.280001 422.55 20.3025
8/23/2021 6:44:54 PM 20.285 68.513 0.1889501 7.283501 417.2499 20.285
8/23/2021 6:59:54 PM 20.25 68.45 0.189 7.280001 413.6 20.25
8/23/2021 7:14:54 PM 20.1975 68.3555 0.1893 7.284901 412.2 20.1975
8/23/2021 7:44:54 PM 20.165 68.297 0.1903501 7.284901 406.6499 20.165
8/23/2021 7:59:54 PM 20.165 68.297 0.1910499 7.284201 402.55 20.165
8/23/2021 8:14:55 PM 20.185 68.333 0.1917501 7.284201 402.85 20.185
8/23/2021 8:29:54 PM 20.165 68.297 0.19245 7.286301 401 20.165
8/23/2021 8:44:55 PM 20.1675 68.3015 0.19315 7.284901 396.2 20.1675
8/23/2021 8:59:54 PM 20.165 68.297 0.1938 7.286301 399.0499 20.165
8/23/2021 9:14:55 PM 20.1675 68.3015 0.19415 7.284201 397.3 20.1675
8/23/2021 9:29:54 PM 20.165 68.297 0.1945501 7.289801 389.3 20.165
8/23/2021 9:44:54 PM 20.1825 68.3285 0.19485 7.291201 388.2 20.1825
8/23/2021 9:59:54 PM 20.1675 68.3015 0.1952 7.289101 389.2499 20.1675
8/23/2021 10:29:54 PM 20.165 68.297 0.1959 7.291201 385.8 20.165
8/23/2021 10:44:55 PM 20.15 68.27 0.1962499 7.294001 394.1 20.15
8/23/2021 10:59:55 PM 20.1325 68.2385 0.1966 7.296801 383.85 20.1325
8/23/2021 11:14:55 PM 20.1175 68.2115 0.1973 7.295401 382.8 20.1175
8/23/2021 11:29:55 PM 20.1 68.18 0.1980499 7.295401 382.3 20.1
8/23/2021 11:44:55 PM 20.08 68.144 0.1986499 7.300301 379.6 20.08
8/24/2021 12:14:55 AM 20.0625 68.1125 0.1994 7.301001 375.7 20.0625
8/24/2021 12:29:55 AM 20.03 68.054 0.2000499 7.300301 377.9501 20.03
8/24/2021 12:44:54 AM 20.0125 68.0225 0.2004 7.307301 370.5 20.0125
8/24/2021 12:59:54 AM 20.0125 68.0225 0.2008 7.305201 373.3501 20.0125
8/24/2021 1:14:54 AM 19.995 67.991 0.2015 7.311501 367.1 19.995
8/24/2021 1:29:55 AM 19.9775 67.9595 0.20215 7.312201 367.3501 19.9775
8/24/2021 1:44:55 AM 19.96 67.92799 0.20285 7.311501 363.6499 19.96
8/24/2021 1:59:55 AM 19.96 67.92799 0.2032 7.316401 364.4 19.96
8/24/2021 2:14:55 AM 19.9775 67.9595 0.2035501 7.316401 358.1 19.9775
8/24/2021 2:29:54 AM 19.96 67.92799 0.20385 7.317101 352.55 19.96
8/24/2021 2:44:55 AM 19.96 67.92799 0.2042499 7.321301 350.8 19.96
8/24/2021 2:59:55 AM 19.9625 67.9325 0.2049501 7.319201 351.15 19.9625
8/24/2021 3:14:55 AM 19.945 67.901 0.2052499 7.3269 346.3 19.945
8/24/2021 3:29:54 AM 19.925 67.865 0.2059501 7.3241 346.6499 19.925
8/24/2021 3:44:54 AM 19.91 67.838 0.2066 7.3255 338.9501 19.91
8/24/2021 3:59:54 AM 19.8925 67.8065 0.2073501 7.3255 334.55 19.8925
8/24/2021 4:14:54 AM 19.8725 67.7705 0.2084 7.3269 336.2499 19.8725
8/24/2021 4:29:54 AM 19.8575 67.7435 0.2090499 7.3241 331.6499 19.8575
8/24/2021 4:44:54 AM 19.8225 67.6805 0.2100499 7.3304 332.0499 19.8225
8/24/2021 4:59:54 AM 19.805 67.649 0.2108001 7.3304 331 19.805
8/24/2021 5:14:54 AM 19.7875 67.6175 0.2115 7.3304 327.9501 19.7875
8/24/2021 5:29:54 AM 19.7725 67.5905 0.2122 7.3304 326.9 19.7725
8/24/2021 5:44:54 AM 19.755 67.559 0.2129 7.3346 323.7 19.755
8/24/2021 5:59:54 AM 19.75 67.55 0.2132 7.3353 319.2 19.75
8/24/2021 6:14:54 AM 19.735 67.523 0.2136 7.3367 320.6499 19.735
8/24/2021 6:29:54 AM 19.72 67.496 0.2139501 7.3353 316.0499 19.72
8/24/2021 6:44:54 AM 19.7 67.46 0.2141999 7.3409 321.7 19.7
8/24/2021 6:59:54 AM 19.685 67.433 0.2142499 7.336 320.9 19.685
8/24/2021 7:14:54 AM 19.6675 67.4015 0.2143001 7.336 324.1 19.6675
8/24/2021 7:29:54 AM 19.6675 67.4015 0.2139 7.3353 326.1 19.6675
8/24/2021 7:44:54 AM 19.665 67.397 0.2139501 7.3367 322.7501 19.665
8/24/2021 8:14:55 AM 19.7175 67.4915 0.2132 7.336 326.1 19.7175
8/24/2021 8:29:55 AM 19.735 67.523 0.2129 7.336 325.85 19.735
8/24/2021 8:59:55 AM 19.785 67.613 0.2125 7.3409 324.3 19.785
8/24/2021 9:14:54 AM 19.8025 67.6445 0.2125 7.3381 325.7 19.8025
8/24/2021 9:29:54 AM 19.8175 67.6715 0.2125 7.3388 326.9 19.8175
8/24/2021 9:44:54 AM 19.855 67.739 0.2125 7.3374 330.6499 19.855
8/24/2021 9:59:54 AM 19.87 67.766 0.21215 7.3395 322.2 19.87
8/24/2021 10:29:54 AM 17.7525 63.9545 0.3929501 7.201599 193.55 17.7525
8/24/2021 10:44:54 AM 17.805 64.049 0.384 7.202299 195.55 17.805
8/24/2021 10:59:54 AM 18.19 64.742 0.3463 7.207199 225.7501 18.19
8/24/2021 11:14:54 AM 18.3625 65.0525 0.3449501 7.218399 210.7 18.3625
8/24/2021 11:29:54 AM 18.57 65.426 0.3442499 7.216999 202.45 18.57
8/24/2021 11:44:54 AM 18.9 66.02 0.3449501 7.214199 4.309998 18.9
8/24/2021 11:59:54 AM 19.49 67.082 0.3454 7.198799 3.8125 19.49
8/24/2021 12:14:54 PM 20.6025 69.0845 0.005099976 7.163799 3.870003 20.6025
8/24/2021 12:29:54 PM 21.7825 71.2085 0.004699951 7.150499 4.067497 21.7825
8/24/2021 12:44:54 PM 22.425 72.365 0.004400024 7.130199 4.292503 22.425
8/24/2021 12:59:54 PM 22.8225 73.0805 0.004400024 7.1127 4.639999 22.8225
8/24/2021 1:14:54 PM 23.1025 73.5845 0.004400024 7.0917 5 23.1025
8/24/2021 1:29:54 PM 19.3675 66.8615 0.3335 7.216999 257 19.3675
8/24/2021 1:44:54 PM 17.685 63.833 0.3041 6.9545 166.3 17.685
8/24/2021 1:59:54 PM 17.1475 62.8655 0.3024 6.9111 146.8 17.1475
8/24/2021 2:14:54 PM 17.32 63.176 0.3086 6.9055 155.9 17.32
8/24/2021 2:44:54 PM 17.6325 63.7385 0.3922499 7.0168 153.45 17.6325
8/24/2021 2:59:54 PM 17.58 63.644 0.3926 7.0119 151.4 17.58
8/24/2021 3:14:54 PM 17.37 63.266 0.4282499 6.9965 133 17.37
8/24/2021 3:29:54 PM 17.2325 63.0185 0.4492499 6.9923 120.6 17.2325
8/24/2021 3:44:54 PM 17.1275 62.8295 0.46555 6.9881 111.85 17.1275
8/24/2021 3:59:54 PM 17.125 62.825 0.4683501 6.9881 115.3 17.125
8/24/2021 4:29:54 PM 17.1975 62.9555 0.4638 6.9972 115.6499 17.1975
8/24/2021 4:44:54 PM 17.2475 63.0455 0.4586499 7.0021 117.45 17.2475
8/24/2021 4:59:54 PM 17.2825 63.1085 0.4593501 7.0063 121.2 17.2825
8/24/2021 5:14:55 PM 17.265 63.077 0.469 7.0021 112.8 17.265
8/24/2021 5:29:55 PM 17.23 63.014 0.4704 7.0028 111.7 17.23
8/24/2021 5:44:55 PM 17.1625 62.8925 0.4735501 7.0021 108.85 17.1625
8/24/2021 5:59:55 PM 17.125 62.825 0.4687 7.0077 111.15 17.125
8/24/2021 6:14:54 PM 17.125 62.825 0.4696999 7.0063 110.8 17.125
8/24/2021 6:29:55 PM 17.1275 62.8295 0.4697501 7.0063 110.4 17.1275
8/24/2021 6:44:55 PM 17.1075 62.7935 0.4717501 7.0077 105.9 17.1075
8/24/2021 6:59:54 PM 17.055 62.699 0.4700499 7.0077 108.7 17.055
8/24/2021 7:14:54 PM 17.005 62.609 0.4686499 7.0105 109.4 17.005
8/24/2021 7:29:54 PM 16.9525 62.5145 0.4659 7.0182 109.7501 16.9525
8/24/2021 7:44:55 PM 16.885 62.393 0.46555 7.0161 112.2499 16.885
8/24/2021 7:59:54 PM 16.8325 62.2985 0.4638 7.0217 111.9 16.8325
8/24/2021 8:14:54 PM 16.765 62.177 0.4635 7.021 114.2 16.765
8/24/2021 8:29:54 PM 16.71 62.078 0.4652499 7.028 112.45 16.71
8/24/2021 8:44:54 PM 16.6775 62.0195 0.4652499 7.0273 111.7501 16.6775
8/24/2021 8:59:54 PM 16.645 61.961 0.4639 7.0315 114.3 16.645
8/24/2021 9:14:54 PM 16.625 61.925 0.4646 7.0315 111.9501 16.625
8/24/2021 9:29:54 PM 16.6275 61.9295 0.4646 7.0371 112.2 16.6275
8/24/2021 9:44:54 PM 16.6125 61.9025 0.4618 7.0413 114 16.6125
8/24/2021 9:59:54 PM 16.595 61.871 0.46115 7.0406 114.3 16.595
8/24/2021 10:14:54 PM 16.5925 61.8665 0.4608001 7.0434 114.3 16.5925
8/24/2021 10:29:54 PM 16.5775 61.8395 0.4587501 7.0462 115.0499 16.5775
8/24/2021 10:44:54 PM 16.5775 61.8395 0.4580499 7.0469 115.6499 16.5775
8/24/2021 10:59:54 PM 16.5575 61.8035 0.4580499 7.0532 115.4 16.5575
8/24/2021 11:14:54 PM 16.56 61.808 0.4556499 7.0525 116.3 16.56
8/24/2021 11:29:54 PM 16.5425 61.7765 0.4525 7.0525 119.1 16.5425
8/24/2021 11:44:54 PM 16.5075 61.7135 0.45215 7.0574 118.0499 16.5075
8/25/2021 12:14:54 AM 16.5075 61.7135 0.45285 7.0574 116.4 16.5075
8/25/2021 12:29:54 AM 16.5075 61.7135 0.4504499 7.0588 119.85 16.5075
8/25/2021 12:44:54 AM 16.51 61.718 0.4515 7.0567 117.45 16.51
8/25/2021 12:59:54 AM 16.5275 61.7495 0.4504499 7.0581 118.0499 16.5275
8/25/2021 1:14:54 AM 16.5275 61.7495 0.4504499 7.0588 116.8 16.5275
8/25/2021 1:29:54 AM 16.5075 61.7135 0.45085 7.0581 117.1 16.5075
8/25/2021 1:44:54 AM 16.51 61.718 0.45145 7.0567 116.3501 16.51
8/25/2021 1:59:54 AM 16.5075 61.7135 0.4508001 7.0588 116.15 16.5075
8/25/2021 2:14:54 AM 16.5075 61.7135 0.4515 7.0588 116.0499 16.5075
8/25/2021 2:29:54 AM 16.51 61.718 0.45115 7.0595 115.7501 16.51
8/25/2021 2:44:54 AM 16.495 61.691 0.4515 7.0588 116 16.495
8/25/2021 2:59:54 AM 16.495 61.691 0.4515 7.0574 115.0499 16.495
8/25/2021 3:14:54 AM 16.495 61.691 0.4519 7.0525 115.7501 16.495
8/25/2021 3:29:54 AM 16.4925 61.6865 0.45185 7.0539 114.0499 16.4925
8/25/2021 3:44:54 AM 16.4925 61.6865 0.45185 7.0525 115.0499 16.4925
8/25/2021 3:59:54 AM 16.51 61.718 0.4509 7.0546 112.9 16.51
8/25/2021 4:14:54 AM 16.515 61.727 0.4511999 7.0476 115.7501 16.515
8/25/2021 4:44:54 AM 16.51 61.718 0.45015 7.0497 114.3 16.51
8/25/2021 4:59:54 AM 16.5125 61.7225 0.45015 7.0434 115.7 16.5125
8/25/2021 5:29:54 AM 16.51 61.718 0.4491 7.0434 112.9501 16.51
8/25/2021 5:44:54 AM 16.5125 61.7225 0.4498 7.0427 115.0499 16.5125
8/25/2021 5:59:54 AM 16.5125 61.7225 0.4498 7.0448 114.1 16.5125
8/25/2021 6:14:54 AM 16.5125 61.7225 0.4487501 7.0441 113.6499 16.5125
8/25/2021 6:29:54 AM 16.4975 61.6955 0.4488001 7.0427 113.6499 16.4975
8/25/2021 6:44:53 AM 16.495 61.691 0.44915 7.0441 112.2499 16.495
8/25/2021 6:59:53 AM 16.495 61.691 0.4477 7.0399 113.55 16.495
8/25/2021 7:14:53 AM 16.5125 61.7225 0.4484 7.0378 111.2 16.5125
8/25/2021 7:29:53 AM 16.5125 61.7225 0.4484 7.0399 111.2 16.5125
8/25/2021 7:44:53 AM 16.53 61.754 0.4480499 7.0413 112.9501 16.53
8/25/2021 7:59:53 AM 16.53 61.754 0.4474 7.0392 110.5 16.53
8/25/2021 8:14:53 AM 16.53 61.754 0.4470499 7.0406 111.6499 16.53
8/25/2021 8:29:54 AM 16.5475 61.7855 0.4477501 7.0364 112.55 16.5475
8/25/2021 8:44:54 AM 16.565 61.817 0.4466999 7.0336 112.6499 16.565
8/25/2021 8:59:53 AM 16.6175 61.9115 0.4453501 7.0336 113.6 16.6175
8/25/2021 9:14:54 AM 16.6675 62.0015 0.4449501 7.035 113.3 16.6675
8/25/2021 9:29:54 AM 16.7375 62.1275 0.44385 7.0343 110.6 16.7375
8/25/2021 9:44:54 AM 16.77 62.186 0.4425501 7.0336 111.9 16.77
8/25/2021 9:59:54 AM 16.825 62.285 0.44215 7.0294 110.3 16.825
8/25/2021 10:14:54 AM 16.8925 62.4065 0.4418001 7.035 109.55 16.8925
8/25/2021 10:29:54 AM 16.925 62.465 0.4403501 7.0301 109.5 16.925
8/25/2021 10:44:54 AM 16.9575 62.5235 0.4383501 7.028 111.8 16.9575
8/25/2021 10:59:54 AM 17.0125 62.6225 0.438 7.028 112.2 17.0125
8/25/2021 11:14:54 AM 17.0625 62.7125 0.4373001 7.028 111.8 17.0625
8/25/2021 11:29:54 AM 17.1125 62.8025 0.4362499 7.0273 112.55 17.1125
8/25/2021 11:44:54 AM 17.15 62.87 0.4359 7.028 110.5 17.15
8/25/2021 12:14:55 PM 17.2 62.96 0.4345 7.0168 132.4 17.2
8/25/2021 12:44:54 PM 17.2675 63.0815 0.43345 7.0175 118.8 17.2675
8/25/2021 12:59:54 PM 17.3025 63.1445 0.4334 7.0119 116.6499 17.3025
8/25/2021 1:14:54 PM 17.285 63.113 0.4330499 7.007 114.6499 17.285
8/25/2021 1:29:54 PM 17.3025 63.1445 0.4292499 7.0035 117.3 17.3025
8/25/2021 1:44:54 PM 16.9025 62.4245 0.4732 7.0028 90.59998 16.9025
8/25/2021 1:59:54 PM 16.415 61.547 0.5367501 7.0112 65.55005 16.415
8/25/2021 2:14:54 PM 16.225 61.205 0.5405501 7.0175 61.84998 16.225
8/25/2021 2:29:54 PM 16.175 61.115 0.52885 7.0168 67.3501 16.175
8/25/2021 2:44:54 PM 16.17 61.106 0.5233001 7.0175 69.19995 16.17
8/25/2021 2:59:54 PM 16.0825 60.9485 0.46345 7.0217 58.6499 16.0825
8/25/2021 3:14:54 PM 20.145 68.261 0.2576999 7.236601 142.3501 20.145
8/25/2021 3:44:54 PM 20.615 69.107 0.255 7.303801 123.6 20.615
8/25/2021 3:59:54 PM 20.89 69.602 0.2567501 7.3423 101.3501 20.89
8/25/2021 4:14:54 PM 21.255 70.259 0.2591 7.3906 77.40002 21.255
8/25/2021 4:29:54 PM 21.7225 71.1005 0.26185 7.4361 84.95007 21.7225
8/25/2021 4:44:54 PM 22.1725 71.9105 0.2632499 7.4648 214.15 22.1725
8/25/2021 4:59:54 PM 22.3975 72.3155 0.2642499 7.4844 164.2 22.3975
8/25/2021 5:14:54 PM 22.5025 72.5045 0.265 7.4921 120.45 22.5025
8/25/2021 5:29:54 PM 22.5575 72.6035 0.2653 7.4984 93 22.5575
8/25/2021 5:44:54 PM 22.555 72.599 0.2660499 7.5033 82 22.555
8/25/2021 5:59:54 PM 22.5725 72.6305 0.2666999 7.5075 75.6499 22.5725
8/25/2021 6:14:54 PM 22.57 72.626 0.2670499 7.504 71.44995 22.57
8/25/2021 6:29:54 PM 22.575 72.635 0.2677501 7.5075 68.80005 22.575
8/25/2021 6:44:54 PM 22.5725 72.6305 0.2680499 7.5089 67.75012 22.5725
8/25/2021 6:59:54 PM 22.5525 72.5945 0.26845 7.5089 65.3501 22.5525
8/25/2021 7:14:54 PM 22.54 72.57201 0.26915 7.5075 64.19995 22.54
8/25/2021 7:29:54 PM 22.505 72.509 0.2695 7.5019 62.5 22.505
8/25/2021 7:44:54 PM 22.4875 72.4775 0.27015 7.5026 62.19995 22.4875
8/25/2021 7:59:54 PM 22.45 72.41 0.2709 7.5026 60.75012 22.45
8/25/2021 8:14:54 PM 22.4175 72.3515 0.2711999 7.5033 60.04993 22.4175
8/25/2021 8:29:54 PM 22.365 72.257 0.2719501 7.5026 60.15002 22.365
8/25/2021 8:44:54 PM 22.3325 72.1985 0.2722499 7.4998 59.09998 22.3325
8/25/2021 8:59:54 PM 22.315 72.167 0.2722499 7.4991 56.19995 22.315
8/25/2021 9:14:54 PM 22.2975 72.1355 0.2726499 7.4977 56.95007 22.2975
8/25/2021 9:29:54 PM 22.2625 72.0725 0.273 7.4942 54.90002 22.2625
8/25/2021 9:44:54 PM 22.2475 72.0455 0.2733001 7.4942 54.5 22.2475
8/25/2021 9:59:54 PM 22.21 71.978 0.2736999 7.4935 54.19995 22.21
8/25/2021 10:14:54 PM 22.1925 71.9465 0.2743501 7.4956 52.75012 22.1925
8/25/2021 10:29:54 PM 22.16 71.888 0.2747501 7.4942 51.3501 22.16
8/25/2021 10:44:54 PM 22.1425 71.8565 0.2750499 7.4928 51.3501 22.1425
8/25/2021 10:59:54 PM 22.1225 71.8205 0.2756999 7.4928 50.6499 22.1225
8/25/2021 11:14:54 PM 22.1075 71.7935 0.2761 7.4949 49.90002 22.1075
8/25/2021 11:29:54 PM 22.09 71.762 0.2764499 7.4949 48.95007 22.09
8/25/2021 11:44:54 PM 22.0725 71.7305 0.2768 7.4893 48.95007 22.0725
8/26/2021 12:14:54 AM 22.04 71.672 0.2775 7.4886 72.95007 22.04
8/26/2021 12:29:54 AM 22.04 71.672 0.2778001 7.4893 70.75012 22.04
8/26/2021 12:44:54 AM 22.0225 71.6405 0.2785501 7.4893 65.44995 22.0225
8/26/2021 12:59:53 AM 22.005 71.609 0.2789 7.4907 61.80005 22.005
8/26/2021 1:14:53 AM 21.9875 71.5775 0.2792 7.49 60.44995 21.9875
8/26/2021 1:29:53 AM 21.97 71.546 0.2799 7.4879 57.69995 21.97
8/26/2021 1:44:53 AM 21.9525 71.5145 0.2802499 7.49 55.15002 21.9525
8/26/2021 1:59:53 AM 21.955 71.519 0.2806 7.4886 53.09998 21.955
8/26/2021 2:14:53 AM 21.935 71.483 0.2809 7.49 52.95007 21.935
8/26/2021 2:29:53 AM 21.9025 71.4245 0.2816499 7.4893 51.75012 21.9025
8/26/2021 2:44:54 AM 21.9025 71.4245 0.2819501 7.4949 50.30005 21.9025
8/26/2021 2:59:53 AM 21.885 71.393 0.2823001 7.49 49.3501 21.885
8/26/2021 3:14:53 AM 21.905 71.429 0.2826999 7.4886 48.59998 21.905
8/26/2021 3:29:53 AM 21.8675 71.3615 0.2834 7.4886 47.95007 21.8675
8/26/2021 3:44:53 AM 21.85 71.33 0.2840499 7.4865 46.90002 21.85
8/26/2021 3:59:53 AM 21.815 71.267 0.2847501 7.4907 47.30005 21.815
8/26/2021 4:14:54 AM 21.7975 71.2355 0.28515 7.4907 46.5 21.7975
8/26/2021 4:29:54 AM 21.765 71.177 0.28585 7.4844 45.90002 21.765
8/26/2021 4:44:54 AM 21.7625 71.1725 0.28585 7.4914 45.80005 21.7625
8/26/2021 4:59:54 AM 21.73 71.114 0.2862 7.4802 48.55005 21.73
8/26/2021 5:14:54 AM 21.715 71.087 0.2865 7.4837 47.55005 21.715
8/26/2021 5:29:54 AM 21.6775 71.0195 0.2869 7.4802 43.30005 21.6775
8/26/2021 5:44:54 AM 21.6425 70.9565 0.2872499 7.4809 42.54 21.6425
8/26/2021 5:59:54 AM 21.595 70.871 0.2876 7.4851 39.625 21.595
8/26/2021 6:14:54 AM 21.5575 70.8035 0.2879501 7.4865 37.63 21.5575
8/26/2021 6:29:54 AM 21.5225 70.74049 0.2879501 7.4865 37.8225 21.5225
8/26/2021 6:44:54 AM 21.5075 70.7135 0.2883 7.4851 38.465 21.5075
8/26/2021 6:59:55 AM 21.47 70.646 0.2886499 7.4858 38.2225 21.47
8/26/2021 7:14:54 AM 21.4375 70.5875 0.2886499 7.4809 37.46 21.4375
8/26/2021 7:29:54 AM 21.42 70.556 0.289 7.483 37.86 21.42
8/26/2021 7:44:54 AM 21.4025 70.5245 0.2889501 7.4872 37.3025 21.4025
8/26/2021 7:59:54 AM 21.385 70.493 0.2889501 7.4816 37.1025 21.385
8/26/2021 8:14:54 AM 21.3675 70.4615 0.2893001 7.4802 36.4675 21.3675
8/26/2021 8:29:54 AM 21.35 70.43 0.2893001 7.4816 36.99 21.35
8/26/2021 8:44:54 AM 21.3325 70.3985 0.2896999 7.4823 36.3825 21.3325
8/26/2021 8:59:54 AM 21.315 70.367 0.2900499 7.4823 35.7 21.315
8/26/2021 9:14:54 AM 21.315 70.367 0.2904 7.4809 36.065 21.315
8/26/2021 9:29:54 AM 21.3325 70.3985 0.2907501 7.4809 36.36 21.3325
8/26/2021 9:44:55 AM 21.35 70.43 0.2906499 7.4858 36.5675 21.35
8/26/2021 9:59:54 AM 21.385 70.493 0.2910499 7.49 35.1875 21.385
8/26/2021 10:14:54 AM 21.4 70.52 0.291 7.4872 35.3425 21.4
8/26/2021 10:29:54 AM 21.435 70.583 0.291 7.4844 36.125 21.435
8/26/2021 10:44:54 AM 21.47 70.646 0.2914 7.4893 35.1475 21.47
8/26/2021 10:59:54 AM 21.4875 70.6775 0.2913501 7.49 34.8 21.4875
8/26/2021 11:14:54 AM 21.5025 70.7045 0.2916999 7.4963 34.51 21.5025
8/26/2021 11:29:54 AM 21.52 70.736 0.2920499 7.4935 34.78 21.52
8/26/2021 11:44:54 AM 21.555 70.799 0.2920499 7.4991 35.09 21.555
8/26/2021 11:59:54 AM 21.5875 70.8575 0.2924 7.504 35.735 21.5875
8/26/2021 12:14:54 PM 21.64 70.952 0.2923501 7.5103 34.765 21.64
8/26/2021 12:29:54 PM 21.675 71.015 0.2927501 7.5103 35.1325 21.675
8/26/2021 12:44:54 PM 21.6925 71.0465 0.2930499 7.5145 34.5 21.6925
8/26/2021 12:59:54 PM 21.7275 71.1095 0.2930499 7.5152 34.6175 21.7275
8/26/2021 1:14:55 PM 21.745 71.141 0.2934499 7.5201 35.9675 21.745
8/26/2021 1:29:54 PM 21.7625 71.1725 0.2937501 7.5236 34.4775 21.7625
8/26/2021 1:44:55 PM 21.795 71.231 0.2941 7.5229 34.5625 21.795
8/26/2021 1:59:55 PM 21.83 71.294 0.2945 7.5285 34.595 21.83
8/26/2021 2:14:55 PM 21.865 71.357 0.2948 7.532 35.145 21.865
8/26/2021 2:29:55 PM 21.9 71.42 0.29515 7.532 34.8525 21.9
8/26/2021 2:44:55 PM 21.9525 71.5145 0.2954499 7.5376 34.62 21.9525
8/26/2021 2:59:55 PM 22.02 71.636 0.2958001 7.5376 34.2625 22.02
8/26/2021 3:14:55 PM 22.0725 71.7305 0.29615 7.5425 34.4525 22.0725
8/26/2021 3:29:55 PM 22.1225 71.8205 0.2961 7.5481 34.855 22.1225
8/26/2021 3:44:55 PM 22.1575 71.8835 0.29645 7.552299 34.64 22.1575
8/26/2021 3:59:55 PM 22.175 71.915 0.2968 7.556499 35.5125 22.175
8/26/2021 4:14:55 PM 22.1925 71.9465 0.2972 7.557199 34.6025 22.1925
8/26/2021 4:29:55 PM 22.2275 72.00951 0.2972 7.560699 35.02 22.2275
8/26/2021 4:44:54 PM 22.245 72.041 0.2972 7.566999 34.6575 22.245
8/26/2021 4:59:55 PM 22.26 72.068 0.2975 7.567699 35.5575 22.26
8/26/2021 5:14:55 PM 22.28 72.104 0.2975501 7.565599 34.69 22.28
8/26/2021 5:29:54 PM 22.2625 72.0725 0.29785 7.572599 34.0825 22.2625
8/26/2021 5:32:29 PM 22.2775 72.0995 0.29785 7.572599 34.7675 22.2775
8/26/2021 5:47:29 PM 22.2625 72.0725 0.29785 7.571199 35.365 22.2625
8/26/2021 6:02:29 PM 22.2275 72.00951 0.2982499 7.571199 35.195 22.2275
8/26/2021 6:17:29 PM 22.2275 72.00951 0.2982 7.575399 34.91 22.2275
8/26/2021 6:32:28 PM 22.21 71.978 0.2986 7.576099 34.5725 22.21
8/26/2021 6:47:28 PM 22.1925 71.9465 0.2989 7.576799 34.3875 22.1925
8/26/2021 7:02:28 PM 22.175 71.915 0.2989501 7.576099 34.14 22.175
8/26/2021 7:17:28 PM 22.14 71.852 0.2996 7.576799 34.615 22.14
8/26/2021 7:32:29 PM 22.125 71.825 0.2999501 7.577499 35.6875 22.125
8/26/2021 7:47:28 PM 22.09 71.762 0.3006499 7.573299 34.47 22.09
8/26/2021 8:02:28 PM 22.02 71.636 0.3016999 7.571199 33.365 22.02
8/26/2021 8:17:28 PM 21.985 71.573 0.3027 7.570499 33.5 21.985
8/26/2021 8:32:28 PM 21.9525 71.5145 0.3034 7.571899 33.465 21.9525
8/26/2021 8:47:28 PM 21.8825 71.3885 0.3044499 7.572599 33.1175 21.8825
8/26/2021 9:02:28 PM 21.85 71.33 0.30515 7.571899 33.1725 21.85
8/26/2021 9:17:28 PM 21.795 71.231 0.30585 7.566299 32.9075 21.795
8/26/2021 9:32:28 PM 21.76 71.168 0.3062499 7.566999 32.755 21.76
8/26/2021 9:47:28 PM 21.71 71.078 0.30685 7.567699 32.5825 21.71
8/26/2021 10:02:28 PM 21.675 71.015 0.3076 7.566299 32.7 21.675
8/26/2021 10:17:28 PM 21.6375 70.9475 0.3079 7.563499 32.8125 21.6375
8/26/2021 10:32:28 PM 21.59 70.862 0.3086499 7.562099 32.5675 21.59
8/26/2021 10:47:28 PM 21.5375 70.7675 0.3093 7.557899 33.3325 21.5375
8/26/2021 11:02:28 PM 21.52 70.736 0.3100499 7.563499 32.1175 21.52
8/26/2021 11:17:28 PM 21.485 70.673 0.3103501 7.558599 31.93 21.485
8/26/2021 11:32:29 PM 21.43 70.574 0.3107501 7.557899 33.4225 21.43
8/27/2021 12:02:28 AM 21.3475 70.4255 0.3114 7.557199 32.725 21.3475
8/27/2021 12:17:28 AM 21.31 70.358 0.3117501 7.557899 32.7175 21.31
8/27/2021 12:32:28 AM 21.275 70.295 0.3117501 7.554399 30.865 21.275
8/27/2021 12:47:28 AM 21.2425 70.2365 0.31215 7.558599 31.1825 21.2425
8/27/2021 1:02:28 AM 21.21 70.17799 0.3121 7.562799 32.005 21.21
8/27/2021 1:17:28 AM 21.1725 70.1105 0.3121 7.563499 34.4825 21.1725
8/27/2021 1:32:28 AM 21.14 70.052 0.3117501 7.562799 34.13 21.14
8/27/2021 1:47:28 AM 21.1225 70.0205 0.3114499 7.562799 34.4425 21.1225
8/27/2021 2:02:28 AM 21.1025 69.9845 0.3106999 7.564899 35.0625 21.1025
8/27/2021 2:17:28 AM 21.0675 69.9215 0.31 7.557899 34.655 21.0675
8/27/2021 2:32:28 AM 21.0525 69.8945 0.309 7.559299 35.3625 21.0525
8/27/2021 2:47:28 AM 21.035 69.863 0.3079501 7.553699 36.65 21.035
8/27/2021 3:02:28 AM 21.0175 69.8315 0.3069501 7.5502 36.9275 21.0175
8/27/2021 3:17:29 AM 20.9825 69.7685 0.3059 7.5481 37.2225 20.9825
8/27/2021 3:32:29 AM 20.9675 69.7415 0.30485 7.5439 39.6175 20.9675
8/27/2021 3:47:28 AM 20.95 69.71 0.3042 7.539 39.855 20.95
8/27/2021 4:17:28 AM 20.895 69.611 0.3021 7.5299 40.7125 20.895
8/27/2021 4:32:28 AM 20.88 69.584 0.3014 7.5278 41.965 20.88
8/27/2021 4:47:28 AM 20.88 69.584 0.3004 7.5243 42.4025 20.88
8/27/2021 5:02:28 AM 20.8625 69.5525 0.2996499 7.5194 41.6825 20.8625
8/27/2021 5:17:28 AM 20.83 69.494 0.2993 7.5138 40.73 20.83
8/27/2021 5:32:28 AM 20.81 69.458 0.2986 7.5096 40.27 20.81
8/27/2021 5:47:28 AM 20.7925 69.4265 0.2982499 7.5103 41.5825 20.7925
8/27/2021 6:02:28 AM 20.775 69.395 0.2979 7.5103 42.54 20.775
8/27/2021 6:17:29 AM 20.76 69.368 0.2979501 7.5054 42.7575 20.76
8/27/2021 6:47:29 AM 20.725 69.305 0.2979501 7.5054 41.59998 20.725
8/27/2021 7:02:28 AM 20.7075 69.2735 0.2979501 7.5047 42.04993 20.7075
8/27/2021 7:17:29 AM 20.69 69.242 0.2979501 7.5054 43.44995 20.69
8/27/2021 7:32:28 AM 20.6725 69.2105 0.2983001 7.5054 43.3501 20.6725
8/27/2021 7:47:28 AM 20.655 69.179 0.2983001 7.5047 44 20.655
8/27/2021 8:02:29 AM 20.655 69.179 0.2986499 7.5054 44.40002 20.655
8/27/2021 8:17:28 AM 20.6375 69.1475 0.2989501 7.5047 45.55005 20.6375
8/27/2021 8:32:29 AM 20.635 69.143 0.2993 7.5061 46.59998 20.635
8/27/2021 8:47:28 AM 20.6375 69.1475 0.2996499 7.504 46.90002 20.6375
8/27/2021 9:02:29 AM 20.6375 69.1475 0.3 7.5145 46.84998 20.6375
8/27/2021 9:17:28 AM 20.655 69.179 0.3006999 7.5054 51.80005 20.655
8/27/2021 9:32:29 AM 20.6525 69.1745 0.301 7.5096 53.80005 20.6525
8/27/2021 9:47:28 AM 20.67 69.206 0.3016999 7.511 53.24988 20.67
8/27/2021 10:02:28 AM 20.67 69.206 0.3021 7.5089 52.09998 20.67
8/27/2021 10:17:29 AM 20.6875 69.2375 0.3024 7.511 52.15002 20.6875
8/27/2021 10:47:29 AM 20.7225 69.3005 0.3024 7.5152 51.6499 20.7225
8/27/2021 11:02:29 AM 20.7575 69.3635 0.3024 7.5138 50.75012 20.7575
8/27/2021 11:17:28 AM 20.79 69.422 0.3027 7.5201 51.69995 20.79
8/27/2021 11:32:28 AM 20.825 69.485 0.3027 7.5187 51.04993 20.825
8/27/2021 11:47:28 AM 20.86 69.548 0.3027 7.518 49.75012 20.86
8/27/2021 12:02:28 PM 20.9125 69.6425 0.3027501 7.5187 50.44995 20.9125
8/27/2021 12:17:28 PM 20.98 69.764 0.3027501 7.5229 49 20.98
8/27/2021 12:32:28 PM 21.05 69.89 0.3027 7.5236 49.19995 21.05
8/27/2021 12:47:28 PM 21.1 69.98 0.3027501 7.5236 48.69995 21.1
8/27/2021 1:02:28 PM 21.1325 70.0385 0.3027 7.5285 47.5 21.1325
8/27/2021 1:32:28 PM 21.275 70.295 0.3030499 7.5327 46.09998 21.275
8/27/2021 1:47:28 PM 21.36 70.448 0.3030499 7.5376 45.44995 21.36
8/27/2021 2:02:28 PM 21.4825 70.6685 0.3034 7.5425 45.40002 21.4825
8/27/2021 2:17:28 PM 21.57 70.826 0.3041 7.546 43.75012 21.57
8/27/2021 2:47:29 PM 21.76 71.168 0.3047 7.556499 41.59998 21.76
8/27/2021 3:02:28 PM 21.8625 71.3525 0.30545 7.565599 44.9325 21.8625
8/27/2021 3:17:28 PM 21.9325 71.4785 0.3061 7.571899 43.995 21.9325
8/27/2021 3:32:28 PM 21.9675 71.5415 0.30685 7.575399 43.2475 21.9675
8/27/2021 3:47:28 PM 21.9475 71.5055 0.3075 7.581699 43.1975 21.9475
8/27/2021 4:02:28 PM 21.9325 71.4785 0.3081999 7.580299 42.52 21.9325
8/27/2021 4:17:28 PM 21.915 71.44701 0.3092499 7.585199 41.2575 21.915
8/27/2021 4:32:28 PM 21.915 71.44701 0.31 7.586599 41.05 21.915
8/27/2021 4:47:28 PM 21.9325 71.4785 0.3106499 7.596399 41.6475 21.9325
8/27/2021 5:02:28 PM 21.965 71.537 0.3113501 7.599899 39.3075 21.965
8/27/2021 5:17:28 PM 21.9875 71.5775 0.3117 7.605499 39.9425 21.9875
8/27/2021 5:47:29 PM 22.0225 71.6405 0.3124 7.607599 38.155 22.0225
8/27/2021 6:02:28 PM 22.0025 71.6045 0.3127501 7.606199 39.4425 22.0025
8/27/2021 6:17:28 PM 21.97 71.546 0.3130499 7.605499 37.83 21.97
8/27/2021 6:32:29 PM 21.95 71.51 0.3134499 7.605499 37.255 21.95
8/27/2021 6:47:28 PM 21.935 71.483 0.3138 7.606199 36.28 21.935
8/27/2021 7:17:29 PM 21.8975 71.4155 0.3145 7.610399 36.565 21.8975
8/27/2021 7:32:29 PM 21.8825 71.3885 0.31485 7.611799 35.3825 21.8825
8/27/2021 7:47:29 PM 21.865 71.357 0.3151999 7.607599 35.435 21.865
8/27/2021 8:02:29 PM 21.8475 71.3255 0.3159 7.606899 35.47 21.8475
8/27/2021 8:17:29 PM 21.8125 71.2625 0.3162499 7.606899 35.3325 21.8125
8/27/2021 8:32:29 PM 21.78 71.204 0.31655 7.606899 34.985 21.78
8/27/2021 8:47:29 PM 21.7625 71.1725 0.3166 7.605499 35.3675 21.7625
8/27/2021 9:02:29 PM 21.745 71.141 0.3169 7.601999 36.1475 21.745
8/27/2021 9:17:29 PM 21.7275 71.1095 0.3169 7.606899 36.485 21.7275
8/27/2021 9:32:29 PM 21.6925 71.0465 0.3169 7.607599 37.3325 21.6925
8/27/2021 9:47:29 PM 21.6575 70.9835 0.3172499 7.606899 38.685 21.6575
8/27/2021 10:02:28 PM 21.6225 70.9205 0.3176 7.607599 39.78 21.6225
8/27/2021 10:17:29 PM 21.5875 70.8575 0.3179501 7.597099 41.1175 21.5875
8/27/2021 10:32:28 PM 21.555 70.799 0.3183501 7.597099 43.7925 21.555
8/27/2021 10:47:28 PM 21.5375 70.7675 0.3179501 7.601299 42 21.5375
8/27/2021 11:02:28 PM 21.535 70.763 0.3176 7.601999 43.84998 21.535
8/27/2021 11:17:28 PM 21.535 70.763 0.3169501 7.606899 45.44995 21.535
8/27/2021 11:32:28 PM 21.535 70.763 0.31655 7.605499 45.40002 21.535
8/28/2021 12:02:28 AM 21.5375 70.7675 0.3155 7.610399 47.19995 21.5375
8/28/2021 12:17:28 AM 21.52 70.736 0.31445 7.615999 49.19995 21.52
8/28/2021 12:32:29 AM 21.485 70.673 0.3131 7.616699 52 21.485
8/28/2021 1:02:29 AM 21.4325 70.5785 0.3086 7.602699 88.15002 21.4325
8/28/2021 1:17:28 AM 21.3825 70.4885 0.3041 7.583099 145.2499 21.3825
8/28/2021 1:32:28 AM 21.2975 70.3355 0.2961999 7.5481 250.7501 21.2975
8/28/2021 1:47:29 AM 21.2075 70.1735 0.28615 7.4998 380.6 21.2075
8/28/2021 2:02:29 AM 21.1225 70.0205 0.2758 7.4564 501.7501 21.1225
8/28/2021 2:32:29 AM 20.9325 69.6785 0.2585 7.3892 673.6499 20.9325
8/28/2021 2:47:28 AM 20.845 69.521 0.24955 7.3556 742.1501 20.845
8/28/2021 3:17:29 AM 20.655 69.179 0.2308 7.301001 866.3999 20.655
8/28/2021 3:32:28 AM 20.5675 69.0215 0.2229 7.280701 900.75 20.5675
8/28/2021 3:47:29 AM 20.5 68.9 0.217 7.265301 939.3 20.5
8/28/2021 4:02:28 AM 20.43 68.774 0.21185 7.255501 944.8499 20.43
8/28/2021 4:17:28 AM 20.3775 68.6795 0.2080499 7.253401 931.6499 20.3775
8/28/2021 4:32:29 AM 20.325 68.585 0.20455 7.246401 908.7 20.325
8/28/2021 4:47:29 AM 20.2875 68.5175 0.2018 7.242901 893.5 20.2875
8/28/2021 5:02:29 AM 20.255 68.459 0.199 7.253401 862.8499 20.255
8/28/2021 5:17:29 AM 20.205 68.369 0.1973 7.241501 828.8499 20.205
8/28/2021 5:32:29 AM 20.1525 68.2745 0.1962499 7.247801 783.7 20.1525
8/28/2021 5:47:29 AM 20.135 68.243 0.1956 7.252701 742.5 20.135
8/28/2021 6:17:29 AM 20.05 68.09 0.1956 7.256201 635.8499 20.05
8/28/2021 6:32:29 AM 20.015 68.027 0.1962499 7.268101 584.8499 20.015
8/28/2021 6:47:29 AM 19.98 67.964 0.1973 7.273001 528.2499 19.98
8/28/2021 7:02:29 AM 19.9625 67.9325 0.1990499 7.277901 475.8 19.9625
8/28/2021 7:17:29 AM 19.945 67.901 0.20115 7.287701 428.9 19.945
8/28/2021 7:32:29 AM 19.9275 67.8695 0.2042499 7.294701 376.6 19.9275
8/28/2021 7:47:28 AM 19.9275 67.8695 0.2077501 7.305901 336.4 19.9275
8/28/2021 8:02:28 AM 19.9275 67.8695 0.2122 7.315001 298.4 19.9275
8/28/2021 8:17:29 AM 19.945 67.901 0.2170499 7.336 260.55 19.945
8/28/2021 8:32:29 AM 19.9625 67.9325 0.2221999 7.3451 233.1 19.9625
8/28/2021 8:47:29 AM 19.995 67.991 0.22845 7.3647 209.45 19.995
8/28/2021 9:02:29 AM 20.0475 68.0855 0.2346999 7.3794 189.2499 20.0475
8/28/2021 9:17:29 AM 20.085 68.153 0.2409 7.392 174.4 20.085
8/28/2021 9:32:29 AM 20.135 68.243 0.2467501 7.4074 162.15 20.135
8/28/2021 9:47:29 AM 20.185 68.333 0.2519 7.4284 158.1 20.185
8/28/2021 10:02:29 AM 20.2225 68.4005 0.2561 7.4305 163.2 20.2225
8/28/2021 10:17:29 AM 20.255 68.459 0.2585 7.4424 176.0499 20.255
8/28/2021 10:32:29 AM 20.29 68.522 0.2599 7.4452 199 20.29
8/28/2021 10:47:29 AM 20.325 68.585 0.2602499 7.4571 228.5 20.325
8/28/2021 11:02:29 AM 20.34 68.612 0.2591999 7.4564 261.5 20.34
8/28/2021 11:17:29 AM 20.41 68.738 0.2581 7.4564 292.8 20.41
8/28/2021 11:32:29 AM 20.4275 68.7695 0.25715 7.4571 326.7 20.4275
8/28/2021 11:47:29 AM 20.445 68.801 0.2561 7.4557 340.7501 20.445
8/28/2021 12:02:29 PM 20.4625 68.8325 0.255 7.4557 354.6499 20.4625
8/28/2021 12:17:29 PM 20.48 68.864 0.2543501 7.4613 356.7 20.48
8/28/2021 12:32:29 PM 20.515 68.927 0.2536499 7.4613 354.4 20.515
8/28/2021 12:47:29 PM 20.5475 68.9855 0.2532499 7.4662 342.5 20.5475
8/28/2021 1:02:29 PM 20.565 69.017 0.2526 7.4662 333.7 20.565
8/28/2021 1:17:29 PM 20.615 69.107 0.2522499 7.4662 321.9501 20.615
8/28/2021 1:32:29 PM 20.6675 69.2015 0.2512 7.4718 308.45 20.6675
8/28/2021 1:47:29 PM 20.7375 69.3275 0.24985 7.4697 308.7501 20.7375
8/28/2021 2:02:29 PM 20.79 69.422 0.2480499 7.4704 313.15 20.79
8/28/2021 2:17:29 PM 20.84 69.512 0.2457 7.4634 336.85 20.84
8/28/2021 2:32:29 PM 20.8775 69.5795 0.2432499 7.4599 362.15 20.8775
8/28/2021 2:47:29 PM 20.91 69.638 0.2398001 7.455 402.9 20.91
8/28/2021 3:02:29 PM 20.945 69.701 0.2363501 7.4494 443.7 20.945
8/28/2021 3:17:29 PM 20.9775 69.75951 0.2325501 7.4403 486.2499 20.9775
8/28/2021 3:32:29 PM 21.0325 69.8585 0.2294 7.4291 513.9501 21.0325
8/28/2021 4:02:29 PM 21.12 70.016 0.2235501 7.4207 568.7 21.12
8/28/2021 4:17:29 PM 21.17 70.106 0.22145 7.4102 569 21.17
8/28/2021 4:32:29 PM 21.2225 70.2005 0.2201 7.4116 562.55 21.2225
8/28/2021 4:47:29 PM 21.2575 70.2635 0.2190499 7.406 546.6 21.2575
8/28/2021 5:02:29 PM 21.2925 70.3265 0.2190499 7.4067 525.3 21.2925
8/28/2021 5:17:29 PM 21.325 70.385 0.219 7.406 504.8 21.325
8/28/2021 5:32:29 PM 21.3425 70.4165 0.2196999 7.4067 473.2499 21.3425
8/28/2021 5:47:29 PM 21.36 70.448 0.2207501 7.4109 444.15 21.36
8/28/2021 6:02:29 PM 21.36 70.448 0.2221999 7.4109 408.3501 21.36
8/28/2021 6:17:29 PM 21.3625 70.4525 0.2235501 7.4116 377.5 21.3625
8/28/2021 6:32:29 PM 21.3625 70.4525 0.2252499 7.4151 345.55 21.3625
8/28/2021 6:47:29 PM 21.36 70.448 0.2273 7.4221 314.9501 21.36
8/28/2021 7:02:29 PM 21.3625 70.4525 0.2290499 7.4214 289.85 21.3625
8/28/2021 7:17:29 PM 21.3625 70.4525 0.2308 7.4249 266.0499 21.3625
8/28/2021 7:32:29 PM 21.3425 70.4165 0.2325 7.4291 244.8 21.3425
8/28/2021 7:47:29 PM 21.3275 70.3895 0.2342499 7.4312 225.1 21.3275
8/28/2021 8:02:29 PM 21.31 70.358 0.236 7.4312 221.6499 21.31
8/28/2021 8:17:29 PM 21.3275 70.3895 0.2374 7.4403 254.85 21.3275
8/28/2021 8:32:29 PM 21.3275 70.3895 0.2380499 7.4459 220.55 21.3275
8/28/2021 8:47:29 PM 21.3275 70.3895 0.2387501 7.4445 200.7501 21.3275
8/28/2021 9:02:29 PM 21.33 70.394 0.2388 7.4515 184.15 21.33
8/28/2021 9:17:29 PM 21.31 70.358 0.23915 7.4508 171.6 21.31
8/28/2021 9:32:29 PM 21.2925 70.3265 0.2391 7.4466 168.7501 21.2925
8/28/2021 9:47:30 PM 21.295 70.331 0.23915 7.4515 168.7501 21.295
8/28/2021 10:02:29 PM 21.275 70.295 0.2391 7.4508 172.2 21.275
8/28/2021 10:17:29 PM 21.2775 70.2995 0.2391 7.4501 177.85 21.2775
8/28/2021 10:32:29 PM 21.26 70.268 0.2388 7.4501 182.3 21.26
8/28/2021 10:47:29 PM 21.2425 70.2365 0.2384 7.4501 191.1 21.2425
8/28/2021 11:02:29 PM 21.2425 70.2365 0.2381 7.4522 196.6 21.2425
8/28/2021 11:17:30 PM 21.2275 70.2095 0.2377501 7.4501 208.3501 21.2275
8/28/2021 11:32:29 PM 21.2275 70.2095 0.2371 7.4501 214.3 21.2275
8/29/2021 12:02:29 AM 21.2425 70.2365 0.2363501 7.4564 236.55 21.2425
8/29/2021 12:17:29 AM 21.2625 70.2725 0.2357 7.4557 249.1 21.2625
8/29/2021 12:32:29 AM 21.26 70.268 0.2353501 7.4627 261.55 21.26
8/29/2021 12:47:29 AM 21.28 70.304 0.2353501 7.4606 271.2499 21.28
8/29/2021 1:02:29 AM 21.295 70.331 0.2353 7.462 276.7501 21.295
8/29/2021 1:17:29 AM 21.295 70.331 0.2353 7.4662 281.2499 21.295
8/29/2021 1:47:29 AM 21.295 70.331 0.2353501 7.4655 295.5 21.295
8/29/2021 2:17:29 AM 21.3125 70.3625 0.2353501 7.4704 315.8 21.3125
8/29/2021 2:47:29 AM 21.315 70.367 0.235 7.4739 336.55 21.315
8/29/2021 3:02:29 AM 21.315 70.367 0.2346499 7.4795 348.3501 21.315
8/29/2021 3:17:29 AM 21.295 70.331 0.235 7.4816 360.0499 21.295
8/29/2021 3:32:29 AM 21.2775 70.2995 0.235 7.4858 366.7501 21.2775
8/29/2021 3:47:29 AM 21.2625 70.2725 0.235 7.4893 378.2 21.2625
8/29/2021 4:02:29 AM 21.245 70.241 0.2353501 7.4893 385.5 21.245
8/29/2021 4:17:29 AM 21.225 70.205 0.2353 7.4914 391.3501 21.225
8/29/2021 4:32:29 AM 21.2275 70.2095 0.2356499 7.4942 401 21.2275
8/29/2021 4:47:29 AM 21.21 70.17799 0.2357 7.4949 405.6499 21.21
8/29/2021 5:02:29 AM 21.1925 70.1465 0.2360499 7.5005 417.1 21.1925
8/29/2021 5:17:29 AM 21.175 70.115 0.2360499 7.4998 414.7 21.175
8/29/2021 5:32:29 AM 21.16 70.088 0.2364 7.5061 419.6 21.16
8/29/2021 5:47:29 AM 21.14 70.052 0.2364 7.5054 418.2 21.14
8/29/2021 6:02:29 AM 21.125 70.025 0.2367501 7.5047 418.9 21.125
8/29/2021 6:17:29 AM 21.105 69.989 0.2370499 7.5054 414.1 21.105
8/29/2021 6:32:29 AM 21.1075 69.9935 0.2374499 7.5103 411.5 21.1075
8/29/2021 6:47:29 AM 21.09 69.962 0.2377501 7.5117 411.3 21.09
8/29/2021 7:02:29 AM 21.0875 69.9575 0.2385 7.5096 400.85 21.0875
8/29/2021 7:17:29 AM 21.105 69.989 0.23915 7.5047 394.55 21.105
8/29/2021 7:47:30 AM 21.0875 69.9575 0.2405501 7.5103 375.15 21.0875
8/29/2021 8:02:29 AM 21.07 69.926 0.2412 7.5054 365.7501 21.07
8/29/2021 8:17:30 AM 21.0725 69.9305 0.2419 7.5089 358.7501 21.0725
8/29/2021 8:32:29 AM 21.0725 69.9305 0.2426 7.504 348.3501 21.0725
8/29/2021 8:47:29 AM 21.0725 69.9305 0.2436 7.5047 334.7 21.0725
8/29/2021 9:02:29 AM 21.0725 69.9305 0.2443501 7.5047 324.7 21.0725
8/29/2021 9:17:29 AM 21.07 69.926 0.2454 7.5054 317.7 21.07
8/29/2021 9:32:29 AM 21.0875 69.9575 0.2464 7.5033 306 21.0875
8/29/2021 9:47:29 AM 21.1025 69.9845 0.2470499 7.5061 293.45 21.1025
8/29/2021 10:02:29 AM 21.12 70.016 0.2481 7.5047 283.6499 21.12
8/29/2021 10:17:29 AM 21.14 70.052 0.2488001 7.5033 271.5 21.14
8/29/2021 10:32:29 AM 21.155 70.079 0.24985 7.504 260.7501 21.155
8/29/2021 10:47:29 AM 21.1375 70.0475 0.2509 7.5047 252.1 21.1375
8/29/2021 11:02:29 AM 21.14 70.052 0.25155 7.5089 243.8 21.14
8/29/2021 11:17:29 AM 21.155 70.079 0.2522499 7.504 235.2 21.155
8/29/2021 11:32:29 AM 21.19 70.142 0.2529501 7.5033 227.0499 21.19
8/29/2021 12:02:29 PM 21.2575 70.2635 0.2543501 7.5047 212.2499 21.2575
8/29/2021 12:17:29 PM 21.2925 70.3265 0.255 7.5096 205.3501 21.2925
8/29/2021 12:47:30 PM 21.345 70.421 0.2560499 7.5082 196.85 21.345
8/29/2021 1:02:29 PM 21.3625 70.4525 0.2566999 7.5089 192.0499 21.3625
8/29/2021 1:17:29 PM 21.38 70.484 0.2570499 7.5103 187.15 21.38
8/29/2021 1:32:29 PM 21.43 70.574 0.25745 7.5096 186.1 21.43
8/29/2021 1:47:29 PM 21.4825 70.6685 0.2578 7.5089 183 21.4825
8/29/2021 2:02:29 PM 21.5175 70.7315 0.2581 7.5096 178.7501 21.5175
8/29/2021 2:17:29 PM 21.5525 70.7945 0.2581 7.5138 176.45 21.5525
8/29/2021 2:32:29 PM 21.57 70.826 0.2584499 7.5131 175.45 21.57
8/29/2021 2:47:29 PM 21.605 70.889 0.2588001 7.5138 170.8 21.605
8/29/2021 3:02:29 PM 21.64 70.952 0.2595 7.5124 168.85 21.64
8/29/2021 3:17:29 PM 21.6925 71.0465 0.25985 7.5138 164.6499 21.6925
8/29/2021 3:32:29 PM 21.7425 71.1365 0.2602 7.5131 162.45 21.7425
8/29/2021 3:47:29 PM 21.795 71.231 0.2605 7.5124 158.9501 21.795
8/29/2021 4:02:29 PM 21.845 71.321 0.26085 7.5145 155.15 21.845
8/29/2021 4:17:29 PM 21.8675 71.3615 0.2612499 7.5124 153.5 21.8675
8/29/2021 4:32:29 PM 21.8825 71.3885 0.26155 7.5138 149.0499 21.8825
8/29/2021 4:47:30 PM 21.865 71.357 0.2616 7.5124 146.15 21.865
8/29/2021 5:17:30 PM 21.865 71.357 0.2622499 7.5187 137.9501 21.865
8/29/2021 5:32:30 PM 21.8475 71.3255 0.2626 7.5187 132.9501 21.8475
8/29/2021 5:47:30 PM 21.865 71.357 0.2629501 7.518 128.55 21.865
8/29/2021 6:02:30 PM 21.88 71.384 0.2629501 7.5187 127.15 21.88
8/29/2021 6:17:30 PM 21.9325 71.4785 0.2633001 7.5201 122.9501 21.9325
8/29/2021 6:32:30 PM 21.9325 71.4785 0.2633001 7.5194 120.45 21.9325
8/29/2021 6:47:30 PM 21.9175 71.4515 0.2636 7.5173 117.0499 21.9175
8/29/2021 7:02:30 PM 21.88 71.384 0.2636499 7.5187 115.6 21.88
8/29/2021 7:17:30 PM 21.8475 71.3255 0.264 7.5173 111.5 21.8475
8/29/2021 7:32:30 PM 21.83 71.294 0.2643501 7.518 109.3501 21.83
8/29/2021 7:47:30 PM 21.795 71.231 0.2643501 7.5194 105.2 21.795
8/29/2021 8:02:30 PM 21.78 71.204 0.2647 7.518 103.0499 21.78
8/29/2021 8:17:29 PM 21.7625 71.1725 0.2647 7.5222 101.45 21.7625
8/29/2021 8:32:29 PM 21.745 71.141 0.2650499 7.5243 98.95007 21.745
8/29/2021 8:47:29 PM 21.7275 71.1095 0.2650499 7.518 98.55005 21.7275
8/29/2021 9:02:29 PM 21.71 71.078 0.2650499 7.525 95.15002 21.71
8/29/2021 9:17:29 PM 21.71 71.078 0.2650499 7.5222 93.40002 21.71
8/29/2021 9:32:30 PM 21.6925 71.0465 0.265 7.525 92.44995 21.6925
8/29/2021 9:47:29 PM 21.6575 70.9835 0.2650499 7.525 90.3501 21.6575
8/29/2021 10:02:29 PM 21.64 70.952 0.2650499 7.5243 90.69995 21.64
8/29/2021 10:17:29 PM 21.6225 70.9205 0.265 7.5229 87.5 21.6225
8/29/2021 10:32:29 PM 21.59 70.862 0.2650499 7.525 86.44995 21.59
8/29/2021 10:47:29 PM 21.5575 70.8035 0.2650499 7.518 85.09998 21.5575
8/29/2021 11:02:30 PM 21.52 70.736 0.2654 7.5194 83.09998 21.52
8/29/2021 11:17:30 PM 21.5025 70.7045 0.2654 7.5194 82.95007 21.5025
8/29/2021 11:32:29 PM 21.47 70.646 0.2657501 7.518 81.90002 21.47
8/30/2021 12:02:29 AM 21.4 70.52 0.2664 7.5138 81 21.4
8/30/2021 12:17:30 AM 21.4 70.52 0.26645 7.5194 90.30005 21.4
8/30/2021 12:32:29 AM 21.4175 70.5515 0.26645 7.5187 88.6499 21.4175
8/30/2021 12:47:30 AM 21.4 70.52 0.2668 7.5257 84.3501 21.4
8/30/2021 1:02:30 AM 21.4 70.52 0.26715 7.518 80.24988 21.4
8/30/2021 1:17:29 AM 21.3825 70.4885 0.2675 7.5208 72.90002 21.3825
8/30/2021 1:32:29 AM 21.38 70.484 0.2678001 7.5194 71.30005 21.38
8/30/2021 1:47:30 AM 21.38 70.484 0.2678001 7.5194 69.09998 21.38
8/30/2021 2:02:29 AM 21.365 70.457 0.26815 7.5194 68.75012 21.365
8/30/2021 2:17:29 AM 21.3625 70.4525 0.2685 7.5194 68.04993 21.3625
8/30/2021 2:32:30 AM 21.365 70.457 0.2691999 7.5208 66.09998 21.365
8/30/2021 2:47:30 AM 21.365 70.457 0.2691999 7.5194 64.95007 21.365
8/30/2021 3:02:30 AM 21.365 70.457 0.2695501 7.5187 65.04993 21.365
8/30/2021 3:17:30 AM 21.3475 70.4255 0.2699 7.518 62.5 21.3475
8/30/2021 3:32:30 AM 21.33 70.394 0.2706 7.518 60.55005 21.33
8/30/2021 3:47:29 AM 21.3275 70.3895 0.2709 7.5201 60.09998 21.3275
8/30/2021 4:02:30 AM 21.3125 70.3625 0.2713 7.5243 59.69995 21.3125
8/30/2021 4:17:30 AM 21.2975 70.3355 0.272 7.5187 59 21.2975
8/30/2021 4:32:30 AM 21.2975 70.3355 0.2723501 7.5236 57.90002 21.2975
8/30/2021 4:47:30 AM 21.2975 70.3355 0.2726499 7.5201 58.04993 21.2975
8/30/2021 5:02:29 AM 21.28 70.304 0.2734 7.5243 58.09998 21.28
8/30/2021 5:17:29 AM 21.26 70.268 0.2740499 7.525 57.6499 21.26
8/30/2021 5:32:29 AM 21.2275 70.2095 0.2747 7.5257 56.59998 21.2275
8/30/2021 5:47:29 AM 21.1925 70.1465 0.2751 7.5236 56.3501 21.1925
8/30/2021 6:02:30 AM 21.175 70.115 0.2758 7.525 55.6499 21.175
8/30/2021 6:17:29 AM 21.16 70.088 0.27615 7.5264 54.84998 21.16
8/30/2021 6:32:30 AM 21.14 70.052 0.2765 7.5243 55.55005 21.14
8/30/2021 6:47:29 AM 21.1225 70.0205 0.2768 7.5243 55.6499 21.1225
8/30/2021 7:02:29 AM 21.09 69.962 0.2775 7.5236 54.95007 21.09
8/30/2021 7:17:29 AM 21.0925 69.9665 0.27785 7.5236 54.44995 21.0925
8/30/2021 7:32:29 AM 21.105 69.989 0.2782499 7.5243 54.30005 21.105
8/30/2021 7:47:30 AM 21.09 69.962 0.2785501 7.5236 55.19995 21.09
8/30/2021 8:02:29 AM 21.09 69.962 0.2792499 7.525 53.19995 21.09
8/30/2021 8:17:29 AM 21.105 69.989 0.2796499 7.5236 118.1 21.105
8/30/2021 8:32:29 AM 21.1225 70.0205 0.2802499 7.5201 51.80005 21.1225
8/30/2021 8:47:29 AM 21.14 70.052 0.2803001 7.5236 50.69995 21.14
8/30/2021 9:02:29 AM 21.14 70.052 0.2806 7.5243 51.09998 21.14
8/30/2021 9:17:29 AM 21.175 70.115 0.2809501 7.5236 50.3501 21.175
8/30/2021 9:32:30 AM 21.1925 70.1465 0.2813 7.5243 49.95007 21.1925
8/30/2021 9:47:29 AM 21.155 70.079 0.282 7.5054 183.15 21.155
8/30/2021 10:02:29 AM 21.1575 70.0835 0.2826999 7.5033 123.0499 21.1575
8/30/2021 10:17:30 AM 21.12 70.016 0.2834 7.4991 82.75012 21.12
8/30/2021 10:32:30 AM 21.12 70.016 0.2844 7.4963 67.40002 21.12
8/30/2021 10:47:30 AM 21.1225 70.0205 0.2850499 7.4949 61.44995 21.1225
8/30/2021 11:02:29 AM 21.14 70.052 0.28545 7.4886 58.04993 21.14
8/30/2021 11:17:30 AM 21.1725 70.1105 0.28615 7.4949 54.95007 21.1725
8/30/2021 11:32:30 AM 21.2075 70.1735 0.28715 7.4949 70.84998 21.2075
8/30/2021 11:47:30 AM 21.2925 70.3265 0.2882 7.4956 115.3501 21.2925
8/30/2021 12:02:30 PM 21.3625 70.4525 0.2889 7.4998 100.6499 21.3625
8/30/2021 12:17:30 PM 21.415 70.547 0.28955 7.5047 74.24988 21.415
8/30/2021 12:32:30 PM 21.415 70.547 0.2899 7.5089 60.84998 21.415
8/30/2021 12:47:30 PM 21.4325 70.5785 0.2906 7.5138 52.04993 21.4325
8/30/2021 1:02:30 PM 21.465 70.637 0.2913001 7.5243 48.90002 21.465
8/30/2021 1:17:30 PM 21.5025 70.7045 0.2919501 7.5348 47.15002 21.5025
8/30/2021 1:32:30 PM 21.535 70.763 0.2927 7.5376 47.59998 21.535
8/30/2021 1:47:30 PM 21.57 70.826 0.293 7.5474 46.90002 21.57
8/30/2021 2:02:30 PM 21.6225 70.9205 0.2936999 7.558599 45.84998 21.6225
8/30/2021 2:17:29 PM 21.6725 71.0105 0.2940499 7.565599 45.80005 21.6725
8/30/2021 2:32:29 PM 21.725 71.105 0.2944 7.571199 45.04993 21.725
8/30/2021 2:47:29 PM 21.7425 71.1365 0.2954499 7.581699 45.15002 21.7425
8/30/2021 3:02:29 PM 21.7775 71.1995 0.2958001 7.590099 44.80005 21.7775
8/30/2021 3:17:29 PM 21.76 71.168 0.29645 7.596399 45 21.76
8/30/2021 3:32:29 PM 21.69 71.042 0.2975 7.599199 44.40002 21.69
8/30/2021 3:47:29 PM 21.6225 70.9205 0.2982 7.606199 45.40002 21.6225
8/30/2021 4:02:29 PM 21.6225 70.9205 0.2982 7.615999 43.75012 21.6225
8/30/2021 4:17:29 PM 21.6575 70.9835 0.29855 7.615999 44.30005 21.6575
8/30/2021 4:32:29 PM 21.7275 71.1095 0.2991999 7.620899 43 21.7275
8/30/2021 4:47:29 PM 21.7975 71.2355 0.2996 7.625099 43.3501 21.7975
8/30/2021 5:02:29 PM 21.865 71.357 0.2996 7.631399 43.40002 21.865
8/30/2021 5:17:29 PM 21.9175 71.4515 0.2999 7.635599 42.90002 21.9175
8/30/2021 5:32:29 PM 21.95 71.51 0.2999501 7.641199 42.5 21.95
8/30/2021 6:02:29 PM 21.9875 71.5775 0.3006499 7.646099 41.95007 21.9875
8/30/2021 6:17:29 PM 21.985 71.573 0.3009501 7.643999 42 21.985
8/30/2021 6:32:29 PM 22.005 71.609 0.3013 7.649599 44.905 22.005
8/30/2021 6:47:29 PM 22.0225 71.6405 0.3023501 7.648899 44.82 22.0225
8/30/2021 7:02:29 PM 22.0225 71.6405 0.3030499 7.650299 44.665 22.0225
8/30/2021 7:17:29 PM 21.985 71.573 0.3041 7.653099 44.51 21.985
8/30/2021 7:32:29 PM 21.9325 71.4785 0.3055 7.654499 43.555 21.9325
8/30/2021 7:47:29 PM 21.8825 71.3885 0.3069 7.655199 43.3325 21.8825
8/30/2021 8:02:29 PM 21.815 71.267 0.3081999 7.653799 42.8175 21.815
8/30/2021 8:17:29 PM 21.7625 71.1725 0.3096499 7.661501 42.7325 21.7625
8/30/2021 8:32:30 PM 21.6925 71.0465 0.3114 7.655199 42.6975 21.6925
8/30/2021 8:47:29 PM 21.6225 70.9205 0.3127501 7.656601 41.0725 21.6225
8/30/2021 9:02:29 PM 21.5725 70.8305 0.31415 7.656601 41.315 21.5725
8/30/2021 9:17:29 PM 21.5425 70.7765 0.3155501 7.655899 40.6225 21.5425
8/30/2021 9:32:29 PM 21.4875 70.6775 0.3169501 7.655199 40.3125 21.4875
8/30/2021 9:47:29 PM 21.4525 70.6145 0.3183501 7.656601 39.6025 21.4525
8/30/2021 10:02:29 PM 21.42 70.556 0.3196999 7.652399 55.15002 21.42
8/30/2021 10:17:29 PM 21.365 70.457 0.3211 7.655199 59.80005 21.365
8/30/2021 10:32:29 PM 21.3325 70.3985 0.32215 7.655199 52.15002 21.3325
8/30/2021 10:47:29 PM 21.2625 70.2725 0.32285 7.650999 43.40002 21.2625
8/30/2021 11:02:29 PM 21.2125 70.1825 0.32355 7.650299 40.555 21.2125
8/30/2021 11:17:29 PM 21.16 70.088 0.3242499 7.646099 38.6125 21.16
8/30/2021 11:32:29 PM 21.1075 69.9935 0.3249501 7.647499 38.8025 21.1075
8/31/2021 12:02:29 AM 21.005 69.809 0.3256 7.641899 44.3875 21.005
8/31/2021 12:17:29 AM 20.97 69.746 0.3253 7.642599 70.30005 20.97
8/31/2021 12:32:29 AM 20.935 69.683 0.3256499 7.643999 62.24988 20.935
8/31/2021 12:47:29 AM 20.9 69.62 0.3253 7.636299 57.84998 20.9
8/31/2021 1:02:29 AM 20.8825 69.5885 0.3249501 7.632099 52.69995 20.8825
8/31/2021 1:17:29 AM 20.85 69.53 0.3245501 7.632799 51.3501 20.85
8/31/2021 1:32:29 AM 20.8325 69.4985 0.3241999 7.627899 49.80005 20.8325
8/31/2021 1:47:29 AM 20.7975 69.4355 0.3236 7.621599 48.75012 20.7975
8/31/2021 2:02:29 AM 20.7625 69.3725 0.32285 7.617399 50.3501 20.7625
8/31/2021 2:17:29 AM 20.7275 69.3095 0.32185 7.618099 50.09998 20.7275
8/31/2021 2:32:29 AM 20.6925 69.2465 0.3208 7.614599 49.75012 20.6925
8/31/2021 2:47:29 AM 20.6575 69.1835 0.3197501 7.609699 50.59998 20.6575
8/31/2021 3:02:29 AM 20.64 69.152 0.3183501 7.603399 52.55005 20.64
8/31/2021 3:17:29 AM 20.605 69.089 0.317 7.599199 53.09998 20.605
8/31/2021 3:32:29 AM 20.5725 69.0305 0.3152499 7.592899 54.30005 20.5725
8/31/2021 3:47:29 AM 20.5175 68.9315 0.31415 7.594299 55.04993 20.5175
8/31/2021 4:02:29 AM 20.4675 68.8415 0.31285 7.588699 51.55005 20.4675
8/31/2021 4:32:29 AM 20.3475 68.6255 0.3108 7.583799 48.3501 20.3475
8/31/2021 4:47:29 AM 20.295 68.531 0.3097501 7.585199 49.09998 20.295
8/31/2021 5:02:29 AM 20.2425 68.4365 0.3084 7.585899 49 20.2425
8/31/2021 5:17:29 AM 20.2075 68.3735 0.307 7.580999 49.6499 20.2075
8/31/2021 5:32:29 AM 20.1925 68.3465 0.306 7.579599 51.44995 20.1925
8/31/2021 5:47:30 AM 20.1575 68.2835 0.3049501 7.579599 50.84998 20.1575
8/31/2021 6:02:30 AM 20.1375 68.2475 0.3039 7.576099 51.09998 20.1375
8/31/2021 6:17:29 AM 20.105 68.189 0.3031999 7.575399 51.09998 20.105
8/31/2021 6:32:29 AM 20.09 68.162 0.3025 7.570499 50.80005 20.09
8/31/2021 6:47:29 AM 20.0525 68.0945 0.30185 7.571199 51.19995 20.0525
8/31/2021 7:02:29 AM 20.0225 68.0405 0.3015 7.570499 50.84998 20.0225
8/31/2021 7:17:29 AM 20.0025 68.0045 0.30115 7.569799 50.84998 20.0025
8/31/2021 7:32:29 AM 20.0025 68.0045 0.3007501 7.567699 50.55005 20.0025
8/31/2021 7:47:29 AM 20.02 68.036 0.3005 7.565599 49.44995 20.02
8/31/2021 8:17:30 AM 20.0175 68.0315 0.3001 7.571199 47.59998 20.0175
8/31/2021 8:32:29 AM 20.0175 68.0315 0.2997501 7.569799 47.95007 20.0175
8/31/2021 8:47:29 AM 20.0375 68.0675 0.2997501 7.571199 47 20.0375
8/31/2021 9:02:29 AM 20.07 68.126 0.2994 7.569099 45.95007 20.07
8/31/2021 9:17:29 AM 20.105 68.189 0.2994 7.575399 44.75012 20.105
8/31/2021 9:32:29 AM 20.1375 68.2475 0.299 7.575399 43.80005 20.1375
8/31/2021 9:47:29 AM 20.1725 68.3105 0.2990499 7.578899 43.44995 20.1725
8/31/2021 10:02:29 AM 20.2075 68.3735 0.2990499 7.578899 42.30005 20.2075
8/31/2021 10:17:29 AM 20.24 68.432 0.299 7.583799 41.69995 20.24
8/31/2021 10:32:29 AM 20.275 68.495 0.2989501 7.583799 44.4925 20.275
8/31/2021 10:47:29 AM 20.3275 68.5895 0.2993501 7.587299 43.7625 20.3275
8/31/2021 11:02:29 AM 20.3575 68.6435 0.2996499 7.594299 43.4 20.3575
8/31/2021 11:17:30 AM 20.41 68.738 0.2996499 7.593599 42.725 20.41
8/31/2021 11:32:29 AM 20.4625 68.8325 0.3000499 7.597799 42.1875 20.4625
8/31/2021 12:02:29 PM 20.55 68.99 0.3003001 7.606899 41.23 20.55
8/31/2021 12:17:29 PM 20.6025 69.0845 0.3006999 7.611799 40.535 20.6025
8/31/2021 12:32:30 PM 20.6675 69.2015 0.301 7.617399 39.93 20.6675
8/31/2021 12:47:29 PM 20.72 69.296 0.3013501 7.626499 39.425 20.72
8/31/2021 1:02:29 PM 20.79 69.422 0.3016999 7.631399 38.76 20.79
8/31/2021 1:17:30 PM 20.8425 69.5165 0.3020499 7.636999 38.63 20.8425
8/31/2021 1:32:30 PM 20.875 69.575 0.3023501 7.646099 38.29 20.875
8/31/2021 1:47:30 PM 20.915 69.647 0.3024499 7.650299 38.0525 20.915
8/31/2021 2:02:30 PM 20.9625 69.7325 0.3027501 7.656601 37.6325 20.9625
8/31/2021 2:17:30 PM 21.035 69.863 0.3034 7.664301 37.0425 21.035
8/31/2021 2:47:30 PM 21.1725 70.1105 0.3037501 7.681101 37.56 21.1725
8/31/2021 3:02:30 PM 21.225 70.205 0.30415 7.684601 36.725 21.225
8/31/2021 3:17:30 PM 21.2575 70.2635 0.30415 7.690901 36.88 21.2575
8/31/2021 3:32:30 PM 21.33 70.394 0.3044499 7.693701 36.515 21.33
8/31/2021 3:47:30 PM 21.3825 70.4885 0.3048001 7.704201 36.545 21.3825
8/31/2021 4:02:30 PM 21.415 70.547 0.30515 7.707701 36.1875 21.415
8/31/2021 4:17:30 PM 21.4675 70.6415 0.3059 7.714701 35.7275 21.4675
8/31/2021 4:32:29 PM 21.52 70.736 0.3061999 7.718201 36.385 21.52
8/31/2021 4:47:30 PM 21.57 70.826 0.3066 7.722401 35.1825 21.57
8/31/2021 5:02:30 PM 21.605 70.889 0.3069 7.728001 35.21 21.605
8/31/2021 5:17:30 PM 21.66 70.988 0.3069 7.728001 34.935 21.66
8/31/2021 5:32:29 PM 21.6925 71.0465 0.3072499 7.734301 34.7425 21.6925
8/31/2021 5:47:29 PM 21.71 71.078 0.3076 7.743401 34.15 21.71
8/31/2021 6:02:29 PM 21.7075 71.0735 0.3079 7.743401 34.115 21.7075
8/31/2021 6:17:29 PM 21.675 71.015 0.3083 7.742001 34.185 21.675
8/31/2021 6:32:29 PM 21.64 70.952 0.309 7.742001 33.7225 21.64
8/31/2021 6:47:29 PM 21.625 70.925 0.3093501 7.743401 33.7875 21.625
8/31/2021 7:02:29 PM 21.6225 70.9205 0.3097 7.744101 33.7 21.6225
8/31/2021 7:17:29 PM 21.6075 70.8935 0.3100499 7.742701 33.8425 21.6075
8/31/2021 7:32:29 PM 21.59 70.862 0.31 7.743401 32.9725 21.59
8/31/2021 7:47:29 PM 21.555 70.799 0.3104 7.743401 32.85 21.555
8/31/2021 8:02:29 PM 21.5575 70.8035 0.3104 7.738501 32.6975 21.5575
8/31/2021 8:17:30 PM 21.5025 70.7045 0.3107501 7.739901 32.4075 21.5025
8/31/2021 8:32:29 PM 21.4525 70.6145 0.3111 7.733601 32.31 21.4525
8/31/2021 8:47:30 PM 21.4175 70.5515 0.3114 7.730101 32.2725 21.4175
8/31/2021 9:02:29 PM 21.385 70.493 0.3114499 7.728001 32.67 21.385
8/31/2021 9:17:30 PM 21.365 70.457 0.3117501 7.725201 32.24 21.365
8/31/2021 9:32:29 PM 21.33 70.394 0.3121 7.718901 32.235 21.33
8/31/2021 9:47:29 PM 21.295 70.331 0.3125 7.721001 32.035 21.295
8/31/2021 10:02:29 PM 21.26 70.268 0.3128 7.714701 31.8625 21.26
8/31/2021 10:17:29 PM 21.21 70.17799 0.31315 7.710501 31.9 21.21
8/31/2021 10:32:29 PM 21.1925 70.1465 0.31315 7.705601 31.595 21.1925
8/31/2021 10:47:29 PM 21.1575 70.0835 0.3139 7.700001 31.455 21.1575
8/31/2021 11:02:29 PM 21.125 70.025 0.3139 7.698601 31.5425 21.125
8/31/2021 11:17:29 PM 21.09 69.962 0.3142499 7.695101 31.56 21.09
8/31/2021 11:32:30 PM 21.09 69.962 0.3146 7.694401 31.44 21.09
9/1/2021 12:02:30 AM 21.055 69.899 0.3149 7.685301 32.26 21.055
9/1/2021 12:17:30 AM 21.0375 69.8675 0.3149 7.685301 40.51 21.0375
9/1/2021 12:32:30 AM 21.0025 69.8045 0.3152499 7.686701 41.1725 21.0025
9/1/2021 12:47:30 AM 20.985 69.773 0.3151999 7.679701 35.9075 20.985
9/1/2021 1:02:29 AM 20.9525 69.7145 0.3156499 7.680401 32.225 20.9525
9/1/2021 1:17:29 AM 20.9325 69.6785 0.3159501 7.676201 31.1825 20.9325
9/1/2021 1:32:29 AM 20.9175 69.6515 0.3159501 7.676901 30.775 20.9175
9/1/2021 1:47:29 AM 20.88 69.584 0.3163 7.677601 30.775 20.8825
9/1/2021 2:02:29 AM 20.88 69.584 0.3166499 7.675501 30.7425 20.88
9/1/2021 2:17:29 AM 20.865 69.557 0.3166499 7.672001 30.5475 20.865
9/1/2021 2:47:29 AM 20.83 69.494 0.3173501 7.671301 30.37 20.83
9/1/2021 3:02:29 AM 20.8125 69.4625 0.3176999 7.672701 30.555 20.8125
9/1/2021 3:17:29 AM 20.7775 69.3995 0.3180499 7.667801 30.625 20.7775
9/1/2021 3:32:29 AM 20.7275 69.3095 0.3184 7.667101 30.375 20.7275
9/1/2021 3:47:29 AM 20.73 69.314 0.3184 7.667101 30.445 20.73
9/1/2021 4:02:29 AM 20.6925 69.2465 0.3187501 7.663601 30.2 20.6925
9/1/2021 4:32:29 AM 20.6075 69.0935 0.31945 7.661501 30.185 20.6075
9/1/2021 4:47:29 AM 20.5725 69.0305 0.3197501 7.658701 30.08 20.5725
9/1/2021 5:02:29 AM 20.575 69.035 0.3198 7.657301 30.01 20.575
9/1/2021 5:17:29 AM 20.54 68.972 0.32015 7.658001 30.11 20.54
9/1/2021 5:32:29 AM 20.5075 68.9135 0.3205 7.658001 29.9075 20.5075
9/1/2021 5:47:29 AM 20.47 68.846 0.3205 7.658001 29.945 20.47
9/1/2021 6:02:29 AM 20.435 68.783 0.3205 7.656601 29.9075 20.435
9/1/2021 6:17:29 AM 20.42 68.756 0.3208 7.653099 29.825 20.42
9/1/2021 6:32:29 AM 20.385 68.693 0.3212 7.653099 32.22 20.385
9/1/2021 7:17:30 AM 20.3325 68.5985 0.32155 7.653099 30.9575 20.3325
9/1/2021 7:32:29 AM 20.315 68.567 0.3219 7.651699 30.555 20.315
9/1/2021 7:47:29 AM 20.315 68.567 0.3219 7.652399 30.73 20.315
9/1/2021 8:17:30 AM 20.2975 68.5355 0.3222499 7.653799 30.605 20.2975
9/1/2021 8:32:29 AM 20.2625 68.4725 0.3226 7.653099 30.6725 20.2625
9/1/2021 8:47:29 AM 20.28 68.504 0.3226 7.652399 31.425 20.28
9/1/2021 9:02:30 AM 20.2625 68.4725 0.3225501 7.652399 30.46 20.2625
9/1/2021 9:17:30 AM 20.245 68.441 0.3229 7.653099 30.21 20.245
9/1/2021 9:32:30 AM 20.2275 68.4095 0.3229501 7.654499 29.91 20.2275
9/1/2021 9:47:30 AM 20.21 68.378 0.3233001 7.654499 30.3875 20.21
9/1/2021 10:02:30 AM 20.1775 68.3195 0.3236 7.656601 29.8925 20.1775
9/1/2021 10:32:30 AM 20.125 68.225 0.3239501 7.658001 29.3 20.125
9/1/2021 10:47:29 AM 20.1075 68.1935 0.3239501 7.662201 30.25 20.1075
9/1/2021 11:02:29 AM 20.0875 68.1575 0.324 7.662201 29.1725 20.0875
9/1/2021 11:17:29 AM 20.0875 68.1575 0.324 7.663601 29.495 20.0875
9/1/2021 11:32:29 AM 20.0725 68.1305 0.3239501 7.666401 29.3225 20.0725
9/1/2021 11:47:29 AM 20.0725 68.1305 0.324 7.667101 28.9 20.0725
9/1/2021 12:02:29 PM 20.055 68.099 0.3239501 7.667101 28.83 20.055
9/1/2021 12:17:29 PM 20.02 68.036 0.3239 7.666401 28.6975 20.02
9/1/2021 12:32:29 PM 19.985 67.973 0.3239501 7.673401 29.065 19.985
9/1/2021 12:47:29 PM 19.9675 67.9415 0.3243001 7.672701 28.8125 19.9675
9/1/2021 1:02:29 PM 19.965 67.937 0.3243001 7.674101 29.4575 19.965
9/1/2021 1:17:29 PM 19.95 67.91 0.3243001 7.678301 28.7475 19.95
9/1/2021 1:32:29 PM 19.9325 67.8785 0.3243501 7.676201 28.845 19.9325
9/1/2021 1:47:29 PM 19.915 67.847 0.3243001 7.683901 28.5425 19.915
9/1/2021 2:02:29 PM 19.8825 67.7885 0.3246499 7.681801 28.5075 19.8825
9/1/2021 2:17:29 PM 19.845 67.721 0.3246499 7.681101 28.235 19.845
9/1/2021 2:32:29 PM 19.8125 67.6625 0.3246499 7.681801 28.025 19.8125
9/1/2021 2:47:29 PM 19.7925 67.6265 0.3246 7.687401 28.205 19.7925
9/1/2021 3:02:29 PM 19.7575 67.5635 0.325 7.688101 27.8275 19.7575
9/1/2021 3:17:30 PM 19.7225 67.5005 0.325 7.688101 27.7425 19.7225
9/1/2021 3:32:29 PM 19.69 67.442 0.325 7.686001 27.8675 19.69
9/1/2021 3:47:29 PM 19.655 67.379 0.325 7.693001 27.9375 19.655
9/1/2021 4:02:29 PM 19.62 67.316 0.325 7.691601 27.7425 19.62
9/1/2021 4:32:29 PM 19.535 67.163 0.325 7.696501 27.515 19.535
9/1/2021 4:47:29 PM 19.5 67.1 0.325 7.696501 27.585 19.5
9/1/2021 5:02:29 PM 19.48 67.064 0.3246499 7.702801 27.4625 19.48
9/1/2021 5:17:29 PM 19.4475 67.0055 0.3246499 7.702801 27.5325 19.4475
9/1/2021 5:47:30 PM 19.36 66.848 0.3250499 7.702801 27.3425 19.36
9/1/2021 6:02:30 PM 19.3425 66.8165 0.3250499 7.707701 27.6725 19.3425
9/1/2021 6:17:30 PM 19.31 66.758 0.3250499 7.706301 27.9625 19.31
9/1/2021 6:32:30 PM 19.2725 66.6905 0.3253501 7.708401 28.2175 19.2725
9/1/2021 6:47:29 PM 19.2575 66.6635 0.3253501 7.706301 28.1825 19.2575
9/1/2021 7:02:29 PM 19.2225 66.6005 0.3253501 7.702101 28.025 19.2225
9/1/2021 7:17:30 PM 19.1875 66.5375 0.3258001 7.701401 28.3975 19.1875
9/1/2021 7:32:29 PM 19.1725 66.5105 0.3257501 7.702801 27.8425 19.1725
9/1/2021 7:47:30 PM 19.135 66.443 0.3257 7.697901 27.94 19.135
9/1/2021 8:02:29 PM 19.1 66.38 0.3257501 7.697901 27.4325 19.1
9/1/2021 8:17:29 PM 19.065 66.317 0.3261 7.699301 27.2075 19.065
9/1/2021 8:32:29 PM 19.0325 66.2585 0.3261 7.693001 27.485 19.0325
9/1/2021 8:47:29 PM 18.9975 66.1955 0.3261 7.691601 27.9 18.9975
9/1/2021 9:02:29 PM 18.98 66.164 0.3260499 7.693001 28.03 18.98
9/1/2021 9:17:29 PM 18.9625 66.1325 0.32645 7.688101 27.9375 18.9625
9/1/2021 9:32:29 PM 18.9275 66.0695 0.32645 7.688101 28.9275 18.9275
9/1/2021 9:47:29 PM 18.91 66.038 0.32645 7.688101 28.4875 18.91
9/1/2021 10:02:29 PM 18.8575 65.9435 0.3271 7.688101 27.76 18.8575
9/1/2021 10:17:29 PM 18.79 65.82201 0.3275 7.682501 27.4225 18.79
9/1/2021 10:32:29 PM 18.7375 65.7275 0.32785 7.685301 28.0575 18.7375
9/1/2021 10:47:29 PM 18.7025 65.6645 0.3282 7.683201 27.6075 18.7025
9/1/2021 11:02:29 PM 18.67 65.606 0.3289 7.682501 28.205 18.67
9/1/2021 11:17:29 PM 18.615 65.507 0.3289 7.685301 27.665 18.615
9/1/2021 11:32:29 PM 18.5975 65.4755 0.3292499 7.683901 27.61 18.5975
9/2/2021 12:02:29 AM 18.5125 65.3225 0.3296 7.683901 28.2675 18.5125
9/2/2021 12:17:29 AM 18.4625 65.2325 0.3299501 7.684601 27.51 18.4625
9/2/2021 12:32:29 AM 18.3925 65.1065 0.3306 7.684601 27.55 18.3925
9/2/2021 12:47:29 AM 18.34 65.012 0.331 7.684601 27.6625 18.34
9/2/2021 1:02:29 AM 18.2725 64.8905 0.3313501 7.685301 28.1525 18.2725
9/2/2021 1:17:29 AM 18.215 64.787 0.3313001 7.683901 27.3475 18.215
9/2/2021 1:32:29 AM 18.1825 64.7285 0.3316999 7.683201 27.3675 18.1825
9/2/2021 1:47:29 AM 18.18 64.724 0.3313501 7.680401 27.14 18.18
9/2/2021 2:02:29 AM 18.18 64.724 0.3313501 7.677601 28.2475 18.1825
9/2/2021 2:17:29 AM 18.145 64.661 0.331 7.677601 36.7675 18.145
9/2/2021 2:32:29 AM 18.0975 64.5755 0.331 7.679701 35.68 18.0975
9/2/2021 2:47:29 AM 18.05 64.49 0.3313501 7.678301 31.4225 18.05
9/2/2021 3:02:30 AM 17.9975 64.3955 0.332 7.680401 27.0075 17.9975
9/2/2021 3:17:30 AM 17.98 64.364 0.332 7.679701 25.605 17.98
9/2/2021 3:47:30 AM 18.0475 64.4855 0.3313501 7.679001 24.9575 18.0475
9/2/2021 4:02:29 AM 18.08 64.544 0.331 7.679701 24.7225 18.08
9/2/2021 4:17:29 AM 17.91 64.238 0.3323501 7.683901 24.7675 17.91
9/2/2021 4:32:29 AM 17.8925 64.2065 0.3324 7.679001 24.5925 17.8925
9/2/2021 4:47:29 AM 17.995 64.391 0.3316499 7.678301 24.7375 17.995
9/2/2021 5:02:29 AM 17.9075 64.2335 0.3319501 7.680401 24.8425 17.9075
9/2/2021 5:17:29 AM 17.7375 63.9275 0.3334 7.678301 24.745 17.7375
9/2/2021 5:32:29 AM 17.82 64.076 0.3327 7.679701 24.7275 17.82
9/2/2021 6:02:29 AM 17.6825 63.8285 0.333 7.679701 25.1875 17.6825
9/2/2021 6:17:29 AM 17.6825 63.8285 0.3326499 7.679001 25.115 17.6825
9/2/2021 6:32:29 AM 17.735 63.923 0.332 7.674101 25.715 17.735
9/2/2021 6:47:29 AM 17.49 63.482 0.3334 7.674801 25.685 17.49
9/2/2021 7:02:29 AM 17.44 63.392 0.3334 7.676201 25.5925 17.44
9/2/2021 7:17:29 AM 17.525 63.545 0.332 7.673401 25.8725 17.525
9/2/2021 7:32:29 AM 17.5075 63.5135 0.3316499 7.669201 26.1675 17.5075
9/2/2021 7:47:29 AM 17.2675 63.0815 0.3334 7.669201 26.53 17.2675
9/2/2021 8:02:29 AM 17.3025 63.1445 0.3327 7.670601 25.69 17.3025
9/2/2021 8:17:29 AM 17.4025 63.3245 0.3313001 7.667801 25.615 17.4025
9/2/2021 8:32:29 AM 17.335 63.203 0.3316499 7.668501 25.595 17.335
9/2/2021 8:47:29 AM 17.265 63.077 0.332 7.674801 25.445 17.265
9/2/2021 9:02:29 AM 17.25 63.05 0.332 7.673401 25.9175 17.25
9/2/2021 9:17:29 AM 17.265 63.077 0.332 7.675501 28.8825 17.265
9/2/2021 9:32:29 AM 17.2825 63.1085 0.3316 7.674101 55.80005 17.2825
9/2/2021 9:47:29 AM 17.3 63.14 0.3312499 7.677601 44.09998 17.3
9/2/2021 10:02:29 AM 17.3 63.14 0.3312499 7.677601 42.12 17.3
9/2/2021 10:17:29 AM 17.3 63.14 0.3309 7.678301 39.1475 17.3
9/2/2021 10:32:29 AM 17.2975 63.1355 0.3309 7.679701 36.1075 17.2975
9/2/2021 10:47:29 AM 17.3 63.14 0.3306 7.683201 34.4775 17.3
9/2/2021 11:02:29 AM 17.3325 63.1985 0.3302 7.690201 33.27 17.3325
9/2/2021 11:17:29 AM 17.385 63.293 0.3299 7.691601 33.195 17.385
9/2/2021 11:32:30 AM 17.4525 63.4145 0.3295 7.703501 32.705 17.4525
9/2/2021 11:47:29 AM 17.505 63.509 0.32915 7.713301 32.24 17.505
9/2/2021 12:02:30 PM 17.575 63.635 0.32885 7.722401 31.9325 17.575
9/2/2021 12:17:30 PM 17.625 63.725 0.32885 7.737801 31.31 17.625
9/2/2021 12:32:30 PM 17.695 63.851 0.32885 7.751801 30.7 17.695
9/2/2021 12:47:29 PM 17.8 64.04 0.3285 7.760201 30.86 17.8
9/2/2021 1:02:30 PM 17.9 64.22 0.3281 7.7749 30.5225 17.9
9/2/2021 1:17:29 PM 18.0075 64.4135 0.3278 7.7896 30.68 18.0075
9/2/2021 1:32:29 PM 18.11 64.598 0.3274499 7.7987 30.2075 18.11
9/2/2021 1:47:29 PM 18.1775 64.7195 0.3270499 7.8148 30.1875 18.1775
9/2/2021 2:02:29 PM 18.23 64.814 0.3267501 7.8232 29.975 18.23
9/2/2021 2:17:29 PM 18.2825 64.9085 0.3263501 7.8337 29.825 18.2825
9/2/2021 2:32:29 PM 18.3325 64.9985 0.3256499 7.8379 29.37 18.3325
9/2/2021 2:47:29 PM 18.3325 64.9985 0.3253 7.8421 29.37 18.3325
9/2/2021 3:02:29 PM 18.3675 65.0615 0.325 7.8526 28.9475 18.3675
9/2/2021 3:17:29 PM 18.42 65.156 0.3243001 7.8575 28.9475 18.42
9/2/2021 3:32:29 PM 18.435 65.183 0.3239 7.861 28.505 18.435
9/2/2021 3:47:29 PM 18.5075 65.3135 0.3236 7.8708 28.665 18.5075
9/2/2021 4:02:29 PM 18.59 65.462 0.3229 7.8771 28.61 18.59
9/2/2021 4:17:29 PM 18.645 65.561 0.3226 7.8813 28.135 18.645
9/2/2021 4:47:29 PM 18.75 65.75 0.3215 7.8974 28.205 18.75
9/2/2021 5:02:29 PM 18.785 65.813 0.3212 7.8953 28.1175 18.785
9/2/2021 5:17:29 PM 18.8025 65.8445 0.3204499 7.8995 27.9975 18.8025
9/2/2021 5:32:29 PM 18.82 65.876 0.3197501 7.9002 28.1175 18.82
9/2/2021 5:47:29 PM 18.8 65.84 0.3191 7.9002 27.98 18.8
9/2/2021 6:02:29 PM 18.7825 65.8085 0.3184 7.9023 27.965 18.7825
9/2/2021 6:17:29 PM 18.75 65.75 0.3177501 7.9009 27.4525 18.75
9/2/2021 6:32:29 PM 18.715 65.687 0.3176999 7.8953 25.26 18.715
9/2/2021 6:47:29 PM 18.6825 65.6285 0.3174 7.8918 24.1225 18.6825
9/2/2021 7:02:29 PM 18.665 65.597 0.3167 7.8925 24.52 18.665
9/2/2021 7:17:29 PM 18.6475 65.5655 0.3163501 7.8862 24.2325 18.6475
9/2/2021 7:32:29 PM 18.615 65.507 0.3157 7.889 24.145 18.615
9/2/2021 7:47:29 PM 18.615 65.507 0.3153501 7.8834 24.705 18.615
9/2/2021 8:02:29 PM 18.595 65.471 0.3146499 7.8785 24.535 18.595
9/2/2021 8:17:29 PM 18.5625 65.4125 0.3143501 7.8729 24.275 18.5625
9/2/2021 8:32:29 PM 18.545 65.381 0.314 7.8687 24.4 18.545
9/2/2021 8:47:29 PM 18.5125 65.3225 0.3133501 7.8638 24.595 18.5125
9/2/2021 9:02:29 PM 18.475 65.255 0.313 7.8596 24.4075 18.475
9/2/2021 9:17:29 PM 18.4425 65.1965 0.3129501 7.8533 24.2 18.4425
9/2/2021 9:32:30 PM 18.3925 65.1065 0.3126499 7.8484 24.54 18.3925
9/2/2021 9:47:29 PM 18.3575 65.0435 0.3123001 7.8435 24.505 18.3575
9/2/2021 10:02:29 PM 18.3225 64.9805 0.3122499 7.8393 24.14 18.3225
9/2/2021 10:17:29 PM 18.27 64.886 0.312 7.8351 24.885 18.27
9/2/2021 10:47:29 PM 18.065 64.517 0.3123001 7.8197 24.275 18.065
9/2/2021 11:17:29 PM 17.925 64.265 0.3123501 7.8078 24.2125 17.925
9/2/2021 11:32:29 PM 17.8 64.04 0.3126999 7.8008 24.2275 17.8
9/3/2021 12:17:29 AM 17.71 63.878 0.3123001 7.7819